<?xml version="1.0" encoding="UTF-8" standalone="no" ?>
<gpx xmlns="http://www.topografix.com/GPX/1/1" xmlns:xsi="http://www.w3.org/2001/XMLSchema-instance" xsi:schemaLocation="http://www.topografix.com/GPX/1/1 http://www.topografix.com/GPX/1/1/gpx.xsd" version="1.1" creator="VisuGPX - https://www.visugpx.com">
  <metadata>
    <name>Sainte Victoire </name>
    <desc><![CDATA[grp_trc:[nouvelles]]]></desc>
  </metadata>
  <trk>
    <name><![CDATA[13 juin 2022 à 07:59:12]]></name>
    <cmt><![CDATA[13 juin 2022 à 07:59:12]]></cmt>
    <trkseg>
      <trkpt lat="45.3517" lon="5.78929">
        <ele>854</ele>
        <time>2022-06-13T05:59:13Z</time>
      </trkpt>
      <trkpt lat="45.35173" lon="5.78922">
        <ele>854</ele>
        <time>2022-06-13T05:59:14Z</time>
      </trkpt>
      <trkpt lat="45.35181" lon="5.78924">
        <ele>853</ele>
        <time>2022-06-13T05:59:16Z</time>
      </trkpt>
      <trkpt lat="45.35182" lon="5.78918">
        <ele>853</ele>
        <time>2022-06-13T05:59:18Z</time>
      </trkpt>
      <trkpt lat="45.35188" lon="5.78917">
        <ele>853</ele>
        <time>2022-06-13T05:59:20Z</time>
      </trkpt>
      <trkpt lat="45.35192" lon="5.78917">
        <ele>854</ele>
        <time>2022-06-13T05:59:24Z</time>
      </trkpt>
      <trkpt lat="45.35199" lon="5.78913">
        <ele>856</ele>
        <time>2022-06-13T05:59:32Z</time>
      </trkpt>
      <trkpt lat="45.35205" lon="5.78913">
        <ele>856</ele>
        <time>2022-06-13T05:59:36Z</time>
      </trkpt>
      <trkpt lat="45.3521" lon="5.78914">
        <ele>855</ele>
        <time>2022-06-13T05:59:41Z</time>
      </trkpt>
      <trkpt lat="45.35215" lon="5.78914">
        <ele>854</ele>
        <time>2022-06-13T05:59:44Z</time>
      </trkpt>
      <trkpt lat="45.3522" lon="5.78911">
        <ele>854</ele>
        <time>2022-06-13T05:59:48Z</time>
      </trkpt>
      <trkpt lat="45.35225" lon="5.7891">
        <ele>854</ele>
        <time>2022-06-13T05:59:51Z</time>
      </trkpt>
      <trkpt lat="45.3523" lon="5.78909">
        <ele>851</ele>
        <time>2022-06-13T05:59:54Z</time>
      </trkpt>
      <trkpt lat="45.35244" lon="5.78907">
        <ele>851</ele>
        <time>2022-06-13T06:00:04Z</time>
      </trkpt>
      <trkpt lat="45.35248" lon="5.78908">
        <ele>851</ele>
        <time>2022-06-13T06:00:08Z</time>
      </trkpt>
      <trkpt lat="45.35263" lon="5.7892">
        <ele>852</ele>
        <time>2022-06-13T06:00:22Z</time>
      </trkpt>
      <trkpt lat="45.35277" lon="5.7892">
        <ele>852</ele>
        <time>2022-06-13T06:00:33Z</time>
      </trkpt>
      <trkpt lat="45.35294" lon="5.78916">
        <ele>852</ele>
        <time>2022-06-13T06:00:47Z</time>
      </trkpt>
      <trkpt lat="45.353" lon="5.78919">
        <ele>853</ele>
        <time>2022-06-13T06:00:52Z</time>
      </trkpt>
      <trkpt lat="45.35305" lon="5.78921">
        <ele>853</ele>
        <time>2022-06-13T06:00:56Z</time>
      </trkpt>
      <trkpt lat="45.3531" lon="5.78923">
        <ele>853</ele>
        <time>2022-06-13T06:01:00Z</time>
      </trkpt>
      <trkpt lat="45.35319" lon="5.78931">
        <ele>854</ele>
        <time>2022-06-13T06:01:08Z</time>
      </trkpt>
      <trkpt lat="45.35325" lon="5.78932">
        <ele>855</ele>
        <time>2022-06-13T06:01:16Z</time>
      </trkpt>
      <trkpt lat="45.35334" lon="5.78938">
        <ele>855</ele>
        <time>2022-06-13T06:01:25Z</time>
      </trkpt>
      <trkpt lat="45.35344" lon="5.78941">
        <ele>857</ele>
        <time>2022-06-13T06:01:34Z</time>
      </trkpt>
      <trkpt lat="45.35355" lon="5.78952">
        <ele>858</ele>
        <time>2022-06-13T06:01:46Z</time>
      </trkpt>
      <trkpt lat="45.35362" lon="5.78953">
        <ele>858</ele>
        <time>2022-06-13T06:01:51Z</time>
      </trkpt>
      <trkpt lat="45.35371" lon="5.78964">
        <ele>860</ele>
        <time>2022-06-13T06:02:02Z</time>
      </trkpt>
      <trkpt lat="45.35383" lon="5.78963">
        <ele>861</ele>
        <time>2022-06-13T06:02:11Z</time>
      </trkpt>
      <trkpt lat="45.35395" lon="5.78968">
        <ele>862</ele>
        <time>2022-06-13T06:02:22Z</time>
      </trkpt>
      <trkpt lat="45.3541" lon="5.78985">
        <ele>863</ele>
        <time>2022-06-13T06:02:38Z</time>
      </trkpt>
      <trkpt lat="45.35418" lon="5.78989">
        <ele>864</ele>
        <time>2022-06-13T06:02:46Z</time>
      </trkpt>
      <trkpt lat="45.35428" lon="5.78999">
        <ele>866</ele>
        <time>2022-06-13T06:02:57Z</time>
      </trkpt>
      <trkpt lat="45.3545" lon="5.79008">
        <ele>868</ele>
        <time>2022-06-13T06:03:16Z</time>
      </trkpt>
      <trkpt lat="45.35456" lon="5.7901">
        <ele>868</ele>
        <time>2022-06-13T06:03:21Z</time>
      </trkpt>
      <trkpt lat="45.35464" lon="5.79014">
        <ele>869</ele>
        <time>2022-06-13T06:03:27Z</time>
      </trkpt>
      <trkpt lat="45.35469" lon="5.79015">
        <ele>869</ele>
        <time>2022-06-13T06:03:31Z</time>
      </trkpt>
      <trkpt lat="45.35473" lon="5.79019">
        <ele>870</ele>
        <time>2022-06-13T06:03:35Z</time>
      </trkpt>
      <trkpt lat="45.35489" lon="5.79024">
        <ele>871</ele>
        <time>2022-06-13T06:03:50Z</time>
      </trkpt>
      <trkpt lat="45.35494" lon="5.79027">
        <ele>871</ele>
        <time>2022-06-13T06:03:54Z</time>
      </trkpt>
      <trkpt lat="45.3552" lon="5.79033">
        <ele>874</ele>
        <time>2022-06-13T06:04:18Z</time>
      </trkpt>
      <trkpt lat="45.35525" lon="5.79032">
        <ele>874</ele>
        <time>2022-06-13T06:04:23Z</time>
      </trkpt>
      <trkpt lat="45.35535" lon="5.79035">
        <ele>875</ele>
        <time>2022-06-13T06:04:31Z</time>
      </trkpt>
      <trkpt lat="45.35539" lon="5.79038">
        <ele>875</ele>
        <time>2022-06-13T06:04:35Z</time>
      </trkpt>
      <trkpt lat="45.35544" lon="5.79039">
        <ele>876</ele>
        <time>2022-06-13T06:04:39Z</time>
      </trkpt>
      <trkpt lat="45.35546" lon="5.79044">
        <ele>876</ele>
        <time>2022-06-13T06:04:42Z</time>
      </trkpt>
      <trkpt lat="45.35552" lon="5.79043">
        <ele>876</ele>
        <time>2022-06-13T06:04:47Z</time>
      </trkpt>
      <trkpt lat="45.35556" lon="5.79048">
        <ele>877</ele>
        <time>2022-06-13T06:04:50Z</time>
      </trkpt>
      <trkpt lat="45.35558" lon="5.79054">
        <ele>877</ele>
        <time>2022-06-13T06:04:53Z</time>
      </trkpt>
      <trkpt lat="45.35563" lon="5.79055">
        <ele>877</ele>
        <time>2022-06-13T06:04:58Z</time>
      </trkpt>
      <trkpt lat="45.35568" lon="5.79053">
        <ele>878</ele>
        <time>2022-06-13T06:05:02Z</time>
      </trkpt>
      <trkpt lat="45.35577" lon="5.79055">
        <ele>878</ele>
        <time>2022-06-13T06:05:09Z</time>
      </trkpt>
      <trkpt lat="45.35582" lon="5.79056">
        <ele>879</ele>
        <time>2022-06-13T06:05:13Z</time>
      </trkpt>
      <trkpt lat="45.35592" lon="5.79056">
        <ele>879</ele>
        <time>2022-06-13T06:05:20Z</time>
      </trkpt>
      <trkpt lat="45.35596" lon="5.79058">
        <ele>879</ele>
        <time>2022-06-13T06:05:23Z</time>
      </trkpt>
      <trkpt lat="45.35601" lon="5.79058">
        <ele>880</ele>
        <time>2022-06-13T06:05:27Z</time>
      </trkpt>
      <trkpt lat="45.35612" lon="5.79062">
        <ele>880</ele>
        <time>2022-06-13T06:05:32Z</time>
      </trkpt>
      <trkpt lat="45.35617" lon="5.7906">
        <ele>881</ele>
        <time>2022-06-13T06:05:40Z</time>
      </trkpt>
      <trkpt lat="45.35621" lon="5.79062">
        <ele>881</ele>
        <time>2022-06-13T06:05:44Z</time>
      </trkpt>
      <trkpt lat="45.35631" lon="5.79061">
        <ele>881</ele>
        <time>2022-06-13T06:05:52Z</time>
      </trkpt>
      <trkpt lat="45.35636" lon="5.79058">
        <ele>882</ele>
        <time>2022-06-13T06:05:56Z</time>
      </trkpt>
      <trkpt lat="45.35645" lon="5.79058">
        <ele>882</ele>
        <time>2022-06-13T06:06:01Z</time>
      </trkpt>
      <trkpt lat="45.35649" lon="5.7906">
        <ele>882</ele>
        <time>2022-06-13T06:06:04Z</time>
      </trkpt>
      <trkpt lat="45.35663" lon="5.79058">
        <ele>883</ele>
        <time>2022-06-13T06:06:16Z</time>
      </trkpt>
      <trkpt lat="45.35672" lon="5.7906">
        <ele>884</ele>
        <time>2022-06-13T06:06:23Z</time>
      </trkpt>
      <trkpt lat="45.35682" lon="5.7906">
        <ele>885</ele>
        <time>2022-06-13T06:06:33Z</time>
      </trkpt>
      <trkpt lat="45.35711" lon="5.79069">
        <ele>886</ele>
        <time>2022-06-13T06:06:56Z</time>
      </trkpt>
      <trkpt lat="45.35741" lon="5.79069">
        <ele>889</ele>
        <time>2022-06-13T06:07:21Z</time>
      </trkpt>
      <trkpt lat="45.35745" lon="5.7907">
        <ele>889</ele>
        <time>2022-06-13T06:07:26Z</time>
      </trkpt>
      <trkpt lat="45.3575" lon="5.7907">
        <ele>890</ele>
        <time>2022-06-13T06:07:30Z</time>
      </trkpt>
      <trkpt lat="45.35759" lon="5.79073">
        <ele>890</ele>
        <time>2022-06-13T06:07:38Z</time>
      </trkpt>
      <trkpt lat="45.3578" lon="5.79073">
        <ele>892</ele>
        <time>2022-06-13T06:07:55Z</time>
      </trkpt>
      <trkpt lat="45.35791" lon="5.79075">
        <ele>893</ele>
        <time>2022-06-13T06:08:03Z</time>
      </trkpt>
      <trkpt lat="45.35795" lon="5.79074">
        <ele>893</ele>
        <time>2022-06-13T06:08:09Z</time>
      </trkpt>
      <trkpt lat="45.35801" lon="5.79074">
        <ele>894</ele>
        <time>2022-06-13T06:08:14Z</time>
      </trkpt>
      <trkpt lat="45.35805" lon="5.79073">
        <ele>894</ele>
        <time>2022-06-13T06:08:17Z</time>
      </trkpt>
      <trkpt lat="45.3581" lon="5.79074">
        <ele>894</ele>
        <time>2022-06-13T06:08:21Z</time>
      </trkpt>
      <trkpt lat="45.35816" lon="5.79073">
        <ele>895</ele>
        <time>2022-06-13T06:08:25Z</time>
      </trkpt>
      <trkpt lat="45.35827" lon="5.79078">
        <ele>895</ele>
        <time>2022-06-13T06:08:35Z</time>
      </trkpt>
      <trkpt lat="45.3583" lon="5.79081">
        <ele>896</ele>
        <time>2022-06-13T06:08:39Z</time>
      </trkpt>
      <trkpt lat="45.35837" lon="5.79084">
        <ele>896</ele>
        <time>2022-06-13T06:08:46Z</time>
      </trkpt>
      <trkpt lat="45.35851" lon="5.79093">
        <ele>897</ele>
        <time>2022-06-13T06:08:58Z</time>
      </trkpt>
      <trkpt lat="45.35861" lon="5.79096">
        <ele>897</ele>
        <time>2022-06-13T06:09:05Z</time>
      </trkpt>
      <trkpt lat="45.35865" lon="5.791">
        <ele>897</ele>
        <time>2022-06-13T06:09:10Z</time>
      </trkpt>
      <trkpt lat="45.35884" lon="5.79106">
        <ele>898</ele>
        <time>2022-06-13T06:09:25Z</time>
      </trkpt>
      <trkpt lat="45.35903" lon="5.79109">
        <ele>899</ele>
        <time>2022-06-13T06:09:41Z</time>
      </trkpt>
      <trkpt lat="45.35907" lon="5.79112">
        <ele>899</ele>
        <time>2022-06-13T06:09:44Z</time>
      </trkpt>
      <trkpt lat="45.3591" lon="5.79116">
        <ele>900</ele>
        <time>2022-06-13T06:09:48Z</time>
      </trkpt>
      <trkpt lat="45.35915" lon="5.79115">
        <ele>900</ele>
        <time>2022-06-13T06:09:51Z</time>
      </trkpt>
      <trkpt lat="45.3593" lon="5.79118">
        <ele>900</ele>
        <time>2022-06-13T06:10:04Z</time>
      </trkpt>
      <trkpt lat="45.35947" lon="5.79127">
        <ele>901</ele>
        <time>2022-06-13T06:10:18Z</time>
      </trkpt>
      <trkpt lat="45.35951" lon="5.79128">
        <ele>902</ele>
        <time>2022-06-13T06:10:21Z</time>
      </trkpt>
      <trkpt lat="45.35956" lon="5.79127">
        <ele>902</ele>
        <time>2022-06-13T06:10:25Z</time>
      </trkpt>
      <trkpt lat="45.35959" lon="5.79132">
        <ele>902</ele>
        <time>2022-06-13T06:10:43Z</time>
      </trkpt>
      <trkpt lat="45.35963" lon="5.79126">
        <ele>903</ele>
        <time>2022-06-13T06:11:13Z</time>
      </trkpt>
      <trkpt lat="45.35976" lon="5.79124">
        <ele>903</ele>
        <time>2022-06-13T06:11:27Z</time>
      </trkpt>
      <trkpt lat="45.35989" lon="5.79128">
        <ele>904</ele>
        <time>2022-06-13T06:11:39Z</time>
      </trkpt>
      <trkpt lat="45.35997" lon="5.79134">
        <ele>904</ele>
        <time>2022-06-13T06:11:49Z</time>
      </trkpt>
      <trkpt lat="45.36032" lon="5.79143">
        <ele>905</ele>
        <time>2022-06-13T06:12:14Z</time>
      </trkpt>
      <trkpt lat="45.36036" lon="5.79146">
        <ele>905</ele>
        <time>2022-06-13T06:12:18Z</time>
      </trkpt>
      <trkpt lat="45.36054" lon="5.79155">
        <ele>906</ele>
        <time>2022-06-13T06:12:35Z</time>
      </trkpt>
      <trkpt lat="45.36057" lon="5.79159">
        <ele>906</ele>
        <time>2022-06-13T06:12:39Z</time>
      </trkpt>
      <trkpt lat="45.36075" lon="5.79169">
        <ele>907</ele>
        <time>2022-06-13T06:12:55Z</time>
      </trkpt>
      <trkpt lat="45.3608" lon="5.7917">
        <ele>908</ele>
        <time>2022-06-13T06:12:59Z</time>
      </trkpt>
      <trkpt lat="45.36085" lon="5.79169">
        <ele>908</ele>
        <time>2022-06-13T06:13:03Z</time>
      </trkpt>
      <trkpt lat="45.36103" lon="5.79179">
        <ele>909</ele>
        <time>2022-06-13T06:13:17Z</time>
      </trkpt>
      <trkpt lat="45.36109" lon="5.79179">
        <ele>909</ele>
        <time>2022-06-13T06:13:21Z</time>
      </trkpt>
      <trkpt lat="45.3613" lon="5.79171">
        <ele>910</ele>
        <time>2022-06-13T06:13:37Z</time>
      </trkpt>
      <trkpt lat="45.36135" lon="5.79173">
        <ele>910</ele>
        <time>2022-06-13T06:13:43Z</time>
      </trkpt>
      <trkpt lat="45.3614" lon="5.79174">
        <ele>911</ele>
        <time>2022-06-13T06:13:47Z</time>
      </trkpt>
      <trkpt lat="45.36156" lon="5.79172">
        <ele>911</ele>
        <time>2022-06-13T06:13:59Z</time>
      </trkpt>
      <trkpt lat="45.3616" lon="5.79169">
        <ele>912</ele>
        <time>2022-06-13T06:14:02Z</time>
      </trkpt>
      <trkpt lat="45.36176" lon="5.79169">
        <ele>912</ele>
        <time>2022-06-13T06:14:15Z</time>
      </trkpt>
      <trkpt lat="45.36184" lon="5.79167">
        <ele>913</ele>
        <time>2022-06-13T06:14:22Z</time>
      </trkpt>
      <trkpt lat="45.36189" lon="5.79167">
        <ele>913</ele>
        <time>2022-06-13T06:14:27Z</time>
      </trkpt>
      <trkpt lat="45.36199" lon="5.79165">
        <ele>914</ele>
        <time>2022-06-13T06:14:36Z</time>
      </trkpt>
      <trkpt lat="45.36207" lon="5.7916">
        <ele>915</ele>
        <time>2022-06-13T06:14:43Z</time>
      </trkpt>
      <trkpt lat="45.36212" lon="5.79162">
        <ele>915</ele>
        <time>2022-06-13T06:14:47Z</time>
      </trkpt>
      <trkpt lat="45.36222" lon="5.79161">
        <ele>916</ele>
        <time>2022-06-13T06:14:56Z</time>
      </trkpt>
      <trkpt lat="45.36227" lon="5.79156">
        <ele>917</ele>
        <time>2022-06-13T06:15:00Z</time>
      </trkpt>
      <trkpt lat="45.36237" lon="5.79152">
        <ele>918</ele>
        <time>2022-06-13T06:15:07Z</time>
      </trkpt>
      <trkpt lat="45.36252" lon="5.79152">
        <ele>920</ele>
        <time>2022-06-13T06:15:21Z</time>
      </trkpt>
      <trkpt lat="45.36257" lon="5.79155">
        <ele>921</ele>
        <time>2022-06-13T06:15:26Z</time>
      </trkpt>
      <trkpt lat="45.36282" lon="5.79158">
        <ele>924</ele>
        <time>2022-06-13T06:15:48Z</time>
      </trkpt>
      <trkpt lat="45.36292" lon="5.79155">
        <ele>926</ele>
        <time>2022-06-13T06:15:57Z</time>
      </trkpt>
      <trkpt lat="45.36297" lon="5.79156">
        <ele>926</ele>
        <time>2022-06-13T06:16:01Z</time>
      </trkpt>
      <trkpt lat="45.36319" lon="5.79156">
        <ele>930</ele>
        <time>2022-06-13T06:16:23Z</time>
      </trkpt>
      <trkpt lat="45.3634" lon="5.79167">
        <ele>933</ele>
        <time>2022-06-13T06:16:46Z</time>
      </trkpt>
      <trkpt lat="45.36358" lon="5.79191">
        <ele>937</ele>
        <time>2022-06-13T06:17:12Z</time>
      </trkpt>
      <trkpt lat="45.36366" lon="5.79197">
        <ele>939</ele>
        <time>2022-06-13T06:17:21Z</time>
      </trkpt>
      <trkpt lat="45.36375" lon="5.79204">
        <ele>940</ele>
        <time>2022-06-13T06:17:31Z</time>
      </trkpt>
      <trkpt lat="45.3639" lon="5.79212">
        <ele>943</ele>
        <time>2022-06-13T06:17:47Z</time>
      </trkpt>
      <trkpt lat="45.36411" lon="5.79217">
        <ele>946</ele>
        <time>2022-06-13T06:18:09Z</time>
      </trkpt>
      <trkpt lat="45.36416" lon="5.7922">
        <ele>947</ele>
        <time>2022-06-13T06:18:13Z</time>
      </trkpt>
      <trkpt lat="45.36431" lon="5.79232">
        <ele>950</ele>
        <time>2022-06-13T06:18:33Z</time>
      </trkpt>
      <trkpt lat="45.36436" lon="5.79231">
        <ele>951</ele>
        <time>2022-06-13T06:18:37Z</time>
      </trkpt>
      <trkpt lat="45.36449" lon="5.79241">
        <ele>954</ele>
        <time>2022-06-13T06:18:51Z</time>
      </trkpt>
      <trkpt lat="45.36456" lon="5.79244">
        <ele>955</ele>
        <time>2022-06-13T06:18:59Z</time>
      </trkpt>
      <trkpt lat="45.36462" lon="5.79266">
        <ele>958</ele>
        <time>2022-06-13T06:19:12Z</time>
      </trkpt>
      <trkpt lat="45.36473" lon="5.79285">
        <ele>960</ele>
        <time>2022-06-13T06:19:29Z</time>
      </trkpt>
      <trkpt lat="45.36476" lon="5.79293">
        <ele>961</ele>
        <time>2022-06-13T06:19:36Z</time>
      </trkpt>
      <trkpt lat="45.36475" lon="5.79299">
        <ele>962</ele>
        <time>2022-06-13T06:19:40Z</time>
      </trkpt>
      <trkpt lat="45.36482" lon="5.79308">
        <ele>963</ele>
        <time>2022-06-13T06:19:49Z</time>
      </trkpt>
      <trkpt lat="45.36486" lon="5.7931">
        <ele>964</ele>
        <time>2022-06-13T06:19:53Z</time>
      </trkpt>
      <trkpt lat="45.36493" lon="5.79319">
        <ele>965</ele>
        <time>2022-06-13T06:20:01Z</time>
      </trkpt>
      <trkpt lat="45.36503" lon="5.79324">
        <ele>966</ele>
        <time>2022-06-13T06:20:09Z</time>
      </trkpt>
      <trkpt lat="45.36521" lon="5.7933">
        <ele>968</ele>
        <time>2022-06-13T06:20:24Z</time>
      </trkpt>
      <trkpt lat="45.36526" lon="5.79339">
        <ele>969</ele>
        <time>2022-06-13T06:20:33Z</time>
      </trkpt>
      <trkpt lat="45.3653" lon="5.79344">
        <ele>970</ele>
        <time>2022-06-13T06:20:38Z</time>
      </trkpt>
      <trkpt lat="45.36539" lon="5.79346">
        <ele>971</ele>
        <time>2022-06-13T06:20:47Z</time>
      </trkpt>
      <trkpt lat="45.36552" lon="5.79353">
        <ele>973</ele>
        <time>2022-06-13T06:21:00Z</time>
      </trkpt>
      <trkpt lat="45.36557" lon="5.79353">
        <ele>974</ele>
        <time>2022-06-13T06:21:04Z</time>
      </trkpt>
      <trkpt lat="45.36562" lon="5.79355">
        <ele>974</ele>
        <time>2022-06-13T06:21:08Z</time>
      </trkpt>
      <trkpt lat="45.36579" lon="5.79353">
        <ele>976</ele>
        <time>2022-06-13T06:21:23Z</time>
      </trkpt>
      <trkpt lat="45.36599" lon="5.79355">
        <ele>978</ele>
        <time>2022-06-13T06:21:39Z</time>
      </trkpt>
      <trkpt lat="45.36606" lon="5.79357">
        <ele>978</ele>
        <time>2022-06-13T06:21:46Z</time>
      </trkpt>
      <trkpt lat="45.36611" lon="5.79353">
        <ele>979</ele>
        <time>2022-06-13T06:21:49Z</time>
      </trkpt>
      <trkpt lat="45.36613" lon="5.79348">
        <ele>979</ele>
        <time>2022-06-13T06:21:53Z</time>
      </trkpt>
      <trkpt lat="45.36625" lon="5.79348">
        <ele>980</ele>
        <time>2022-06-13T06:22:03Z</time>
      </trkpt>
      <trkpt lat="45.36636" lon="5.79342">
        <ele>981</ele>
        <time>2022-06-13T06:22:10Z</time>
      </trkpt>
      <trkpt lat="45.36652" lon="5.7935">
        <ele>982</ele>
        <time>2022-06-13T06:22:28Z</time>
      </trkpt>
      <trkpt lat="45.36657" lon="5.79346">
        <ele>982</ele>
        <time>2022-06-13T06:22:33Z</time>
      </trkpt>
      <trkpt lat="45.36674" lon="5.79343">
        <ele>984</ele>
        <time>2022-06-13T06:22:47Z</time>
      </trkpt>
      <trkpt lat="45.36678" lon="5.79338">
        <ele>985</ele>
        <time>2022-06-13T06:22:52Z</time>
      </trkpt>
      <trkpt lat="45.36682" lon="5.79336">
        <ele>986</ele>
        <time>2022-06-13T06:22:56Z</time>
      </trkpt>
      <trkpt lat="45.36688" lon="5.79331">
        <ele>987</ele>
        <time>2022-06-13T06:23:03Z</time>
      </trkpt>
      <trkpt lat="45.36708" lon="5.79326">
        <ele>990</ele>
        <time>2022-06-13T06:23:22Z</time>
      </trkpt>
      <trkpt lat="45.36709" lon="5.79336">
        <ele>991</ele>
        <time>2022-06-13T06:23:27Z</time>
      </trkpt>
      <trkpt lat="45.36723" lon="5.79335">
        <ele>993</ele>
        <time>2022-06-13T06:23:43Z</time>
      </trkpt>
      <trkpt lat="45.36727" lon="5.79332">
        <ele>994</ele>
        <time>2022-06-13T06:23:46Z</time>
      </trkpt>
      <trkpt lat="45.36736" lon="5.79336">
        <ele>996</ele>
        <time>2022-06-13T06:23:58Z</time>
      </trkpt>
      <trkpt lat="45.36742" lon="5.79336">
        <ele>997</ele>
        <time>2022-06-13T06:24:04Z</time>
      </trkpt>
      <trkpt lat="45.36754" lon="5.79328">
        <ele>1000</ele>
        <time>2022-06-13T06:24:19Z</time>
      </trkpt>
      <trkpt lat="45.36759" lon="5.7933">
        <ele>1000</ele>
        <time>2022-06-13T06:24:24Z</time>
      </trkpt>
      <trkpt lat="45.36766" lon="5.79337">
        <ele>1002</ele>
        <time>2022-06-13T06:24:34Z</time>
      </trkpt>
      <trkpt lat="45.36774" lon="5.79339">
        <ele>1005</ele>
        <time>2022-06-13T06:24:46Z</time>
      </trkpt>
      <trkpt lat="45.36784" lon="5.79343">
        <ele>1006</ele>
        <time>2022-06-13T06:24:56Z</time>
      </trkpt>
      <trkpt lat="45.36787" lon="5.79346">
        <ele>1007</ele>
        <time>2022-06-13T06:24:59Z</time>
      </trkpt>
      <trkpt lat="45.36792" lon="5.79352">
        <ele>1008</ele>
        <time>2022-06-13T06:25:06Z</time>
      </trkpt>
      <trkpt lat="45.36801" lon="5.79353">
        <ele>1010</ele>
        <time>2022-06-13T06:25:16Z</time>
      </trkpt>
      <trkpt lat="45.36807" lon="5.7936">
        <ele>1012</ele>
        <time>2022-06-13T06:25:25Z</time>
      </trkpt>
      <trkpt lat="45.36812" lon="5.7936">
        <ele>1013</ele>
        <time>2022-06-13T06:25:32Z</time>
      </trkpt>
      <trkpt lat="45.3682" lon="5.79363">
        <ele>1014</ele>
        <time>2022-06-13T06:25:37Z</time>
      </trkpt>
      <trkpt lat="45.36824" lon="5.79371">
        <ele>1015</ele>
        <time>2022-06-13T06:25:45Z</time>
      </trkpt>
      <trkpt lat="45.36828" lon="5.79378">
        <ele>1016</ele>
        <time>2022-06-13T06:25:52Z</time>
      </trkpt>
      <trkpt lat="45.36837" lon="5.79381">
        <ele>1017</ele>
        <time>2022-06-13T06:25:58Z</time>
      </trkpt>
      <trkpt lat="45.36842" lon="5.79381">
        <ele>1018</ele>
        <time>2022-06-13T06:26:01Z</time>
      </trkpt>
      <trkpt lat="45.36852" lon="5.79384">
        <ele>1019</ele>
        <time>2022-06-13T06:26:13Z</time>
      </trkpt>
      <trkpt lat="45.36856" lon="5.79388">
        <ele>1020</ele>
        <time>2022-06-13T06:26:16Z</time>
      </trkpt>
      <trkpt lat="45.36877" lon="5.79389">
        <ele>1022</ele>
        <time>2022-06-13T06:26:34Z</time>
      </trkpt>
      <trkpt lat="45.36881" lon="5.79383">
        <ele>1023</ele>
        <time>2022-06-13T06:26:43Z</time>
      </trkpt>
      <trkpt lat="45.36889" lon="5.79387">
        <ele>1024</ele>
        <time>2022-06-13T06:26:50Z</time>
      </trkpt>
      <trkpt lat="45.36895" lon="5.79381">
        <ele>1025</ele>
        <time>2022-06-13T06:26:57Z</time>
      </trkpt>
      <trkpt lat="45.369" lon="5.79389">
        <ele>1026</ele>
        <time>2022-06-13T06:27:02Z</time>
      </trkpt>
      <trkpt lat="45.3691" lon="5.79388">
        <ele>1028</ele>
        <time>2022-06-13T06:27:11Z</time>
      </trkpt>
      <trkpt lat="45.36936" lon="5.79376">
        <ele>1033</ele>
        <time>2022-06-13T06:27:41Z</time>
      </trkpt>
      <trkpt lat="45.36943" lon="5.79385">
        <ele>1034</ele>
        <time>2022-06-13T06:27:48Z</time>
      </trkpt>
      <trkpt lat="45.36948" lon="5.79382">
        <ele>1034</ele>
        <time>2022-06-13T06:27:52Z</time>
      </trkpt>
      <trkpt lat="45.36951" lon="5.79376">
        <ele>1035</ele>
        <time>2022-06-13T06:27:56Z</time>
      </trkpt>
      <trkpt lat="45.36959" lon="5.79383">
        <ele>1036</ele>
        <time>2022-06-13T06:28:04Z</time>
      </trkpt>
      <trkpt lat="45.36972" lon="5.79379">
        <ele>1038</ele>
        <time>2022-06-13T06:28:18Z</time>
      </trkpt>
      <trkpt lat="45.36979" lon="5.79378">
        <ele>1039</ele>
        <time>2022-06-13T06:28:21Z</time>
      </trkpt>
      <trkpt lat="45.36985" lon="5.79369">
        <ele>1041</ele>
        <time>2022-06-13T06:28:32Z</time>
      </trkpt>
      <trkpt lat="45.36998" lon="5.7936">
        <ele>1043</ele>
        <time>2022-06-13T06:28:42Z</time>
      </trkpt>
      <trkpt lat="45.36999" lon="5.7935">
        <ele>1045</ele>
        <time>2022-06-13T06:28:52Z</time>
      </trkpt>
      <trkpt lat="45.37003" lon="5.79345">
        <ele>1046</ele>
        <time>2022-06-13T06:28:58Z</time>
      </trkpt>
      <trkpt lat="45.37019" lon="5.7934">
        <ele>1048</ele>
        <time>2022-06-13T06:29:14Z</time>
      </trkpt>
      <trkpt lat="45.37043" lon="5.79334">
        <ele>1053</ele>
        <time>2022-06-13T06:29:43Z</time>
      </trkpt>
      <trkpt lat="45.37042" lon="5.79327">
        <ele>1055</ele>
        <time>2022-06-13T06:29:49Z</time>
      </trkpt>
      <trkpt lat="45.37067" lon="5.79312">
        <ele>1059</ele>
        <time>2022-06-13T06:30:14Z</time>
      </trkpt>
      <trkpt lat="45.37068" lon="5.793">
        <ele>1060</ele>
        <time>2022-06-13T06:30:19Z</time>
      </trkpt>
      <trkpt lat="45.37073" lon="5.79292">
        <ele>1062</ele>
        <time>2022-06-13T06:30:31Z</time>
      </trkpt>
      <trkpt lat="45.37082" lon="5.7929">
        <ele>1064</ele>
        <time>2022-06-13T06:30:42Z</time>
      </trkpt>
      <trkpt lat="45.371" lon="5.7929">
        <ele>1066</ele>
        <time>2022-06-13T06:30:58Z</time>
      </trkpt>
      <trkpt lat="45.3711" lon="5.79293">
        <ele>1068</ele>
        <time>2022-06-13T06:31:08Z</time>
      </trkpt>
      <trkpt lat="45.37128" lon="5.79282">
        <ele>1070</ele>
        <time>2022-06-13T06:31:25Z</time>
      </trkpt>
      <trkpt lat="45.37133" lon="5.79288">
        <ele>1072</ele>
        <time>2022-06-13T06:31:34Z</time>
      </trkpt>
      <trkpt lat="45.37138" lon="5.79287">
        <ele>1073</ele>
        <time>2022-06-13T06:31:41Z</time>
      </trkpt>
      <trkpt lat="45.3714" lon="5.79294">
        <ele>1074</ele>
        <time>2022-06-13T06:31:46Z</time>
      </trkpt>
      <trkpt lat="45.37146" lon="5.79297">
        <ele>1075</ele>
        <time>2022-06-13T06:31:51Z</time>
      </trkpt>
      <trkpt lat="45.37153" lon="5.79291">
        <ele>1075</ele>
        <time>2022-06-13T06:31:54Z</time>
      </trkpt>
      <trkpt lat="45.37159" lon="5.79293">
        <ele>1076</ele>
        <time>2022-06-13T06:32:02Z</time>
      </trkpt>
      <trkpt lat="45.37163" lon="5.79301">
        <ele>1078</ele>
        <time>2022-06-13T06:32:14Z</time>
      </trkpt>
      <trkpt lat="45.37175" lon="5.79301">
        <ele>1080</ele>
        <time>2022-06-13T06:32:23Z</time>
      </trkpt>
      <trkpt lat="45.37183" lon="5.793">
        <ele>1082</ele>
        <time>2022-06-13T06:32:34Z</time>
      </trkpt>
      <trkpt lat="45.37189" lon="5.79304">
        <ele>1083</ele>
        <time>2022-06-13T06:32:38Z</time>
      </trkpt>
      <trkpt lat="45.37193" lon="5.79309">
        <ele>1084</ele>
        <time>2022-06-13T06:32:46Z</time>
      </trkpt>
      <trkpt lat="45.37199" lon="5.79308">
        <ele>1085</ele>
        <time>2022-06-13T06:32:50Z</time>
      </trkpt>
      <trkpt lat="45.37203" lon="5.79312">
        <ele>1086</ele>
        <time>2022-06-13T06:32:57Z</time>
      </trkpt>
      <trkpt lat="45.37208" lon="5.79313">
        <ele>1087</ele>
        <time>2022-06-13T06:33:03Z</time>
      </trkpt>
      <trkpt lat="45.37217" lon="5.79319">
        <ele>1089</ele>
        <time>2022-06-13T06:33:15Z</time>
      </trkpt>
      <trkpt lat="45.37217" lon="5.79319">
        <ele>1090</ele>
        <time>2022-06-13T06:33:35Z</time>
      </trkpt>
      <trkpt lat="45.37226" lon="5.79316">
        <ele>1090</ele>
        <time>2022-06-13T06:33:40Z</time>
      </trkpt>
      <trkpt lat="45.37224" lon="5.7932">
        <ele>1091</ele>
        <time>2022-06-13T06:34:21Z</time>
      </trkpt>
      <trkpt lat="45.37216" lon="5.79329">
        <ele>1091</ele>
        <time>2022-06-13T06:34:35Z</time>
      </trkpt>
      <trkpt lat="45.37216" lon="5.79327">
        <ele>1092</ele>
        <time>2022-06-13T06:35:55Z</time>
      </trkpt>
      <trkpt lat="45.37211" lon="5.79324">
        <ele>1092</ele>
        <time>2022-06-13T06:36:17Z</time>
      </trkpt>
      <trkpt lat="45.37208" lon="5.79334">
        <ele>1093</ele>
        <time>2022-06-13T06:37:48Z</time>
      </trkpt>
      <trkpt lat="45.37217" lon="5.79342">
        <ele>1094</ele>
        <time>2022-06-13T06:37:54Z</time>
      </trkpt>
      <trkpt lat="45.37229" lon="5.7933">
        <ele>1094</ele>
        <time>2022-06-13T06:37:56Z</time>
      </trkpt>
      <trkpt lat="45.37237" lon="5.79342">
        <ele>1095</ele>
        <time>2022-06-13T06:38:07Z</time>
      </trkpt>
      <trkpt lat="45.37242" lon="5.7935">
        <ele>1096</ele>
        <time>2022-06-13T06:38:12Z</time>
      </trkpt>
      <trkpt lat="45.37249" lon="5.7935">
        <ele>1097</ele>
        <time>2022-06-13T06:38:19Z</time>
      </trkpt>
      <trkpt lat="45.37263" lon="5.79366">
        <ele>1099</ele>
        <time>2022-06-13T06:38:37Z</time>
      </trkpt>
      <trkpt lat="45.37268" lon="5.79371">
        <ele>1100</ele>
        <time>2022-06-13T06:38:44Z</time>
      </trkpt>
      <trkpt lat="45.37277" lon="5.79386">
        <ele>1102</ele>
        <time>2022-06-13T06:38:53Z</time>
      </trkpt>
      <trkpt lat="45.37283" lon="5.79402">
        <ele>1104</ele>
        <time>2022-06-13T06:39:06Z</time>
      </trkpt>
      <trkpt lat="45.37292" lon="5.7941">
        <ele>1105</ele>
        <time>2022-06-13T06:39:14Z</time>
      </trkpt>
      <trkpt lat="45.37298" lon="5.79418">
        <ele>1107</ele>
        <time>2022-06-13T06:39:26Z</time>
      </trkpt>
      <trkpt lat="45.373" lon="5.79438">
        <ele>1110</ele>
        <time>2022-06-13T06:39:40Z</time>
      </trkpt>
      <trkpt lat="45.37313" lon="5.79446">
        <ele>1113</ele>
        <time>2022-06-13T06:39:56Z</time>
      </trkpt>
      <trkpt lat="45.3732" lon="5.79454">
        <ele>1115</ele>
        <time>2022-06-13T06:40:07Z</time>
      </trkpt>
      <trkpt lat="45.37321" lon="5.7946">
        <ele>1116</ele>
        <time>2022-06-13T06:40:11Z</time>
      </trkpt>
      <trkpt lat="45.3733" lon="5.7947">
        <ele>1118</ele>
        <time>2022-06-13T06:40:24Z</time>
      </trkpt>
      <trkpt lat="45.37333" lon="5.79477">
        <ele>1119</ele>
        <time>2022-06-13T06:40:28Z</time>
      </trkpt>
      <trkpt lat="45.37344" lon="5.79478">
        <ele>1121</ele>
        <time>2022-06-13T06:40:39Z</time>
      </trkpt>
      <trkpt lat="45.37348" lon="5.79481">
        <ele>1121</ele>
        <time>2022-06-13T06:40:43Z</time>
      </trkpt>
      <trkpt lat="45.37358" lon="5.79488">
        <ele>1123</ele>
        <time>2022-06-13T06:40:52Z</time>
      </trkpt>
      <trkpt lat="45.37359" lon="5.79495">
        <ele>1123</ele>
        <time>2022-06-13T06:40:55Z</time>
      </trkpt>
      <trkpt lat="45.37363" lon="5.79492">
        <ele>1124</ele>
        <time>2022-06-13T06:40:59Z</time>
      </trkpt>
      <trkpt lat="45.37369" lon="5.79496">
        <ele>1125</ele>
        <time>2022-06-13T06:41:03Z</time>
      </trkpt>
      <trkpt lat="45.37376" lon="5.7949">
        <ele>1125</ele>
        <time>2022-06-13T06:41:07Z</time>
      </trkpt>
      <trkpt lat="45.3738" lon="5.79491">
        <ele>1126</ele>
        <time>2022-06-13T06:41:12Z</time>
      </trkpt>
      <trkpt lat="45.37386" lon="5.79495">
        <ele>1126</ele>
        <time>2022-06-13T06:41:18Z</time>
      </trkpt>
      <trkpt lat="45.3739" lon="5.79499">
        <ele>1127</ele>
        <time>2022-06-13T06:41:21Z</time>
      </trkpt>
      <trkpt lat="45.37396" lon="5.79501">
        <ele>1127</ele>
        <time>2022-06-13T06:41:28Z</time>
      </trkpt>
      <trkpt lat="45.37404" lon="5.795">
        <ele>1129</ele>
        <time>2022-06-13T06:41:36Z</time>
      </trkpt>
      <trkpt lat="45.3741" lon="5.79497">
        <ele>1129</ele>
        <time>2022-06-13T06:41:39Z</time>
      </trkpt>
      <trkpt lat="45.37424" lon="5.79499">
        <ele>1131</ele>
        <time>2022-06-13T06:41:55Z</time>
      </trkpt>
      <trkpt lat="45.37431" lon="5.79505">
        <ele>1131</ele>
        <time>2022-06-13T06:42:00Z</time>
      </trkpt>
      <trkpt lat="45.37436" lon="5.79511">
        <ele>1132</ele>
        <time>2022-06-13T06:42:04Z</time>
      </trkpt>
      <trkpt lat="45.37465" lon="5.79528">
        <ele>1135</ele>
        <time>2022-06-13T06:42:37Z</time>
      </trkpt>
      <trkpt lat="45.37478" lon="5.79539">
        <ele>1137</ele>
        <time>2022-06-13T06:42:51Z</time>
      </trkpt>
      <trkpt lat="45.37494" lon="5.79545">
        <ele>1138</ele>
        <time>2022-06-13T06:43:05Z</time>
      </trkpt>
      <trkpt lat="45.37502" lon="5.79547">
        <ele>1139</ele>
        <time>2022-06-13T06:43:13Z</time>
      </trkpt>
      <trkpt lat="45.37507" lon="5.79545">
        <ele>1140</ele>
        <time>2022-06-13T06:43:17Z</time>
      </trkpt>
      <trkpt lat="45.37517" lon="5.79543">
        <ele>1141</ele>
        <time>2022-06-13T06:43:26Z</time>
      </trkpt>
      <trkpt lat="45.37529" lon="5.79559">
        <ele>1142</ele>
        <time>2022-06-13T06:43:39Z</time>
      </trkpt>
      <trkpt lat="45.37525" lon="5.79582">
        <ele>1144</ele>
        <time>2022-06-13T06:43:57Z</time>
      </trkpt>
      <trkpt lat="45.37528" lon="5.79588">
        <ele>1145</ele>
        <time>2022-06-13T06:44:01Z</time>
      </trkpt>
      <trkpt lat="45.37531" lon="5.79597">
        <ele>1147</ele>
        <time>2022-06-13T06:44:11Z</time>
      </trkpt>
      <trkpt lat="45.37532" lon="5.79604">
        <ele>1148</ele>
        <time>2022-06-13T06:44:18Z</time>
      </trkpt>
      <trkpt lat="45.37537" lon="5.79608">
        <ele>1150</ele>
        <time>2022-06-13T06:44:29Z</time>
      </trkpt>
      <trkpt lat="45.37533" lon="5.79611">
        <ele>1152</ele>
        <time>2022-06-13T06:44:36Z</time>
      </trkpt>
      <trkpt lat="45.37544" lon="5.79627">
        <ele>1153</ele>
        <time>2022-06-13T06:44:50Z</time>
      </trkpt>
      <trkpt lat="45.37546" lon="5.79635">
        <ele>1154</ele>
        <time>2022-06-13T06:44:59Z</time>
      </trkpt>
      <trkpt lat="45.37545" lon="5.79644">
        <ele>1156</ele>
        <time>2022-06-13T06:45:09Z</time>
      </trkpt>
      <trkpt lat="45.37553" lon="5.79654">
        <ele>1157</ele>
        <time>2022-06-13T06:45:18Z</time>
      </trkpt>
      <trkpt lat="45.37559" lon="5.79653">
        <ele>1157</ele>
        <time>2022-06-13T06:45:21Z</time>
      </trkpt>
      <trkpt lat="45.37566" lon="5.79656">
        <ele>1158</ele>
        <time>2022-06-13T06:45:28Z</time>
      </trkpt>
      <trkpt lat="45.37571" lon="5.79661">
        <ele>1158</ele>
        <time>2022-06-13T06:45:32Z</time>
      </trkpt>
      <trkpt lat="45.37579" lon="5.7966">
        <ele>1159</ele>
        <time>2022-06-13T06:45:39Z</time>
      </trkpt>
      <trkpt lat="45.37593" lon="5.7967">
        <ele>1161</ele>
        <time>2022-06-13T06:45:59Z</time>
      </trkpt>
      <trkpt lat="45.37599" lon="5.79671">
        <ele>1162</ele>
        <time>2022-06-13T06:46:02Z</time>
      </trkpt>
      <trkpt lat="45.37605" lon="5.79676">
        <ele>1162</ele>
        <time>2022-06-13T06:46:07Z</time>
      </trkpt>
      <trkpt lat="45.37609" lon="5.79677">
        <ele>1162</ele>
        <time>2022-06-13T06:46:10Z</time>
      </trkpt>
      <trkpt lat="45.37614" lon="5.79681">
        <ele>1163</ele>
        <time>2022-06-13T06:46:15Z</time>
      </trkpt>
      <trkpt lat="45.3762" lon="5.79682">
        <ele>1163</ele>
        <time>2022-06-13T06:46:19Z</time>
      </trkpt>
      <trkpt lat="45.37629" lon="5.79682">
        <ele>1165</ele>
        <time>2022-06-13T06:46:31Z</time>
      </trkpt>
      <trkpt lat="45.37634" lon="5.79683">
        <ele>1165</ele>
        <time>2022-06-13T06:46:33Z</time>
      </trkpt>
      <trkpt lat="45.37636" lon="5.7969">
        <ele>1166</ele>
        <time>2022-06-13T06:46:38Z</time>
      </trkpt>
      <trkpt lat="45.37643" lon="5.79691">
        <ele>1167</ele>
        <time>2022-06-13T06:46:45Z</time>
      </trkpt>
      <trkpt lat="45.37656" lon="5.79704">
        <ele>1168</ele>
        <time>2022-06-13T06:46:59Z</time>
      </trkpt>
      <trkpt lat="45.3766" lon="5.79705">
        <ele>1168</ele>
        <time>2022-06-13T06:47:02Z</time>
      </trkpt>
      <trkpt lat="45.37663" lon="5.79713">
        <ele>1168</ele>
        <time>2022-06-13T06:47:07Z</time>
      </trkpt>
      <trkpt lat="45.3767" lon="5.7971">
        <ele>1169</ele>
        <time>2022-06-13T06:47:13Z</time>
      </trkpt>
      <trkpt lat="45.37675" lon="5.79709">
        <ele>1169</ele>
        <time>2022-06-13T06:47:16Z</time>
      </trkpt>
      <trkpt lat="45.37672" lon="5.79713">
        <ele>1168</ele>
        <time>2022-06-13T06:48:36Z</time>
      </trkpt>
      <trkpt lat="45.37679" lon="5.79719">
        <ele>1168</ele>
        <time>2022-06-13T06:48:42Z</time>
      </trkpt>
      <trkpt lat="45.37685" lon="5.79723">
        <ele>1168</ele>
        <time>2022-06-13T06:48:48Z</time>
      </trkpt>
      <trkpt lat="45.3769" lon="5.79731">
        <ele>1169</ele>
        <time>2022-06-13T06:48:57Z</time>
      </trkpt>
      <trkpt lat="45.37693" lon="5.79739">
        <ele>1169</ele>
        <time>2022-06-13T06:49:01Z</time>
      </trkpt>
      <trkpt lat="45.37699" lon="5.79742">
        <ele>1170</ele>
        <time>2022-06-13T06:49:08Z</time>
      </trkpt>
      <trkpt lat="45.37707" lon="5.79753">
        <ele>1172</ele>
        <time>2022-06-13T06:49:22Z</time>
      </trkpt>
      <trkpt lat="45.3771" lon="5.79765">
        <ele>1173</ele>
        <time>2022-06-13T06:49:34Z</time>
      </trkpt>
      <trkpt lat="45.37716" lon="5.79765">
        <ele>1174</ele>
        <time>2022-06-13T06:49:39Z</time>
      </trkpt>
      <trkpt lat="45.3772" lon="5.79777">
        <ele>1175</ele>
        <time>2022-06-13T06:49:47Z</time>
      </trkpt>
      <trkpt lat="45.37719" lon="5.79795">
        <ele>1177</ele>
        <time>2022-06-13T06:49:58Z</time>
      </trkpt>
      <trkpt lat="45.37751" lon="5.7981">
        <ele>1182</ele>
        <time>2022-06-13T06:50:30Z</time>
      </trkpt>
      <trkpt lat="45.37743" lon="5.79823">
        <ele>1183</ele>
        <time>2022-06-13T06:50:36Z</time>
      </trkpt>
      <trkpt lat="45.37754" lon="5.79826">
        <ele>1185</ele>
        <time>2022-06-13T06:50:50Z</time>
      </trkpt>
      <trkpt lat="45.37758" lon="5.79835">
        <ele>1187</ele>
        <time>2022-06-13T06:51:00Z</time>
      </trkpt>
      <trkpt lat="45.37759" lon="5.7985">
        <ele>1188</ele>
        <time>2022-06-13T06:51:10Z</time>
      </trkpt>
      <trkpt lat="45.37769" lon="5.79862">
        <ele>1189</ele>
        <time>2022-06-13T06:51:21Z</time>
      </trkpt>
      <trkpt lat="45.37778" lon="5.79862">
        <ele>1189</ele>
        <time>2022-06-13T06:51:27Z</time>
      </trkpt>
      <trkpt lat="45.37794" lon="5.79866">
        <ele>1191</ele>
        <time>2022-06-13T06:51:44Z</time>
      </trkpt>
      <trkpt lat="45.3781" lon="5.79873">
        <ele>1194</ele>
        <time>2022-06-13T06:51:55Z</time>
      </trkpt>
      <trkpt lat="45.37811" lon="5.79882">
        <ele>1196</ele>
        <time>2022-06-13T06:52:08Z</time>
      </trkpt>
      <trkpt lat="45.3782" lon="5.79887">
        <ele>1198</ele>
        <time>2022-06-13T06:52:20Z</time>
      </trkpt>
      <trkpt lat="45.37835" lon="5.79891">
        <ele>1200</ele>
        <time>2022-06-13T06:52:36Z</time>
      </trkpt>
      <trkpt lat="45.37845" lon="5.79899">
        <ele>1201</ele>
        <time>2022-06-13T06:52:43Z</time>
      </trkpt>
      <trkpt lat="45.37853" lon="5.79892">
        <ele>1202</ele>
        <time>2022-06-13T06:52:49Z</time>
      </trkpt>
      <trkpt lat="45.3786" lon="5.79889">
        <ele>1205</ele>
        <time>2022-06-13T06:53:03Z</time>
      </trkpt>
      <trkpt lat="45.37863" lon="5.79916">
        <ele>1207</ele>
        <time>2022-06-13T06:53:18Z</time>
      </trkpt>
      <trkpt lat="45.37874" lon="5.79921">
        <ele>1211</ele>
        <time>2022-06-13T06:53:37Z</time>
      </trkpt>
      <trkpt lat="45.37882" lon="5.79914">
        <ele>1211</ele>
        <time>2022-06-13T06:53:40Z</time>
      </trkpt>
      <trkpt lat="45.37894" lon="5.79927">
        <ele>1213</ele>
        <time>2022-06-13T06:53:54Z</time>
      </trkpt>
      <trkpt lat="45.37911" lon="5.79919">
        <ele>1219</ele>
        <time>2022-06-13T06:54:26Z</time>
      </trkpt>
      <trkpt lat="45.37927" lon="5.79923">
        <ele>1221</ele>
        <time>2022-06-13T06:54:38Z</time>
      </trkpt>
      <trkpt lat="45.37938" lon="5.79921">
        <ele>1223</ele>
        <time>2022-06-13T06:54:54Z</time>
      </trkpt>
      <trkpt lat="45.37946" lon="5.79914">
        <ele>1224</ele>
        <time>2022-06-13T06:55:03Z</time>
      </trkpt>
      <trkpt lat="45.3796" lon="5.79918">
        <ele>1227</ele>
        <time>2022-06-13T06:55:24Z</time>
      </trkpt>
      <trkpt lat="45.37964" lon="5.79899">
        <ele>1228</ele>
        <time>2022-06-13T06:55:33Z</time>
      </trkpt>
      <trkpt lat="45.37976" lon="5.79887">
        <ele>1231</ele>
        <time>2022-06-13T06:55:53Z</time>
      </trkpt>
      <trkpt lat="45.3799" lon="5.79868">
        <ele>1238</ele>
        <time>2022-06-13T06:56:33Z</time>
      </trkpt>
      <trkpt lat="45.37999" lon="5.79844">
        <ele>1244</ele>
        <time>2022-06-13T06:57:07Z</time>
      </trkpt>
      <trkpt lat="45.37996" lon="5.79826">
        <ele>1249</ele>
        <time>2022-06-13T06:57:35Z</time>
      </trkpt>
      <trkpt lat="45.37998" lon="5.79815">
        <ele>1251</ele>
        <time>2022-06-13T06:57:46Z</time>
      </trkpt>
      <trkpt lat="45.37997" lon="5.798">
        <ele>1256</ele>
        <time>2022-06-13T06:58:07Z</time>
      </trkpt>
      <trkpt lat="45.37988" lon="5.798">
        <ele>1257</ele>
        <time>2022-06-13T06:58:13Z</time>
      </trkpt>
      <trkpt lat="45.37995" lon="5.79781">
        <ele>1262</ele>
        <time>2022-06-13T06:58:40Z</time>
      </trkpt>
      <trkpt lat="45.37994" lon="5.79775">
        <ele>1263</ele>
        <time>2022-06-13T06:58:45Z</time>
      </trkpt>
      <trkpt lat="45.37993" lon="5.79767">
        <ele>1265</ele>
        <time>2022-06-13T06:58:55Z</time>
      </trkpt>
      <trkpt lat="45.38016" lon="5.79746">
        <ele>1269</ele>
        <time>2022-06-13T06:59:28Z</time>
      </trkpt>
      <trkpt lat="45.38015" lon="5.7974">
        <ele>1269</ele>
        <time>2022-06-13T06:59:50Z</time>
      </trkpt>
      <trkpt lat="45.38016" lon="5.79734">
        <ele>1272</ele>
        <time>2022-06-13T07:00:00Z</time>
      </trkpt>
      <trkpt lat="45.38019" lon="5.79728">
        <ele>1272</ele>
        <time>2022-06-13T07:00:03Z</time>
      </trkpt>
      <trkpt lat="45.38031" lon="5.79725">
        <ele>1275</ele>
        <time>2022-06-13T07:00:17Z</time>
      </trkpt>
      <trkpt lat="45.38037" lon="5.79724">
        <ele>1276</ele>
        <time>2022-06-13T07:00:31Z</time>
      </trkpt>
      <trkpt lat="45.38042" lon="5.79725">
        <ele>1277</ele>
        <time>2022-06-13T07:00:37Z</time>
      </trkpt>
      <trkpt lat="45.38049" lon="5.79725">
        <ele>1277</ele>
        <time>2022-06-13T07:00:40Z</time>
      </trkpt>
      <trkpt lat="45.38054" lon="5.79723">
        <ele>1278</ele>
        <time>2022-06-13T07:00:48Z</time>
      </trkpt>
      <trkpt lat="45.38061" lon="5.79719">
        <ele>1279</ele>
        <time>2022-06-13T07:00:57Z</time>
      </trkpt>
      <trkpt lat="45.38069" lon="5.79717">
        <ele>1281</ele>
        <time>2022-06-13T07:01:08Z</time>
      </trkpt>
      <trkpt lat="45.38075" lon="5.79714">
        <ele>1282</ele>
        <time>2022-06-13T07:01:16Z</time>
      </trkpt>
      <trkpt lat="45.38097" lon="5.79707">
        <ele>1286</ele>
        <time>2022-06-13T07:01:40Z</time>
      </trkpt>
      <trkpt lat="45.38101" lon="5.79701">
        <ele>1288</ele>
        <time>2022-06-13T07:01:48Z</time>
      </trkpt>
      <trkpt lat="45.38123" lon="5.79687">
        <ele>1292</ele>
        <time>2022-06-13T07:02:15Z</time>
      </trkpt>
      <trkpt lat="45.38131" lon="5.79687">
        <ele>1293</ele>
        <time>2022-06-13T07:02:25Z</time>
      </trkpt>
      <trkpt lat="45.38141" lon="5.79684">
        <ele>1295</ele>
        <time>2022-06-13T07:02:38Z</time>
      </trkpt>
      <trkpt lat="45.38167" lon="5.79684">
        <ele>1302</ele>
        <time>2022-06-13T07:03:13Z</time>
      </trkpt>
      <trkpt lat="45.38186" lon="5.79679">
        <ele>1306</ele>
        <time>2022-06-13T07:03:38Z</time>
      </trkpt>
      <trkpt lat="45.38194" lon="5.79676">
        <ele>1308</ele>
        <time>2022-06-13T07:03:49Z</time>
      </trkpt>
      <trkpt lat="45.38208" lon="5.79676">
        <ele>1311</ele>
        <time>2022-06-13T07:04:07Z</time>
      </trkpt>
      <trkpt lat="45.38214" lon="5.7968">
        <ele>1312</ele>
        <time>2022-06-13T07:04:17Z</time>
      </trkpt>
      <trkpt lat="45.38219" lon="5.79678">
        <ele>1313</ele>
        <time>2022-06-13T07:04:23Z</time>
      </trkpt>
      <trkpt lat="45.3823" lon="5.79681">
        <ele>1316</ele>
        <time>2022-06-13T07:04:41Z</time>
      </trkpt>
      <trkpt lat="45.38241" lon="5.79684">
        <ele>1319</ele>
        <time>2022-06-13T07:04:58Z</time>
      </trkpt>
      <trkpt lat="45.38245" lon="5.79688">
        <ele>1321</ele>
        <time>2022-06-13T07:05:08Z</time>
      </trkpt>
      <trkpt lat="45.3825" lon="5.79692">
        <ele>1323</ele>
        <time>2022-06-13T07:05:18Z</time>
      </trkpt>
      <trkpt lat="45.38259" lon="5.79691">
        <ele>1325</ele>
        <time>2022-06-13T07:05:29Z</time>
      </trkpt>
      <trkpt lat="45.38269" lon="5.79694">
        <ele>1327</ele>
        <time>2022-06-13T07:05:44Z</time>
      </trkpt>
      <trkpt lat="45.38274" lon="5.79692">
        <ele>1328</ele>
        <time>2022-06-13T07:05:50Z</time>
      </trkpt>
      <trkpt lat="45.38291" lon="5.79695">
        <ele>1331</ele>
        <time>2022-06-13T07:06:10Z</time>
      </trkpt>
      <trkpt lat="45.38302" lon="5.7969">
        <ele>1332</ele>
        <time>2022-06-13T07:06:22Z</time>
      </trkpt>
      <trkpt lat="45.38329" lon="5.79692">
        <ele>1338</ele>
        <time>2022-06-13T07:06:58Z</time>
      </trkpt>
      <trkpt lat="45.38334" lon="5.79688">
        <ele>1338</ele>
        <time>2022-06-13T07:07:04Z</time>
      </trkpt>
      <trkpt lat="45.38362" lon="5.7969">
        <ele>1344</ele>
        <time>2022-06-13T07:07:40Z</time>
      </trkpt>
      <trkpt lat="45.38375" lon="5.79687">
        <ele>1346</ele>
        <time>2022-06-13T07:07:56Z</time>
      </trkpt>
      <trkpt lat="45.3838" lon="5.79689">
        <ele>1348</ele>
        <time>2022-06-13T07:08:06Z</time>
      </trkpt>
      <trkpt lat="45.38388" lon="5.79688">
        <ele>1350</ele>
        <time>2022-06-13T07:08:17Z</time>
      </trkpt>
      <trkpt lat="45.38392" lon="5.79689">
        <ele>1351</ele>
        <time>2022-06-13T07:08:23Z</time>
      </trkpt>
      <trkpt lat="45.38396" lon="5.79689">
        <ele>1352</ele>
        <time>2022-06-13T07:08:29Z</time>
      </trkpt>
      <trkpt lat="45.38403" lon="5.79691">
        <ele>1354</ele>
        <time>2022-06-13T07:08:41Z</time>
      </trkpt>
      <trkpt lat="45.38411" lon="5.79691">
        <ele>1356</ele>
        <time>2022-06-13T07:08:52Z</time>
      </trkpt>
      <trkpt lat="45.38418" lon="5.79693">
        <ele>1358</ele>
        <time>2022-06-13T07:09:02Z</time>
      </trkpt>
      <trkpt lat="45.38437" lon="5.79698">
        <ele>1363</ele>
        <time>2022-06-13T07:09:32Z</time>
      </trkpt>
      <trkpt lat="45.38465" lon="5.79705">
        <ele>1369</ele>
        <time>2022-06-13T07:10:10Z</time>
      </trkpt>
      <trkpt lat="45.38471" lon="5.79709">
        <ele>1370</ele>
        <time>2022-06-13T07:10:20Z</time>
      </trkpt>
      <trkpt lat="45.38477" lon="5.79711">
        <ele>1372</ele>
        <time>2022-06-13T07:10:30Z</time>
      </trkpt>
      <trkpt lat="45.38482" lon="5.79711">
        <ele>1375</ele>
        <time>2022-06-13T07:13:34Z</time>
      </trkpt>
      <trkpt lat="45.38474" lon="5.79718">
        <ele>1375</ele>
        <time>2022-06-13T07:13:58Z</time>
      </trkpt>
      <trkpt lat="45.38469" lon="5.7972">
        <ele>1376</ele>
        <time>2022-06-13T07:14:03Z</time>
      </trkpt>
      <trkpt lat="45.38467" lon="5.79726">
        <ele>1377</ele>
        <time>2022-06-13T07:14:07Z</time>
      </trkpt>
      <trkpt lat="45.38458" lon="5.79735">
        <ele>1378</ele>
        <time>2022-06-13T07:14:17Z</time>
      </trkpt>
      <trkpt lat="45.38451" lon="5.79752">
        <ele>1381</ele>
        <time>2022-06-13T07:14:31Z</time>
      </trkpt>
      <trkpt lat="45.38448" lon="5.79756">
        <ele>1381</ele>
        <time>2022-06-13T07:14:35Z</time>
      </trkpt>
      <trkpt lat="45.38445" lon="5.79761">
        <ele>1381</ele>
        <time>2022-06-13T07:14:39Z</time>
      </trkpt>
      <trkpt lat="45.38442" lon="5.79768">
        <ele>1381</ele>
        <time>2022-06-13T07:14:45Z</time>
      </trkpt>
      <trkpt lat="45.38437" lon="5.79772">
        <ele>1381</ele>
        <time>2022-06-13T07:14:49Z</time>
      </trkpt>
      <trkpt lat="45.38427" lon="5.79776">
        <ele>1382</ele>
        <time>2022-06-13T07:14:59Z</time>
      </trkpt>
      <trkpt lat="45.38403" lon="5.79794">
        <ele>1385</ele>
        <time>2022-06-13T07:15:26Z</time>
      </trkpt>
      <trkpt lat="45.38391" lon="5.79801">
        <ele>1387</ele>
        <time>2022-06-13T07:15:38Z</time>
      </trkpt>
      <trkpt lat="45.38379" lon="5.79815">
        <ele>1390</ele>
        <time>2022-06-13T07:15:56Z</time>
      </trkpt>
      <trkpt lat="45.38373" lon="5.79825">
        <ele>1392</ele>
        <time>2022-06-13T07:16:06Z</time>
      </trkpt>
      <trkpt lat="45.38374" lon="5.79834">
        <ele>1393</ele>
        <time>2022-06-13T07:16:12Z</time>
      </trkpt>
      <trkpt lat="45.38376" lon="5.79839">
        <ele>1393</ele>
        <time>2022-06-13T07:16:16Z</time>
      </trkpt>
      <trkpt lat="45.38404" lon="5.79855">
        <ele>1399</ele>
        <time>2022-06-13T07:16:49Z</time>
      </trkpt>
      <trkpt lat="45.38428" lon="5.79864">
        <ele>1405</ele>
        <time>2022-06-13T07:17:21Z</time>
      </trkpt>
      <trkpt lat="45.38433" lon="5.79862">
        <ele>1407</ele>
        <time>2022-06-13T07:17:28Z</time>
      </trkpt>
      <trkpt lat="45.38457" lon="5.79857">
        <ele>1411</ele>
        <time>2022-06-13T07:17:58Z</time>
      </trkpt>
      <trkpt lat="45.38461" lon="5.79854">
        <ele>1412</ele>
        <time>2022-06-13T07:18:03Z</time>
      </trkpt>
      <trkpt lat="45.3847" lon="5.79854">
        <ele>1413</ele>
        <time>2022-06-13T07:18:12Z</time>
      </trkpt>
      <trkpt lat="45.38501" lon="5.79847">
        <ele>1417</ele>
        <time>2022-06-13T07:18:46Z</time>
      </trkpt>
      <trkpt lat="45.38506" lon="5.79846">
        <ele>1418</ele>
        <time>2022-06-13T07:18:51Z</time>
      </trkpt>
      <trkpt lat="45.38521" lon="5.79842">
        <ele>1420</ele>
        <time>2022-06-13T07:19:07Z</time>
      </trkpt>
      <trkpt lat="45.3853" lon="5.79843">
        <ele>1421</ele>
        <time>2022-06-13T07:19:17Z</time>
      </trkpt>
      <trkpt lat="45.38561" lon="5.79831">
        <ele>1425</ele>
        <time>2022-06-13T07:19:48Z</time>
      </trkpt>
      <trkpt lat="45.38566" lon="5.79829">
        <ele>1425</ele>
        <time>2022-06-13T07:19:53Z</time>
      </trkpt>
      <trkpt lat="45.3857" lon="5.79829">
        <ele>1425</ele>
        <time>2022-06-13T07:19:57Z</time>
      </trkpt>
      <trkpt lat="45.38583" lon="5.79821">
        <ele>1425</ele>
        <time>2022-06-13T07:20:09Z</time>
      </trkpt>
      <trkpt lat="45.38593" lon="5.79818">
        <ele>1425</ele>
        <time>2022-06-13T07:20:18Z</time>
      </trkpt>
      <trkpt lat="45.38597" lon="5.79814">
        <ele>1426</ele>
        <time>2022-06-13T07:20:23Z</time>
      </trkpt>
      <trkpt lat="45.3862" lon="5.79802">
        <ele>1427</ele>
        <time>2022-06-13T07:20:44Z</time>
      </trkpt>
      <trkpt lat="45.38634" lon="5.798">
        <ele>1427</ele>
        <time>2022-06-13T07:20:58Z</time>
      </trkpt>
      <trkpt lat="45.38638" lon="5.79804">
        <ele>1428</ele>
        <time>2022-06-13T07:21:03Z</time>
      </trkpt>
      <trkpt lat="45.38633" lon="5.79834">
        <ele>1429</ele>
        <time>2022-06-13T07:21:33Z</time>
      </trkpt>
      <trkpt lat="45.3863" lon="5.7984">
        <ele>1430</ele>
        <time>2022-06-13T07:21:38Z</time>
      </trkpt>
      <trkpt lat="45.38626" lon="5.79856">
        <ele>1432</ele>
        <time>2022-06-13T07:21:50Z</time>
      </trkpt>
      <trkpt lat="45.38626" lon="5.79867">
        <ele>1433</ele>
        <time>2022-06-13T07:21:59Z</time>
      </trkpt>
      <trkpt lat="45.38626" lon="5.79873">
        <ele>1434</ele>
        <time>2022-06-13T07:22:06Z</time>
      </trkpt>
      <trkpt lat="45.38624" lon="5.79879">
        <ele>1435</ele>
        <time>2022-06-13T07:22:12Z</time>
      </trkpt>
      <trkpt lat="45.3862" lon="5.79899">
        <ele>1437</ele>
        <time>2022-06-13T07:22:29Z</time>
      </trkpt>
      <trkpt lat="45.3862" lon="5.79911">
        <ele>1440</ele>
        <time>2022-06-13T07:22:39Z</time>
      </trkpt>
      <trkpt lat="45.3862" lon="5.79917">
        <ele>1441</ele>
        <time>2022-06-13T07:22:44Z</time>
      </trkpt>
      <trkpt lat="45.38617" lon="5.79924">
        <ele>1442</ele>
        <time>2022-06-13T07:22:51Z</time>
      </trkpt>
      <trkpt lat="45.38613" lon="5.79932">
        <ele>1443</ele>
        <time>2022-06-13T07:23:02Z</time>
      </trkpt>
      <trkpt lat="45.38605" lon="5.79935">
        <ele>1445</ele>
        <time>2022-06-13T07:23:13Z</time>
      </trkpt>
      <trkpt lat="45.38597" lon="5.79944">
        <ele>1447</ele>
        <time>2022-06-13T07:23:24Z</time>
      </trkpt>
      <trkpt lat="45.38588" lon="5.79948">
        <ele>1448</ele>
        <time>2022-06-13T07:23:34Z</time>
      </trkpt>
      <trkpt lat="45.38575" lon="5.79978">
        <ele>1454</ele>
        <time>2022-06-13T07:24:09Z</time>
      </trkpt>
      <trkpt lat="45.38572" lon="5.79987">
        <ele>1456</ele>
        <time>2022-06-13T07:24:19Z</time>
      </trkpt>
      <trkpt lat="45.38555" lon="5.79999">
        <ele>1460</ele>
        <time>2022-06-13T07:24:45Z</time>
      </trkpt>
      <trkpt lat="45.38537" lon="5.80016">
        <ele>1465</ele>
        <time>2022-06-13T07:25:15Z</time>
      </trkpt>
      <trkpt lat="45.38535" lon="5.80022">
        <ele>1466</ele>
        <time>2022-06-13T07:25:21Z</time>
      </trkpt>
      <trkpt lat="45.38524" lon="5.80035">
        <ele>1469</ele>
        <time>2022-06-13T07:25:40Z</time>
      </trkpt>
      <trkpt lat="45.3853" lon="5.80039">
        <ele>1470</ele>
        <time>2022-06-13T07:25:50Z</time>
      </trkpt>
      <trkpt lat="45.38538" lon="5.8004">
        <ele>1471</ele>
        <time>2022-06-13T07:26:00Z</time>
      </trkpt>
      <trkpt lat="45.38545" lon="5.80041">
        <ele>1472</ele>
        <time>2022-06-13T07:26:10Z</time>
      </trkpt>
      <trkpt lat="45.38551" lon="5.80048">
        <ele>1474</ele>
        <time>2022-06-13T07:26:20Z</time>
      </trkpt>
      <trkpt lat="45.38554" lon="5.80054">
        <ele>1475</ele>
        <time>2022-06-13T07:26:30Z</time>
      </trkpt>
      <trkpt lat="45.38558" lon="5.80059">
        <ele>1476</ele>
        <time>2022-06-13T07:26:40Z</time>
      </trkpt>
      <trkpt lat="45.38576" lon="5.80073">
        <ele>1480</ele>
        <time>2022-06-13T07:27:15Z</time>
      </trkpt>
      <trkpt lat="45.38582" lon="5.80077">
        <ele>1481</ele>
        <time>2022-06-13T07:27:26Z</time>
      </trkpt>
      <trkpt lat="45.38576" lon="5.80081">
        <ele>1483</ele>
        <time>2022-06-13T07:27:37Z</time>
      </trkpt>
      <trkpt lat="45.38571" lon="5.80086">
        <ele>1484</ele>
        <time>2022-06-13T07:27:48Z</time>
      </trkpt>
      <trkpt lat="45.38566" lon="5.80087">
        <ele>1486</ele>
        <time>2022-06-13T07:27:58Z</time>
      </trkpt>
      <trkpt lat="45.3856" lon="5.80092">
        <ele>1487</ele>
        <time>2022-06-13T07:28:08Z</time>
      </trkpt>
      <trkpt lat="45.38556" lon="5.80094">
        <ele>1489</ele>
        <time>2022-06-13T07:28:18Z</time>
      </trkpt>
      <trkpt lat="45.38543" lon="5.80105">
        <ele>1491</ele>
        <time>2022-06-13T07:28:43Z</time>
      </trkpt>
      <trkpt lat="45.38542" lon="5.80113">
        <ele>1493</ele>
        <time>2022-06-13T07:28:54Z</time>
      </trkpt>
      <trkpt lat="45.3855" lon="5.80113">
        <ele>1494</ele>
        <time>2022-06-13T07:29:04Z</time>
      </trkpt>
      <trkpt lat="45.38556" lon="5.80113">
        <ele>1495</ele>
        <time>2022-06-13T07:29:11Z</time>
      </trkpt>
      <trkpt lat="45.38568" lon="5.80121">
        <ele>1497</ele>
        <time>2022-06-13T07:29:32Z</time>
      </trkpt>
      <trkpt lat="45.38559" lon="5.80131">
        <ele>1501</ele>
        <time>2022-06-13T07:30:01Z</time>
      </trkpt>
      <trkpt lat="45.38554" lon="5.80139">
        <ele>1503</ele>
        <time>2022-06-13T07:30:11Z</time>
      </trkpt>
      <trkpt lat="45.38551" lon="5.80144">
        <ele>1504</ele>
        <time>2022-06-13T07:30:17Z</time>
      </trkpt>
      <trkpt lat="45.38546" lon="5.8015">
        <ele>1506</ele>
        <time>2022-06-13T07:30:27Z</time>
      </trkpt>
      <trkpt lat="45.38541" lon="5.80162">
        <ele>1508</ele>
        <time>2022-06-13T07:30:40Z</time>
      </trkpt>
      <trkpt lat="45.38536" lon="5.80167">
        <ele>1509</ele>
        <time>2022-06-13T07:30:50Z</time>
      </trkpt>
      <trkpt lat="45.38526" lon="5.80194">
        <ele>1513</ele>
        <time>2022-06-13T07:31:17Z</time>
      </trkpt>
      <trkpt lat="45.38524" lon="5.80204">
        <ele>1515</ele>
        <time>2022-06-13T07:31:27Z</time>
      </trkpt>
      <trkpt lat="45.38528" lon="5.8021">
        <ele>1516</ele>
        <time>2022-06-13T07:31:38Z</time>
      </trkpt>
      <trkpt lat="45.38525" lon="5.80222">
        <ele>1516</ele>
        <time>2022-06-13T07:32:07Z</time>
      </trkpt>
      <trkpt lat="45.38532" lon="5.80218">
        <ele>1515</ele>
        <time>2022-06-13T07:33:19Z</time>
      </trkpt>
      <trkpt lat="45.38533" lon="5.8021">
        <ele>1516</ele>
        <time>2022-06-13T07:33:25Z</time>
      </trkpt>
      <trkpt lat="45.38533" lon="5.80204">
        <ele>1516</ele>
        <time>2022-06-13T07:34:24Z</time>
      </trkpt>
      <trkpt lat="45.38537" lon="5.802">
        <ele>1517</ele>
        <time>2022-06-13T07:34:32Z</time>
      </trkpt>
      <trkpt lat="45.38554" lon="5.80192">
        <ele>1520</ele>
        <time>2022-06-13T07:34:51Z</time>
      </trkpt>
      <trkpt lat="45.3856" lon="5.80192">
        <ele>1522</ele>
        <time>2022-06-13T07:35:01Z</time>
      </trkpt>
      <trkpt lat="45.38565" lon="5.8019">
        <ele>1523</ele>
        <time>2022-06-13T07:35:06Z</time>
      </trkpt>
      <trkpt lat="45.3857" lon="5.8019">
        <ele>1524</ele>
        <time>2022-06-13T07:35:13Z</time>
      </trkpt>
      <trkpt lat="45.38575" lon="5.80191">
        <ele>1525</ele>
        <time>2022-06-13T07:35:23Z</time>
      </trkpt>
      <trkpt lat="45.38579" lon="5.8019">
        <ele>1526</ele>
        <time>2022-06-13T07:35:33Z</time>
      </trkpt>
      <trkpt lat="45.38575" lon="5.80197">
        <ele>1529</ele>
        <time>2022-06-13T07:36:34Z</time>
      </trkpt>
      <trkpt lat="45.38565" lon="5.80217">
        <ele>1532</ele>
        <time>2022-06-13T07:36:55Z</time>
      </trkpt>
      <trkpt lat="45.38565" lon="5.80224">
        <ele>1533</ele>
        <time>2022-06-13T07:37:00Z</time>
      </trkpt>
      <trkpt lat="45.38568" lon="5.80246">
        <ele>1536</ele>
        <time>2022-06-13T07:37:33Z</time>
      </trkpt>
      <trkpt lat="45.38571" lon="5.80262">
        <ele>1538</ele>
        <time>2022-06-13T07:37:46Z</time>
      </trkpt>
      <trkpt lat="45.38569" lon="5.80274">
        <ele>1539</ele>
        <time>2022-06-13T07:37:56Z</time>
      </trkpt>
      <trkpt lat="45.38561" lon="5.80297">
        <ele>1542</ele>
        <time>2022-06-13T07:38:22Z</time>
      </trkpt>
      <trkpt lat="45.38557" lon="5.8032">
        <ele>1546</ele>
        <time>2022-06-13T07:38:44Z</time>
      </trkpt>
      <trkpt lat="45.38545" lon="5.80346">
        <ele>1551</ele>
        <time>2022-06-13T07:39:11Z</time>
      </trkpt>
      <trkpt lat="45.38539" lon="5.80366">
        <ele>1554</ele>
        <time>2022-06-13T07:39:31Z</time>
      </trkpt>
      <trkpt lat="45.38534" lon="5.80375">
        <ele>1555</ele>
        <time>2022-06-13T07:39:39Z</time>
      </trkpt>
      <trkpt lat="45.38522" lon="5.80391">
        <ele>1557</ele>
        <time>2022-06-13T07:39:57Z</time>
      </trkpt>
      <trkpt lat="45.38517" lon="5.80395">
        <ele>1557</ele>
        <time>2022-06-13T07:40:05Z</time>
      </trkpt>
      <trkpt lat="45.3851" lon="5.80402">
        <ele>1556</ele>
        <time>2022-06-13T07:40:14Z</time>
      </trkpt>
      <trkpt lat="45.38508" lon="5.80408">
        <ele>1556</ele>
        <time>2022-06-13T07:40:19Z</time>
      </trkpt>
      <trkpt lat="45.38502" lon="5.8042">
        <ele>1558</ele>
        <time>2022-06-13T07:40:29Z</time>
      </trkpt>
      <trkpt lat="45.38497" lon="5.80424">
        <ele>1558</ele>
        <time>2022-06-13T07:40:34Z</time>
      </trkpt>
      <trkpt lat="45.38496" lon="5.8043">
        <ele>1558</ele>
        <time>2022-06-13T07:40:38Z</time>
      </trkpt>
      <trkpt lat="45.38493" lon="5.80435">
        <ele>1558</ele>
        <time>2022-06-13T07:40:42Z</time>
      </trkpt>
      <trkpt lat="45.3848" lon="5.80453">
        <ele>1556</ele>
        <time>2022-06-13T07:40:58Z</time>
      </trkpt>
      <trkpt lat="45.38477" lon="5.80458">
        <ele>1556</ele>
        <time>2022-06-13T07:41:03Z</time>
      </trkpt>
      <trkpt lat="45.38471" lon="5.80471">
        <ele>1556</ele>
        <time>2022-06-13T07:41:11Z</time>
      </trkpt>
      <trkpt lat="45.38467" lon="5.80474">
        <ele>1556</ele>
        <time>2022-06-13T07:41:15Z</time>
      </trkpt>
      <trkpt lat="45.38464" lon="5.80481">
        <ele>1556</ele>
        <time>2022-06-13T07:41:19Z</time>
      </trkpt>
      <trkpt lat="45.38451" lon="5.80492">
        <ele>1554</ele>
        <time>2022-06-13T07:41:31Z</time>
      </trkpt>
      <trkpt lat="45.38448" lon="5.80498">
        <ele>1554</ele>
        <time>2022-06-13T07:41:34Z</time>
      </trkpt>
      <trkpt lat="45.38447" lon="5.80504">
        <ele>1553</ele>
        <time>2022-06-13T07:41:37Z</time>
      </trkpt>
      <trkpt lat="45.38445" lon="5.80509">
        <ele>1553</ele>
        <time>2022-06-13T07:41:41Z</time>
      </trkpt>
      <trkpt lat="45.38442" lon="5.8052">
        <ele>1553</ele>
        <time>2022-06-13T07:41:53Z</time>
      </trkpt>
      <trkpt lat="45.38441" lon="5.80525">
        <ele>1552</ele>
        <time>2022-06-13T07:41:57Z</time>
      </trkpt>
      <trkpt lat="45.38435" lon="5.80534">
        <ele>1552</ele>
        <time>2022-06-13T07:42:05Z</time>
      </trkpt>
      <trkpt lat="45.38427" lon="5.80549">
        <ele>1553</ele>
        <time>2022-06-13T07:42:20Z</time>
      </trkpt>
      <trkpt lat="45.38421" lon="5.8056">
        <ele>1553</ele>
        <time>2022-06-13T07:42:30Z</time>
      </trkpt>
      <trkpt lat="45.38418" lon="5.80564">
        <ele>1554</ele>
        <time>2022-06-13T07:42:37Z</time>
      </trkpt>
      <trkpt lat="45.38416" lon="5.8057">
        <ele>1556</ele>
        <time>2022-06-13T07:42:47Z</time>
      </trkpt>
      <trkpt lat="45.38411" lon="5.80573">
        <ele>1561</ele>
        <time>2022-06-13T07:43:17Z</time>
      </trkpt>
      <trkpt lat="45.38407" lon="5.80575">
        <ele>1563</ele>
        <time>2022-06-13T07:43:27Z</time>
      </trkpt>
      <trkpt lat="45.38404" lon="5.80581">
        <ele>1563</ele>
        <time>2022-06-13T07:43:31Z</time>
      </trkpt>
      <trkpt lat="45.38399" lon="5.80585">
        <ele>1565</ele>
        <time>2022-06-13T07:43:40Z</time>
      </trkpt>
      <trkpt lat="45.38394" lon="5.80588">
        <ele>1566</ele>
        <time>2022-06-13T07:43:50Z</time>
      </trkpt>
      <trkpt lat="45.38391" lon="5.80593">
        <ele>1567</ele>
        <time>2022-06-13T07:44:02Z</time>
      </trkpt>
      <trkpt lat="45.38387" lon="5.80594">
        <ele>1568</ele>
        <time>2022-06-13T07:44:14Z</time>
      </trkpt>
      <trkpt lat="45.38381" lon="5.80601">
        <ele>1570</ele>
        <time>2022-06-13T07:44:24Z</time>
      </trkpt>
      <trkpt lat="45.38376" lon="5.80605">
        <ele>1569</ele>
        <time>2022-06-13T07:44:33Z</time>
      </trkpt>
      <trkpt lat="45.38363" lon="5.80619">
        <ele>1567</ele>
        <time>2022-06-13T07:44:49Z</time>
      </trkpt>
      <trkpt lat="45.38359" lon="5.80618">
        <ele>1567</ele>
        <time>2022-06-13T07:44:53Z</time>
      </trkpt>
      <trkpt lat="45.38356" lon="5.80621">
        <ele>1566</ele>
        <time>2022-06-13T07:44:57Z</time>
      </trkpt>
      <trkpt lat="45.38351" lon="5.80623">
        <ele>1567</ele>
        <time>2022-06-13T07:45:05Z</time>
      </trkpt>
      <trkpt lat="45.38347" lon="5.80627">
        <ele>1567</ele>
        <time>2022-06-13T07:45:10Z</time>
      </trkpt>
      <trkpt lat="45.38341" lon="5.8063">
        <ele>1568</ele>
        <time>2022-06-13T07:45:22Z</time>
      </trkpt>
      <trkpt lat="45.38335" lon="5.80625">
        <ele>1572</ele>
        <time>2022-06-13T07:45:42Z</time>
      </trkpt>
      <trkpt lat="45.38333" lon="5.80633">
        <ele>1574</ele>
        <time>2022-06-13T07:45:52Z</time>
      </trkpt>
      <trkpt lat="45.38328" lon="5.80637">
        <ele>1578</ele>
        <time>2022-06-13T07:46:13Z</time>
      </trkpt>
      <trkpt lat="45.38324" lon="5.80642">
        <ele>1580</ele>
        <time>2022-06-13T07:46:25Z</time>
      </trkpt>
      <trkpt lat="45.38316" lon="5.80648">
        <ele>1583</ele>
        <time>2022-06-13T07:46:47Z</time>
      </trkpt>
      <trkpt lat="45.38313" lon="5.80654">
        <ele>1583</ele>
        <time>2022-06-13T07:46:52Z</time>
      </trkpt>
      <trkpt lat="45.38308" lon="5.80655">
        <ele>1583</ele>
        <time>2022-06-13T07:47:09Z</time>
      </trkpt>
      <trkpt lat="45.38306" lon="5.80661">
        <ele>1580</ele>
        <time>2022-06-13T07:47:29Z</time>
      </trkpt>
      <trkpt lat="45.38307" lon="5.80668">
        <ele>1578</ele>
        <time>2022-06-13T07:47:49Z</time>
      </trkpt>
      <trkpt lat="45.3831" lon="5.80678">
        <ele>1575</ele>
        <time>2022-06-13T07:48:03Z</time>
      </trkpt>
      <trkpt lat="45.38313" lon="5.80686">
        <ele>1573</ele>
        <time>2022-06-13T07:48:11Z</time>
      </trkpt>
      <trkpt lat="45.3832" lon="5.80694">
        <ele>1573</ele>
        <time>2022-06-13T07:48:31Z</time>
      </trkpt>
      <trkpt lat="45.38324" lon="5.80698">
        <ele>1572</ele>
        <time>2022-06-13T07:48:36Z</time>
      </trkpt>
      <trkpt lat="45.38329" lon="5.80706">
        <ele>1573</ele>
        <time>2022-06-13T07:48:43Z</time>
      </trkpt>
      <trkpt lat="45.38335" lon="5.8071">
        <ele>1573</ele>
        <time>2022-06-13T07:48:52Z</time>
      </trkpt>
      <trkpt lat="45.38339" lon="5.80716">
        <ele>1573</ele>
        <time>2022-06-13T07:48:57Z</time>
      </trkpt>
      <trkpt lat="45.38341" lon="5.80723">
        <ele>1572</ele>
        <time>2022-06-13T07:49:04Z</time>
      </trkpt>
      <trkpt lat="45.38344" lon="5.80727">
        <ele>1571</ele>
        <time>2022-06-13T07:49:08Z</time>
      </trkpt>
      <trkpt lat="45.38348" lon="5.80732">
        <ele>1571</ele>
        <time>2022-06-13T07:49:12Z</time>
      </trkpt>
      <trkpt lat="45.3836" lon="5.80748">
        <ele>1573</ele>
        <time>2022-06-13T07:49:32Z</time>
      </trkpt>
      <trkpt lat="45.38364" lon="5.80753">
        <ele>1573</ele>
        <time>2022-06-13T07:49:37Z</time>
      </trkpt>
      <trkpt lat="45.38367" lon="5.80759">
        <ele>1572</ele>
        <time>2022-06-13T07:49:45Z</time>
      </trkpt>
      <trkpt lat="45.38366" lon="5.80765">
        <ele>1570</ele>
        <time>2022-06-13T07:49:55Z</time>
      </trkpt>
      <trkpt lat="45.38361" lon="5.80769">
        <ele>1568</ele>
        <time>2022-06-13T07:50:06Z</time>
      </trkpt>
      <trkpt lat="45.38355" lon="5.80777">
        <ele>1568</ele>
        <time>2022-06-13T07:50:21Z</time>
      </trkpt>
      <trkpt lat="45.38353" lon="5.80791">
        <ele>1569</ele>
        <time>2022-06-13T07:50:31Z</time>
      </trkpt>
      <trkpt lat="45.38355" lon="5.80797">
        <ele>1569</ele>
        <time>2022-06-13T07:50:35Z</time>
      </trkpt>
      <trkpt lat="45.38356" lon="5.80803">
        <ele>1568</ele>
        <time>2022-06-13T07:50:40Z</time>
      </trkpt>
      <trkpt lat="45.38353" lon="5.80815">
        <ele>1567</ele>
        <time>2022-06-13T07:50:54Z</time>
      </trkpt>
      <trkpt lat="45.38354" lon="5.80832">
        <ele>1563</ele>
        <time>2022-06-13T07:51:07Z</time>
      </trkpt>
      <trkpt lat="45.38356" lon="5.80837">
        <ele>1562</ele>
        <time>2022-06-13T07:51:11Z</time>
      </trkpt>
      <trkpt lat="45.38352" lon="5.80839">
        <ele>1561</ele>
        <time>2022-06-13T07:51:19Z</time>
      </trkpt>
      <trkpt lat="45.38345" lon="5.8086">
        <ele>1559</ele>
        <time>2022-06-13T07:51:31Z</time>
      </trkpt>
      <trkpt lat="45.38339" lon="5.80872">
        <ele>1558</ele>
        <time>2022-06-13T07:51:38Z</time>
      </trkpt>
      <trkpt lat="45.38339" lon="5.80878">
        <ele>1558</ele>
        <time>2022-06-13T07:51:42Z</time>
      </trkpt>
      <trkpt lat="45.38335" lon="5.80883">
        <ele>1558</ele>
        <time>2022-06-13T07:51:58Z</time>
      </trkpt>
      <trkpt lat="45.3833" lon="5.80884">
        <ele>1557</ele>
        <time>2022-06-13T07:52:01Z</time>
      </trkpt>
      <trkpt lat="45.38327" lon="5.80892">
        <ele>1557</ele>
        <time>2022-06-13T07:52:10Z</time>
      </trkpt>
      <trkpt lat="45.3832" lon="5.80912">
        <ele>1557</ele>
        <time>2022-06-13T07:52:23Z</time>
      </trkpt>
      <trkpt lat="45.38318" lon="5.80919">
        <ele>1559</ele>
        <time>2022-06-13T07:52:33Z</time>
      </trkpt>
      <trkpt lat="45.38316" lon="5.80928">
        <ele>1559</ele>
        <time>2022-06-13T07:52:45Z</time>
      </trkpt>
      <trkpt lat="45.38312" lon="5.80935">
        <ele>1559</ele>
        <time>2022-06-13T07:53:00Z</time>
      </trkpt>
      <trkpt lat="45.38302" lon="5.80956">
        <ele>1557</ele>
        <time>2022-06-13T07:53:19Z</time>
      </trkpt>
      <trkpt lat="45.38298" lon="5.80963">
        <ele>1557</ele>
        <time>2022-06-13T07:53:25Z</time>
      </trkpt>
      <trkpt lat="45.38295" lon="5.80968">
        <ele>1557</ele>
        <time>2022-06-13T07:53:32Z</time>
      </trkpt>
      <trkpt lat="45.38281" lon="5.80975">
        <ele>1552</ele>
        <time>2022-06-13T07:53:53Z</time>
      </trkpt>
      <trkpt lat="45.38277" lon="5.8098">
        <ele>1551</ele>
        <time>2022-06-13T07:53:58Z</time>
      </trkpt>
      <trkpt lat="45.38271" lon="5.8098">
        <ele>1549</ele>
        <time>2022-06-13T07:54:10Z</time>
      </trkpt>
      <trkpt lat="45.38253" lon="5.80987">
        <ele>1545</ele>
        <time>2022-06-13T07:54:32Z</time>
      </trkpt>
      <trkpt lat="45.38241" lon="5.80991">
        <ele>1542</ele>
        <time>2022-06-13T07:54:44Z</time>
      </trkpt>
      <trkpt lat="45.38239" lon="5.80998">
        <ele>1542</ele>
        <time>2022-06-13T07:54:49Z</time>
      </trkpt>
      <trkpt lat="45.38234" lon="5.81004">
        <ele>1542</ele>
        <time>2022-06-13T07:54:55Z</time>
      </trkpt>
      <trkpt lat="45.38229" lon="5.81013">
        <ele>1543</ele>
        <time>2022-06-13T07:55:05Z</time>
      </trkpt>
      <trkpt lat="45.38224" lon="5.81015">
        <ele>1544</ele>
        <time>2022-06-13T07:55:10Z</time>
      </trkpt>
      <trkpt lat="45.3822" lon="5.81018">
        <ele>1544</ele>
        <time>2022-06-13T07:55:14Z</time>
      </trkpt>
      <trkpt lat="45.38216" lon="5.81018">
        <ele>1544</ele>
        <time>2022-06-13T07:55:19Z</time>
      </trkpt>
      <trkpt lat="45.38206" lon="5.8103">
        <ele>1547</ele>
        <time>2022-06-13T07:55:37Z</time>
      </trkpt>
      <trkpt lat="45.38202" lon="5.81032">
        <ele>1548</ele>
        <time>2022-06-13T07:55:42Z</time>
      </trkpt>
      <trkpt lat="45.38197" lon="5.81041">
        <ele>1550</ele>
        <time>2022-06-13T07:55:52Z</time>
      </trkpt>
      <trkpt lat="45.38193" lon="5.81045">
        <ele>1552</ele>
        <time>2022-06-13T07:56:02Z</time>
      </trkpt>
      <trkpt lat="45.38185" lon="5.81046">
        <ele>1552</ele>
        <time>2022-06-13T07:56:12Z</time>
      </trkpt>
      <trkpt lat="45.38179" lon="5.81048">
        <ele>1555</ele>
        <time>2022-06-13T07:56:27Z</time>
      </trkpt>
      <trkpt lat="45.38174" lon="5.81052">
        <ele>1556</ele>
        <time>2022-06-13T07:56:37Z</time>
      </trkpt>
      <trkpt lat="45.38169" lon="5.81054">
        <ele>1557</ele>
        <time>2022-06-13T07:56:43Z</time>
      </trkpt>
      <trkpt lat="45.38167" lon="5.81059">
        <ele>1558</ele>
        <time>2022-06-13T07:56:48Z</time>
      </trkpt>
      <trkpt lat="45.38164" lon="5.8107">
        <ele>1560</ele>
        <time>2022-06-13T07:56:58Z</time>
      </trkpt>
      <trkpt lat="45.38155" lon="5.81082">
        <ele>1563</ele>
        <time>2022-06-13T07:57:27Z</time>
      </trkpt>
      <trkpt lat="45.38148" lon="5.81086">
        <ele>1565</ele>
        <time>2022-06-13T07:57:42Z</time>
      </trkpt>
      <trkpt lat="45.38144" lon="5.81093">
        <ele>1566</ele>
        <time>2022-06-13T07:57:48Z</time>
      </trkpt>
      <trkpt lat="45.3814" lon="5.81095">
        <ele>1567</ele>
        <time>2022-06-13T07:57:55Z</time>
      </trkpt>
      <trkpt lat="45.3813" lon="5.81108">
        <ele>1570</ele>
        <time>2022-06-13T07:58:17Z</time>
      </trkpt>
      <trkpt lat="45.38135" lon="5.81115">
        <ele>1571</ele>
        <time>2022-06-13T07:58:23Z</time>
      </trkpt>
      <trkpt lat="45.38159" lon="5.81119">
        <ele>1576</ele>
        <time>2022-06-13T07:58:51Z</time>
      </trkpt>
      <trkpt lat="45.38163" lon="5.81117">
        <ele>1577</ele>
        <time>2022-06-13T07:58:58Z</time>
      </trkpt>
      <trkpt lat="45.38168" lon="5.81119">
        <ele>1578</ele>
        <time>2022-06-13T07:59:10Z</time>
      </trkpt>
      <trkpt lat="45.38181" lon="5.81113">
        <ele>1582</ele>
        <time>2022-06-13T07:59:29Z</time>
      </trkpt>
      <trkpt lat="45.38184" lon="5.8111">
        <ele>1584</ele>
        <time>2022-06-13T07:59:39Z</time>
      </trkpt>
      <trkpt lat="45.38193" lon="5.81107">
        <ele>1586</ele>
        <time>2022-06-13T07:59:54Z</time>
      </trkpt>
      <trkpt lat="45.38199" lon="5.81106">
        <ele>1588</ele>
        <time>2022-06-13T08:00:06Z</time>
      </trkpt>
      <trkpt lat="45.38203" lon="5.81103">
        <ele>1590</ele>
        <time>2022-06-13T08:00:16Z</time>
      </trkpt>
      <trkpt lat="45.38197" lon="5.81124">
        <ele>1596</ele>
        <time>2022-06-13T08:00:51Z</time>
      </trkpt>
      <trkpt lat="45.38195" lon="5.81131">
        <ele>1598</ele>
        <time>2022-06-13T08:01:02Z</time>
      </trkpt>
      <trkpt lat="45.3819" lon="5.81139">
        <ele>1599</ele>
        <time>2022-06-13T08:01:12Z</time>
      </trkpt>
      <trkpt lat="45.38187" lon="5.81143">
        <ele>1601</ele>
        <time>2022-06-13T08:01:23Z</time>
      </trkpt>
      <trkpt lat="45.38182" lon="5.81145">
        <ele>1603</ele>
        <time>2022-06-13T08:01:33Z</time>
      </trkpt>
      <trkpt lat="45.38178" lon="5.81152">
        <ele>1605</ele>
        <time>2022-06-13T08:01:43Z</time>
      </trkpt>
      <trkpt lat="45.38176" lon="5.81159">
        <ele>1607</ele>
        <time>2022-06-13T08:01:58Z</time>
      </trkpt>
      <trkpt lat="45.38175" lon="5.81166">
        <ele>1608</ele>
        <time>2022-06-13T08:02:13Z</time>
      </trkpt>
      <trkpt lat="45.38181" lon="5.81167">
        <ele>1610</ele>
        <time>2022-06-13T08:02:24Z</time>
      </trkpt>
      <trkpt lat="45.38185" lon="5.81169">
        <ele>1611</ele>
        <time>2022-06-13T08:02:39Z</time>
      </trkpt>
      <trkpt lat="45.38191" lon="5.81167">
        <ele>1613</ele>
        <time>2022-06-13T08:02:49Z</time>
      </trkpt>
      <trkpt lat="45.38189" lon="5.81176">
        <ele>1614</ele>
        <time>2022-06-13T08:02:59Z</time>
      </trkpt>
      <trkpt lat="45.38188" lon="5.81182">
        <ele>1615</ele>
        <time>2022-06-13T08:03:05Z</time>
      </trkpt>
      <trkpt lat="45.38189" lon="5.81193">
        <ele>1616</ele>
        <time>2022-06-13T08:03:15Z</time>
      </trkpt>
      <trkpt lat="45.382" lon="5.81217">
        <ele>1620</ele>
        <time>2022-06-13T08:03:42Z</time>
      </trkpt>
      <trkpt lat="45.38204" lon="5.81222">
        <ele>1622</ele>
        <time>2022-06-13T08:03:50Z</time>
      </trkpt>
      <trkpt lat="45.38219" lon="5.81251">
        <ele>1626</ele>
        <time>2022-06-13T08:04:25Z</time>
      </trkpt>
      <trkpt lat="45.38228" lon="5.81262">
        <ele>1630</ele>
        <time>2022-06-13T08:04:45Z</time>
      </trkpt>
      <trkpt lat="45.3823" lon="5.8127">
        <ele>1632</ele>
        <time>2022-06-13T08:04:55Z</time>
      </trkpt>
      <trkpt lat="45.38234" lon="5.81272">
        <ele>1633</ele>
        <time>2022-06-13T08:05:05Z</time>
      </trkpt>
      <trkpt lat="45.38239" lon="5.81276">
        <ele>1634</ele>
        <time>2022-06-13T08:05:11Z</time>
      </trkpt>
      <trkpt lat="45.38243" lon="5.81274">
        <ele>1635</ele>
        <time>2022-06-13T08:05:15Z</time>
      </trkpt>
      <trkpt lat="45.38248" lon="5.81271">
        <ele>1636</ele>
        <time>2022-06-13T08:06:12Z</time>
      </trkpt>
      <trkpt lat="45.38255" lon="5.81276">
        <ele>1636</ele>
        <time>2022-06-13T08:06:41Z</time>
      </trkpt>
      <trkpt lat="45.38259" lon="5.8128">
        <ele>1637</ele>
        <time>2022-06-13T08:06:45Z</time>
      </trkpt>
      <trkpt lat="45.38266" lon="5.8129">
        <ele>1637</ele>
        <time>2022-06-13T08:06:53Z</time>
      </trkpt>
      <trkpt lat="45.38282" lon="5.81302">
        <ele>1636</ele>
        <time>2022-06-13T08:07:09Z</time>
      </trkpt>
      <trkpt lat="45.38285" lon="5.81308">
        <ele>1637</ele>
        <time>2022-06-13T08:07:13Z</time>
      </trkpt>
      <trkpt lat="45.38294" lon="5.81312">
        <ele>1637</ele>
        <time>2022-06-13T08:07:21Z</time>
      </trkpt>
      <trkpt lat="45.38299" lon="5.81315">
        <ele>1637</ele>
        <time>2022-06-13T08:07:25Z</time>
      </trkpt>
      <trkpt lat="45.38308" lon="5.8132">
        <ele>1638</ele>
        <time>2022-06-13T08:07:34Z</time>
      </trkpt>
      <trkpt lat="45.38316" lon="5.81326">
        <ele>1638</ele>
        <time>2022-06-13T08:07:42Z</time>
      </trkpt>
      <trkpt lat="45.38319" lon="5.81331">
        <ele>1639</ele>
        <time>2022-06-13T08:07:46Z</time>
      </trkpt>
      <trkpt lat="45.38343" lon="5.81353">
        <ele>1641</ele>
        <time>2022-06-13T08:08:12Z</time>
      </trkpt>
      <trkpt lat="45.38349" lon="5.81362">
        <ele>1641</ele>
        <time>2022-06-13T08:08:20Z</time>
      </trkpt>
      <trkpt lat="45.38362" lon="5.81376">
        <ele>1642</ele>
        <time>2022-06-13T08:08:38Z</time>
      </trkpt>
      <trkpt lat="45.38366" lon="5.81379">
        <ele>1642</ele>
        <time>2022-06-13T08:08:43Z</time>
      </trkpt>
      <trkpt lat="45.38389" lon="5.81386">
        <ele>1643</ele>
        <time>2022-06-13T08:09:06Z</time>
      </trkpt>
      <trkpt lat="45.38394" lon="5.81389">
        <ele>1643</ele>
        <time>2022-06-13T08:09:11Z</time>
      </trkpt>
      <trkpt lat="45.38405" lon="5.81392">
        <ele>1644</ele>
        <time>2022-06-13T08:09:23Z</time>
      </trkpt>
      <trkpt lat="45.3841" lon="5.81397">
        <ele>1644</ele>
        <time>2022-06-13T08:09:31Z</time>
      </trkpt>
      <trkpt lat="45.38409" lon="5.81407">
        <ele>1646</ele>
        <time>2022-06-13T08:10:03Z</time>
      </trkpt>
      <trkpt lat="45.38423" lon="5.81433">
        <ele>1651</ele>
        <time>2022-06-13T08:10:30Z</time>
      </trkpt>
      <trkpt lat="45.38427" lon="5.81442">
        <ele>1652</ele>
        <time>2022-06-13T08:10:39Z</time>
      </trkpt>
      <trkpt lat="45.38429" lon="5.81451">
        <ele>1654</ele>
        <time>2022-06-13T08:10:49Z</time>
      </trkpt>
      <trkpt lat="45.3843" lon="5.81459">
        <ele>1657</ele>
        <time>2022-06-13T08:11:04Z</time>
      </trkpt>
      <trkpt lat="45.38426" lon="5.81464">
        <ele>1659</ele>
        <time>2022-06-13T08:11:19Z</time>
      </trkpt>
      <trkpt lat="45.38422" lon="5.81465">
        <ele>1660</ele>
        <time>2022-06-13T08:11:29Z</time>
      </trkpt>
      <trkpt lat="45.38415" lon="5.81468">
        <ele>1662</ele>
        <time>2022-06-13T08:11:41Z</time>
      </trkpt>
      <trkpt lat="45.38407" lon="5.81467">
        <ele>1664</ele>
        <time>2022-06-13T08:11:52Z</time>
      </trkpt>
      <trkpt lat="45.38402" lon="5.81471">
        <ele>1665</ele>
        <time>2022-06-13T08:12:02Z</time>
      </trkpt>
      <trkpt lat="45.38398" lon="5.81476">
        <ele>1667</ele>
        <time>2022-06-13T08:12:12Z</time>
      </trkpt>
      <trkpt lat="45.38392" lon="5.81473">
        <ele>1669</ele>
        <time>2022-06-13T08:12:22Z</time>
      </trkpt>
      <trkpt lat="45.38383" lon="5.81462">
        <ele>1672</ele>
        <time>2022-06-13T08:12:42Z</time>
      </trkpt>
      <trkpt lat="45.38367" lon="5.81451">
        <ele>1677</ele>
        <time>2022-06-13T08:13:12Z</time>
      </trkpt>
      <trkpt lat="45.38359" lon="5.81448">
        <ele>1679</ele>
        <time>2022-06-13T08:13:22Z</time>
      </trkpt>
      <trkpt lat="45.38353" lon="5.81452">
        <ele>1680</ele>
        <time>2022-06-13T08:13:44Z</time>
      </trkpt>
      <trkpt lat="45.38348" lon="5.81452">
        <ele>1680</ele>
        <time>2022-06-13T08:13:49Z</time>
      </trkpt>
      <trkpt lat="45.38344" lon="5.81449">
        <ele>1680</ele>
        <time>2022-06-13T08:13:53Z</time>
      </trkpt>
      <trkpt lat="45.38335" lon="5.81444">
        <ele>1679</ele>
        <time>2022-06-13T08:14:01Z</time>
      </trkpt>
      <trkpt lat="45.38319" lon="5.81435">
        <ele>1679</ele>
        <time>2022-06-13T08:14:19Z</time>
      </trkpt>
      <trkpt lat="45.38314" lon="5.81434">
        <ele>1680</ele>
        <time>2022-06-13T08:14:23Z</time>
      </trkpt>
      <trkpt lat="45.383" lon="5.81431">
        <ele>1683</ele>
        <time>2022-06-13T08:14:40Z</time>
      </trkpt>
      <trkpt lat="45.38281" lon="5.81412">
        <ele>1685</ele>
        <time>2022-06-13T08:15:10Z</time>
      </trkpt>
      <trkpt lat="45.38275" lon="5.8141">
        <ele>1686</ele>
        <time>2022-06-13T08:15:17Z</time>
      </trkpt>
      <trkpt lat="45.38255" lon="5.81394">
        <ele>1691</ele>
        <time>2022-06-13T08:15:49Z</time>
      </trkpt>
      <trkpt lat="45.38245" lon="5.8139">
        <ele>1694</ele>
        <time>2022-06-13T08:16:16Z</time>
      </trkpt>
      <trkpt lat="45.38241" lon="5.81387">
        <ele>1694</ele>
        <time>2022-06-13T08:16:20Z</time>
      </trkpt>
      <trkpt lat="45.38236" lon="5.81387">
        <ele>1694</ele>
        <time>2022-06-13T08:16:27Z</time>
      </trkpt>
      <trkpt lat="45.38225" lon="5.81393">
        <ele>1697</ele>
        <time>2022-06-13T08:16:47Z</time>
      </trkpt>
      <trkpt lat="45.3822" lon="5.81393">
        <ele>1699</ele>
        <time>2022-06-13T08:16:57Z</time>
      </trkpt>
      <trkpt lat="45.38215" lon="5.81396">
        <ele>1702</ele>
        <time>2022-06-13T08:17:12Z</time>
      </trkpt>
      <trkpt lat="45.38211" lon="5.81394">
        <ele>1703</ele>
        <time>2022-06-13T08:17:22Z</time>
      </trkpt>
      <trkpt lat="45.38206" lon="5.81395">
        <ele>1705</ele>
        <time>2022-06-13T08:17:32Z</time>
      </trkpt>
      <trkpt lat="45.38201" lon="5.81391">
        <ele>1708</ele>
        <time>2022-06-13T08:17:47Z</time>
      </trkpt>
      <trkpt lat="45.38196" lon="5.81388">
        <ele>1710</ele>
        <time>2022-06-13T08:17:59Z</time>
      </trkpt>
      <trkpt lat="45.38192" lon="5.81389">
        <ele>1712</ele>
        <time>2022-06-13T08:18:10Z</time>
      </trkpt>
      <trkpt lat="45.38187" lon="5.81392">
        <ele>1715</ele>
        <time>2022-06-13T08:18:25Z</time>
      </trkpt>
      <trkpt lat="45.38181" lon="5.81393">
        <ele>1719</ele>
        <time>2022-06-13T08:18:45Z</time>
      </trkpt>
      <trkpt lat="45.3818" lon="5.81399">
        <ele>1721</ele>
        <time>2022-06-13T08:19:00Z</time>
      </trkpt>
      <trkpt lat="45.3818" lon="5.81407">
        <ele>1722</ele>
        <time>2022-06-13T08:19:10Z</time>
      </trkpt>
      <trkpt lat="45.38178" lon="5.81412">
        <ele>1724</ele>
        <time>2022-06-13T08:19:25Z</time>
      </trkpt>
      <trkpt lat="45.38178" lon="5.81418">
        <ele>1726</ele>
        <time>2022-06-13T08:19:35Z</time>
      </trkpt>
      <trkpt lat="45.38174" lon="5.81422">
        <ele>1729</ele>
        <time>2022-06-13T08:19:56Z</time>
      </trkpt>
      <trkpt lat="45.38167" lon="5.81434">
        <ele>1737</ele>
        <time>2022-06-13T08:20:53Z</time>
      </trkpt>
      <trkpt lat="45.38166" lon="5.81441">
        <ele>1740</ele>
        <time>2022-06-13T08:21:13Z</time>
      </trkpt>
      <trkpt lat="45.38171" lon="5.81443">
        <ele>1745</ele>
        <time>2022-06-13T08:21:43Z</time>
      </trkpt>
      <trkpt lat="45.38176" lon="5.81445">
        <ele>1747</ele>
        <time>2022-06-13T08:21:53Z</time>
      </trkpt>
      <trkpt lat="45.38172" lon="5.81449">
        <ele>1750</ele>
        <time>2022-06-13T08:22:15Z</time>
      </trkpt>
      <trkpt lat="45.38166" lon="5.81448">
        <ele>1752</ele>
        <time>2022-06-13T08:22:30Z</time>
      </trkpt>
      <trkpt lat="45.38162" lon="5.81454">
        <ele>1755</ele>
        <time>2022-06-13T08:22:55Z</time>
      </trkpt>
      <trkpt lat="45.38157" lon="5.81449">
        <ele>1757</ele>
        <time>2022-06-13T08:23:05Z</time>
      </trkpt>
      <trkpt lat="45.38147" lon="5.81452">
        <ele>1760</ele>
        <time>2022-06-13T08:23:25Z</time>
      </trkpt>
      <trkpt lat="45.38143" lon="5.81451">
        <ele>1762</ele>
        <time>2022-06-13T08:23:35Z</time>
      </trkpt>
      <trkpt lat="45.38139" lon="5.81445">
        <ele>1763</ele>
        <time>2022-06-13T08:23:45Z</time>
      </trkpt>
      <trkpt lat="45.38128" lon="5.81441">
        <ele>1767</ele>
        <time>2022-06-13T08:24:07Z</time>
      </trkpt>
      <trkpt lat="45.38122" lon="5.8144">
        <ele>1769</ele>
        <time>2022-06-13T08:24:19Z</time>
      </trkpt>
      <trkpt lat="45.38117" lon="5.81442">
        <ele>1771</ele>
        <time>2022-06-13T08:24:35Z</time>
      </trkpt>
      <trkpt lat="45.38112" lon="5.8144">
        <ele>1773</ele>
        <time>2022-06-13T08:24:50Z</time>
      </trkpt>
      <trkpt lat="45.38107" lon="5.81438">
        <ele>1776</ele>
        <time>2022-06-13T08:25:05Z</time>
      </trkpt>
      <trkpt lat="45.38102" lon="5.81436">
        <ele>1777</ele>
        <time>2022-06-13T08:25:15Z</time>
      </trkpt>
      <trkpt lat="45.381" lon="5.81442">
        <ele>1780</ele>
        <time>2022-06-13T08:25:30Z</time>
      </trkpt>
      <trkpt lat="45.38095" lon="5.81442">
        <ele>1783</ele>
        <time>2022-06-13T08:25:45Z</time>
      </trkpt>
      <trkpt lat="45.3809" lon="5.81441">
        <ele>1785</ele>
        <time>2022-06-13T08:26:00Z</time>
      </trkpt>
      <trkpt lat="45.38082" lon="5.81439">
        <ele>1788</ele>
        <time>2022-06-13T08:26:16Z</time>
      </trkpt>
      <trkpt lat="45.38078" lon="5.81442">
        <ele>1790</ele>
        <time>2022-06-13T08:26:32Z</time>
      </trkpt>
      <trkpt lat="45.38067" lon="5.81439">
        <ele>1795</ele>
        <time>2022-06-13T08:27:02Z</time>
      </trkpt>
      <trkpt lat="45.38062" lon="5.8144">
        <ele>1798</ele>
        <time>2022-06-13T08:27:17Z</time>
      </trkpt>
      <trkpt lat="45.38056" lon="5.81438">
        <ele>1800</ele>
        <time>2022-06-13T08:27:32Z</time>
      </trkpt>
      <trkpt lat="45.38053" lon="5.81445">
        <ele>1802</ele>
        <time>2022-06-13T08:27:47Z</time>
      </trkpt>
      <trkpt lat="45.38055" lon="5.8145">
        <ele>1802</ele>
        <time>2022-06-13T08:29:05Z</time>
      </trkpt>
      <trkpt lat="45.38059" lon="5.81452">
        <ele>1804</ele>
        <time>2022-06-13T08:31:18Z</time>
      </trkpt>
      <trkpt lat="45.38061" lon="5.81459">
        <ele>1806</ele>
        <time>2022-06-13T08:31:38Z</time>
      </trkpt>
      <trkpt lat="45.38061" lon="5.81468">
        <ele>1811</ele>
        <time>2022-06-13T08:32:13Z</time>
      </trkpt>
      <trkpt lat="45.38066" lon="5.81482">
        <ele>1819</ele>
        <time>2022-06-13T08:33:09Z</time>
      </trkpt>
      <trkpt lat="45.38067" lon="5.81489">
        <ele>1822</ele>
        <time>2022-06-13T08:33:29Z</time>
      </trkpt>
      <trkpt lat="45.38069" lon="5.81495">
        <ele>1824</ele>
        <time>2022-06-13T08:33:39Z</time>
      </trkpt>
      <trkpt lat="45.3807" lon="5.81501">
        <ele>1826</ele>
        <time>2022-06-13T08:33:54Z</time>
      </trkpt>
      <trkpt lat="45.38072" lon="5.81508">
        <ele>1829</ele>
        <time>2022-06-13T08:34:14Z</time>
      </trkpt>
      <trkpt lat="45.38068" lon="5.81512">
        <ele>1831</ele>
        <time>2022-06-13T08:34:34Z</time>
      </trkpt>
      <trkpt lat="45.38064" lon="5.81517">
        <ele>1834</ele>
        <time>2022-06-13T08:34:56Z</time>
      </trkpt>
      <trkpt lat="45.3806" lon="5.81512">
        <ele>1835</ele>
        <time>2022-06-13T08:35:17Z</time>
      </trkpt>
      <trkpt lat="45.38055" lon="5.81509">
        <ele>1835</ele>
        <time>2022-06-13T08:35:47Z</time>
      </trkpt>
      <trkpt lat="45.3805" lon="5.81504">
        <ele>1837</ele>
        <time>2022-06-13T08:35:57Z</time>
      </trkpt>
      <trkpt lat="45.38033" lon="5.81494">
        <ele>1841</ele>
        <time>2022-06-13T08:36:29Z</time>
      </trkpt>
      <trkpt lat="45.38027" lon="5.81492">
        <ele>1843</ele>
        <time>2022-06-13T08:36:39Z</time>
      </trkpt>
      <trkpt lat="45.38025" lon="5.815">
        <ele>1845</ele>
        <time>2022-06-13T08:36:50Z</time>
      </trkpt>
      <trkpt lat="45.3802" lon="5.81504">
        <ele>1845</ele>
        <time>2022-06-13T08:37:22Z</time>
      </trkpt>
      <trkpt lat="45.38013" lon="5.81501">
        <ele>1847</ele>
        <time>2022-06-13T08:37:32Z</time>
      </trkpt>
      <trkpt lat="45.38008" lon="5.81505">
        <ele>1848</ele>
        <time>2022-06-13T08:37:45Z</time>
      </trkpt>
      <trkpt lat="45.38002" lon="5.815">
        <ele>1849</ele>
        <time>2022-06-13T08:38:20Z</time>
      </trkpt>
      <trkpt lat="45.37994" lon="5.81495">
        <ele>1850</ele>
        <time>2022-06-13T08:38:35Z</time>
      </trkpt>
      <trkpt lat="45.37988" lon="5.81494">
        <ele>1852</ele>
        <time>2022-06-13T08:38:45Z</time>
      </trkpt>
      <trkpt lat="45.37981" lon="5.81501">
        <ele>1854</ele>
        <time>2022-06-13T08:38:57Z</time>
      </trkpt>
      <trkpt lat="45.37977" lon="5.81507">
        <ele>1855</ele>
        <time>2022-06-13T08:39:07Z</time>
      </trkpt>
      <trkpt lat="45.37977" lon="5.81514">
        <ele>1857</ele>
        <time>2022-06-13T08:39:17Z</time>
      </trkpt>
      <trkpt lat="45.37969" lon="5.81517">
        <ele>1859</ele>
        <time>2022-06-13T08:39:32Z</time>
      </trkpt>
      <trkpt lat="45.37958" lon="5.81514">
        <ele>1860</ele>
        <time>2022-06-13T08:39:57Z</time>
      </trkpt>
      <trkpt lat="45.37947" lon="5.81509">
        <ele>1861</ele>
        <time>2022-06-13T08:40:23Z</time>
      </trkpt>
      <trkpt lat="45.37942" lon="5.81508">
        <ele>1861</ele>
        <time>2022-06-13T08:40:34Z</time>
      </trkpt>
      <trkpt lat="45.37932" lon="5.81507">
        <ele>1861</ele>
        <time>2022-06-13T08:40:49Z</time>
      </trkpt>
      <trkpt lat="45.37923" lon="5.81502">
        <ele>1861</ele>
        <time>2022-06-13T08:41:07Z</time>
      </trkpt>
      <trkpt lat="45.37913" lon="5.81494">
        <ele>1859</ele>
        <time>2022-06-13T08:41:29Z</time>
      </trkpt>
      <trkpt lat="45.37909" lon="5.8149">
        <ele>1860</ele>
        <time>2022-06-13T08:41:39Z</time>
      </trkpt>
      <trkpt lat="45.37904" lon="5.8149">
        <ele>1859</ele>
        <time>2022-06-13T08:41:49Z</time>
      </trkpt>
      <trkpt lat="45.379" lon="5.81494">
        <ele>1858</ele>
        <time>2022-06-13T08:41:55Z</time>
      </trkpt>
      <trkpt lat="45.37897" lon="5.8149">
        <ele>1858</ele>
        <time>2022-06-13T08:42:02Z</time>
      </trkpt>
      <trkpt lat="45.37892" lon="5.81487">
        <ele>1859</ele>
        <time>2022-06-13T08:42:12Z</time>
      </trkpt>
      <trkpt lat="45.37887" lon="5.81485">
        <ele>1859</ele>
        <time>2022-06-13T08:42:27Z</time>
      </trkpt>
      <trkpt lat="45.37881" lon="5.81485">
        <ele>1859</ele>
        <time>2022-06-13T08:42:42Z</time>
      </trkpt>
      <trkpt lat="45.37876" lon="5.81485">
        <ele>1859</ele>
        <time>2022-06-13T08:42:53Z</time>
      </trkpt>
      <trkpt lat="45.37863" lon="5.8148">
        <ele>1861</ele>
        <time>2022-06-13T08:43:16Z</time>
      </trkpt>
      <trkpt lat="45.37858" lon="5.8148">
        <ele>1861</ele>
        <time>2022-06-13T08:43:20Z</time>
      </trkpt>
      <trkpt lat="45.37854" lon="5.81481">
        <ele>1862</ele>
        <time>2022-06-13T08:43:27Z</time>
      </trkpt>
      <trkpt lat="45.37831" lon="5.81476">
        <ele>1867</ele>
        <time>2022-06-13T08:43:58Z</time>
      </trkpt>
      <trkpt lat="45.37824" lon="5.8148">
        <ele>1868</ele>
        <time>2022-06-13T08:44:10Z</time>
      </trkpt>
      <trkpt lat="45.37812" lon="5.8148">
        <ele>1870</ele>
        <time>2022-06-13T08:44:30Z</time>
      </trkpt>
      <trkpt lat="45.37808" lon="5.81481">
        <ele>1870</ele>
        <time>2022-06-13T08:44:40Z</time>
      </trkpt>
      <trkpt lat="45.37802" lon="5.81481">
        <ele>1870</ele>
        <time>2022-06-13T08:44:50Z</time>
      </trkpt>
      <trkpt lat="45.37789" lon="5.81485">
        <ele>1871</ele>
        <time>2022-06-13T08:45:07Z</time>
      </trkpt>
      <trkpt lat="45.37785" lon="5.81487">
        <ele>1872</ele>
        <time>2022-06-13T08:45:15Z</time>
      </trkpt>
      <trkpt lat="45.37774" lon="5.81483">
        <ele>1877</ele>
        <time>2022-06-13T08:45:42Z</time>
      </trkpt>
      <trkpt lat="45.37769" lon="5.81481">
        <ele>1880</ele>
        <time>2022-06-13T08:46:02Z</time>
      </trkpt>
      <trkpt lat="45.37765" lon="5.81479">
        <ele>1882</ele>
        <time>2022-06-13T08:46:12Z</time>
      </trkpt>
      <trkpt lat="45.37757" lon="5.8148">
        <ele>1883</ele>
        <time>2022-06-13T08:46:27Z</time>
      </trkpt>
      <trkpt lat="45.37753" lon="5.8148">
        <ele>1883</ele>
        <time>2022-06-13T08:46:32Z</time>
      </trkpt>
      <trkpt lat="45.37739" lon="5.8148">
        <ele>1886</ele>
        <time>2022-06-13T08:46:52Z</time>
      </trkpt>
      <trkpt lat="45.37722" lon="5.81483">
        <ele>1889</ele>
        <time>2022-06-13T08:47:25Z</time>
      </trkpt>
      <trkpt lat="45.37717" lon="5.8148">
        <ele>1890</ele>
        <time>2022-06-13T08:47:36Z</time>
      </trkpt>
      <trkpt lat="45.37716" lon="5.81473">
        <ele>1893</ele>
        <time>2022-06-13T08:48:01Z</time>
      </trkpt>
      <trkpt lat="45.3771" lon="5.81458">
        <ele>1897</ele>
        <time>2022-06-13T08:48:36Z</time>
      </trkpt>
      <trkpt lat="45.37701" lon="5.81452">
        <ele>1898</ele>
        <time>2022-06-13T08:48:50Z</time>
      </trkpt>
      <trkpt lat="45.37696" lon="5.81447">
        <ele>1897</ele>
        <time>2022-06-13T08:49:02Z</time>
      </trkpt>
      <trkpt lat="45.3769" lon="5.81444">
        <ele>1897</ele>
        <time>2022-06-13T08:49:12Z</time>
      </trkpt>
      <trkpt lat="45.37686" lon="5.81438">
        <ele>1898</ele>
        <time>2022-06-13T08:49:23Z</time>
      </trkpt>
      <trkpt lat="45.37681" lon="5.81432">
        <ele>1900</ele>
        <time>2022-06-13T08:49:35Z</time>
      </trkpt>
      <trkpt lat="45.37674" lon="5.81417">
        <ele>1905</ele>
        <time>2022-06-13T08:50:10Z</time>
      </trkpt>
      <trkpt lat="45.3767" lon="5.81414">
        <ele>1906</ele>
        <time>2022-06-13T08:50:20Z</time>
      </trkpt>
      <trkpt lat="45.37664" lon="5.81411">
        <ele>1907</ele>
        <time>2022-06-13T08:50:31Z</time>
      </trkpt>
      <trkpt lat="45.37666" lon="5.81404">
        <ele>1911</ele>
        <time>2022-06-13T08:50:56Z</time>
      </trkpt>
      <trkpt lat="45.37664" lon="5.81399">
        <ele>1913</ele>
        <time>2022-06-13T08:51:21Z</time>
      </trkpt>
      <trkpt lat="45.37657" lon="5.81396">
        <ele>1915</ele>
        <time>2022-06-13T08:51:38Z</time>
      </trkpt>
      <trkpt lat="45.37655" lon="5.81389">
        <ele>1918</ele>
        <time>2022-06-13T08:52:08Z</time>
      </trkpt>
      <trkpt lat="45.37652" lon="5.81383">
        <ele>1921</ele>
        <time>2022-06-13T08:52:28Z</time>
      </trkpt>
      <trkpt lat="45.37649" lon="5.81379">
        <ele>1924</ele>
        <time>2022-06-13T08:52:43Z</time>
      </trkpt>
      <trkpt lat="45.37646" lon="5.81371">
        <ele>1928</ele>
        <time>2022-06-13T08:53:08Z</time>
      </trkpt>
      <trkpt lat="45.37639" lon="5.81363">
        <ele>1931</ele>
        <time>2022-06-13T08:53:34Z</time>
      </trkpt>
      <trkpt lat="45.37634" lon="5.8136">
        <ele>1932</ele>
        <time>2022-06-13T08:53:45Z</time>
      </trkpt>
      <trkpt lat="45.3763" lon="5.81358">
        <ele>1933</ele>
        <time>2022-06-13T08:54:27Z</time>
      </trkpt>
      <trkpt lat="45.37625" lon="5.81357">
        <ele>1934</ele>
        <time>2022-06-13T08:54:47Z</time>
      </trkpt>
      <trkpt lat="45.37619" lon="5.81355">
        <ele>1935</ele>
        <time>2022-06-13T08:54:57Z</time>
      </trkpt>
      <trkpt lat="45.37615" lon="5.81351">
        <ele>1937</ele>
        <time>2022-06-13T08:55:07Z</time>
      </trkpt>
      <trkpt lat="45.3761" lon="5.8135">
        <ele>1937</ele>
        <time>2022-06-13T08:55:32Z</time>
      </trkpt>
      <trkpt lat="45.37604" lon="5.81348">
        <ele>1938</ele>
        <time>2022-06-13T08:55:42Z</time>
      </trkpt>
      <trkpt lat="45.37587" lon="5.81344">
        <ele>1942</ele>
        <time>2022-06-13T08:56:13Z</time>
      </trkpt>
      <trkpt lat="45.37581" lon="5.81346">
        <ele>1942</ele>
        <time>2022-06-13T08:56:23Z</time>
      </trkpt>
      <trkpt lat="45.37576" lon="5.81341">
        <ele>1943</ele>
        <time>2022-06-13T08:56:33Z</time>
      </trkpt>
      <trkpt lat="45.3757" lon="5.81342">
        <ele>1945</ele>
        <time>2022-06-13T08:56:43Z</time>
      </trkpt>
      <trkpt lat="45.37565" lon="5.81341">
        <ele>1946</ele>
        <time>2022-06-13T08:57:18Z</time>
      </trkpt>
      <trkpt lat="45.37561" lon="5.81337">
        <ele>1945</ele>
        <time>2022-06-13T08:57:23Z</time>
      </trkpt>
      <trkpt lat="45.37557" lon="5.81335">
        <ele>1945</ele>
        <time>2022-06-13T08:57:28Z</time>
      </trkpt>
      <trkpt lat="45.37551" lon="5.81333">
        <ele>1946</ele>
        <time>2022-06-13T08:57:35Z</time>
      </trkpt>
      <trkpt lat="45.37545" lon="5.81329">
        <ele>1947</ele>
        <time>2022-06-13T08:57:52Z</time>
      </trkpt>
      <trkpt lat="45.3754" lon="5.81326">
        <ele>1948</ele>
        <time>2022-06-13T08:57:57Z</time>
      </trkpt>
      <trkpt lat="45.37526" lon="5.81322">
        <ele>1948</ele>
        <time>2022-06-13T08:58:12Z</time>
      </trkpt>
      <trkpt lat="45.37521" lon="5.81323">
        <ele>1949</ele>
        <time>2022-06-13T08:58:17Z</time>
      </trkpt>
      <trkpt lat="45.37511" lon="5.81322">
        <ele>1951</ele>
        <time>2022-06-13T08:58:30Z</time>
      </trkpt>
      <trkpt lat="45.37499" lon="5.81323">
        <ele>1953</ele>
        <time>2022-06-13T08:58:47Z</time>
      </trkpt>
      <trkpt lat="45.37466" lon="5.81321">
        <ele>1957</ele>
        <time>2022-06-13T08:59:24Z</time>
      </trkpt>
      <trkpt lat="45.37431" lon="5.81322">
        <ele>1960</ele>
        <time>2022-06-13T08:59:59Z</time>
      </trkpt>
      <trkpt lat="45.37401" lon="5.81324">
        <ele>1962</ele>
        <time>2022-06-13T09:00:31Z</time>
      </trkpt>
      <trkpt lat="45.37382" lon="5.81323">
        <ele>1963</ele>
        <time>2022-06-13T09:00:49Z</time>
      </trkpt>
      <trkpt lat="45.37367" lon="5.81326">
        <ele>1964</ele>
        <time>2022-06-13T09:01:03Z</time>
      </trkpt>
      <trkpt lat="45.37362" lon="5.81326">
        <ele>1964</ele>
        <time>2022-06-13T09:01:08Z</time>
      </trkpt>
      <trkpt lat="45.37358" lon="5.81328">
        <ele>1965</ele>
        <time>2022-06-13T09:01:13Z</time>
      </trkpt>
      <trkpt lat="45.37354" lon="5.81329">
        <ele>1965</ele>
        <time>2022-06-13T09:01:17Z</time>
      </trkpt>
      <trkpt lat="45.37343" lon="5.81328">
        <ele>1965</ele>
        <time>2022-06-13T09:01:28Z</time>
      </trkpt>
      <trkpt lat="45.37333" lon="5.81326">
        <ele>1965</ele>
        <time>2022-06-13T09:01:37Z</time>
      </trkpt>
      <trkpt lat="45.37323" lon="5.8133">
        <ele>1966</ele>
        <time>2022-06-13T09:01:47Z</time>
      </trkpt>
      <trkpt lat="45.37317" lon="5.81332">
        <ele>1966</ele>
        <time>2022-06-13T09:01:55Z</time>
      </trkpt>
      <trkpt lat="45.37308" lon="5.81337">
        <ele>1966</ele>
        <time>2022-06-13T09:02:04Z</time>
      </trkpt>
      <trkpt lat="45.37304" lon="5.81338">
        <ele>1966</ele>
        <time>2022-06-13T09:02:11Z</time>
      </trkpt>
      <trkpt lat="45.37284" lon="5.81337">
        <ele>1971</ele>
        <time>2022-06-13T09:02:41Z</time>
      </trkpt>
      <trkpt lat="45.37279" lon="5.81334">
        <ele>1972</ele>
        <time>2022-06-13T09:02:51Z</time>
      </trkpt>
      <trkpt lat="45.37268" lon="5.81334">
        <ele>1975</ele>
        <time>2022-06-13T09:03:11Z</time>
      </trkpt>
      <trkpt lat="45.37265" lon="5.8133">
        <ele>1977</ele>
        <time>2022-06-13T09:03:26Z</time>
      </trkpt>
      <trkpt lat="45.37262" lon="5.81324">
        <ele>1980</ele>
        <time>2022-06-13T09:03:41Z</time>
      </trkpt>
      <trkpt lat="45.37246" lon="5.81312">
        <ele>1986</ele>
        <time>2022-06-13T09:04:19Z</time>
      </trkpt>
      <trkpt lat="45.37242" lon="5.81306">
        <ele>1988</ele>
        <time>2022-06-13T09:04:34Z</time>
      </trkpt>
      <trkpt lat="45.3723" lon="5.81298">
        <ele>1994</ele>
        <time>2022-06-13T09:05:04Z</time>
      </trkpt>
      <trkpt lat="45.37224" lon="5.81293">
        <ele>1995</ele>
        <time>2022-06-13T09:05:15Z</time>
      </trkpt>
      <trkpt lat="45.37219" lon="5.81291">
        <ele>1996</ele>
        <time>2022-06-13T09:05:25Z</time>
      </trkpt>
      <trkpt lat="45.37213" lon="5.81287">
        <ele>1998</ele>
        <time>2022-06-13T09:05:35Z</time>
      </trkpt>
      <trkpt lat="45.37208" lon="5.81286">
        <ele>2000</ele>
        <time>2022-06-13T09:05:45Z</time>
      </trkpt>
      <trkpt lat="45.37203" lon="5.81281">
        <ele>2001</ele>
        <time>2022-06-13T09:05:55Z</time>
      </trkpt>
      <trkpt lat="45.37198" lon="5.81277">
        <ele>2003</ele>
        <time>2022-06-13T09:06:05Z</time>
      </trkpt>
      <trkpt lat="45.37194" lon="5.81274">
        <ele>2004</ele>
        <time>2022-06-13T09:06:17Z</time>
      </trkpt>
      <trkpt lat="45.37194" lon="5.81264">
        <ele>2007</ele>
        <time>2022-06-13T09:06:33Z</time>
      </trkpt>
      <trkpt lat="45.37184" lon="5.81254">
        <ele>2011</ele>
        <time>2022-06-13T09:07:03Z</time>
      </trkpt>
      <trkpt lat="45.37169" lon="5.81243">
        <ele>2014</ele>
        <time>2022-06-13T09:07:29Z</time>
      </trkpt>
      <trkpt lat="45.37138" lon="5.81234">
        <ele>2019</ele>
        <time>2022-06-13T09:08:08Z</time>
      </trkpt>
      <trkpt lat="45.37133" lon="5.8123">
        <ele>2020</ele>
        <time>2022-06-13T09:08:15Z</time>
      </trkpt>
      <trkpt lat="45.3713" lon="5.81225">
        <ele>2020</ele>
        <time>2022-06-13T09:08:23Z</time>
      </trkpt>
      <trkpt lat="45.3713" lon="5.81219">
        <ele>2021</ele>
        <time>2022-06-13T09:08:28Z</time>
      </trkpt>
      <trkpt lat="45.37124" lon="5.81206">
        <ele>2021</ele>
        <time>2022-06-13T09:08:40Z</time>
      </trkpt>
      <trkpt lat="45.37119" lon="5.81205">
        <ele>2021</ele>
        <time>2022-06-13T09:08:45Z</time>
      </trkpt>
      <trkpt lat="45.37106" lon="5.81201">
        <ele>2023</ele>
        <time>2022-06-13T09:09:02Z</time>
      </trkpt>
      <trkpt lat="45.37102" lon="5.81203">
        <ele>2023</ele>
        <time>2022-06-13T09:09:09Z</time>
      </trkpt>
      <trkpt lat="45.37094" lon="5.81201">
        <ele>2025</ele>
        <time>2022-06-13T09:09:19Z</time>
      </trkpt>
      <trkpt lat="45.37079" lon="5.81205">
        <ele>2027</ele>
        <time>2022-06-13T09:09:40Z</time>
      </trkpt>
      <trkpt lat="45.37071" lon="5.81205">
        <ele>2027</ele>
        <time>2022-06-13T09:09:48Z</time>
      </trkpt>
      <trkpt lat="45.37063" lon="5.81209">
        <ele>2027</ele>
        <time>2022-06-13T09:10:21Z</time>
      </trkpt>
      <trkpt lat="45.37058" lon="5.81208">
        <ele>2028</ele>
        <time>2022-06-13T09:10:29Z</time>
      </trkpt>
      <trkpt lat="45.37053" lon="5.81205">
        <ele>2030</ele>
        <time>2022-06-13T09:10:40Z</time>
      </trkpt>
      <trkpt lat="45.37048" lon="5.81202">
        <ele>2031</ele>
        <time>2022-06-13T09:10:50Z</time>
      </trkpt>
      <trkpt lat="45.37045" lon="5.81204">
        <ele>2030</ele>
        <time>2022-06-13T09:17:46Z</time>
      </trkpt>
      <trkpt lat="45.37039" lon="5.81204">
        <ele>2030</ele>
        <time>2022-06-13T09:17:57Z</time>
      </trkpt>
      <trkpt lat="45.37039" lon="5.81207">
        <ele>2024</ele>
        <time>2022-06-13T09:44:03Z</time>
      </trkpt>
      <trkpt lat="45.37041" lon="5.81207">
        <ele>2024</ele>
        <time>2022-06-13T09:45:34Z</time>
      </trkpt>
      <trkpt lat="45.37048" lon="5.81204">
        <ele>2024</ele>
        <time>2022-06-13T09:45:44Z</time>
      </trkpt>
      <trkpt lat="45.37054" lon="5.81204">
        <ele>2025</ele>
        <time>2022-06-13T09:45:59Z</time>
      </trkpt>
      <trkpt lat="45.37054" lon="5.81212">
        <ele>2024</ele>
        <time>2022-06-13T09:46:32Z</time>
      </trkpt>
      <trkpt lat="45.37059" lon="5.81217">
        <ele>2020</ele>
        <time>2022-06-13T09:46:43Z</time>
      </trkpt>
      <trkpt lat="45.37065" lon="5.81224">
        <ele>2018</ele>
        <time>2022-06-13T09:46:54Z</time>
      </trkpt>
      <trkpt lat="45.37063" lon="5.81233">
        <ele>2016</ele>
        <time>2022-06-13T09:47:04Z</time>
      </trkpt>
      <trkpt lat="45.37065" lon="5.8124">
        <ele>2013</ele>
        <time>2022-06-13T09:47:14Z</time>
      </trkpt>
      <trkpt lat="45.37068" lon="5.81244">
        <ele>2012</ele>
        <time>2022-06-13T09:47:19Z</time>
      </trkpt>
      <trkpt lat="45.3707" lon="5.81251">
        <ele>2009</ele>
        <time>2022-06-13T09:47:35Z</time>
      </trkpt>
      <trkpt lat="45.37074" lon="5.81264">
        <ele>2003</ele>
        <time>2022-06-13T09:48:00Z</time>
      </trkpt>
      <trkpt lat="45.37077" lon="5.81279">
        <ele>1998</ele>
        <time>2022-06-13T09:48:23Z</time>
      </trkpt>
      <trkpt lat="45.37074" lon="5.81287">
        <ele>1995</ele>
        <time>2022-06-13T09:48:41Z</time>
      </trkpt>
      <trkpt lat="45.37075" lon="5.81296">
        <ele>1992</ele>
        <time>2022-06-13T09:48:56Z</time>
      </trkpt>
      <trkpt lat="45.37074" lon="5.81306">
        <ele>1989</ele>
        <time>2022-06-13T09:49:07Z</time>
      </trkpt>
      <trkpt lat="45.37076" lon="5.81315">
        <ele>1986</ele>
        <time>2022-06-13T09:49:17Z</time>
      </trkpt>
      <trkpt lat="45.37069" lon="5.81321">
        <ele>1983</ele>
        <time>2022-06-13T09:49:27Z</time>
      </trkpt>
      <trkpt lat="45.37074" lon="5.81326">
        <ele>1982</ele>
        <time>2022-06-13T09:49:34Z</time>
      </trkpt>
      <trkpt lat="45.37081" lon="5.81331">
        <ele>1980</ele>
        <time>2022-06-13T09:49:46Z</time>
      </trkpt>
      <trkpt lat="45.37089" lon="5.81339">
        <ele>1979</ele>
        <time>2022-06-13T09:49:56Z</time>
      </trkpt>
      <trkpt lat="45.37094" lon="5.8134">
        <ele>1978</ele>
        <time>2022-06-13T09:50:06Z</time>
      </trkpt>
      <trkpt lat="45.37097" lon="5.81354">
        <ele>1972</ele>
        <time>2022-06-13T09:50:45Z</time>
      </trkpt>
      <trkpt lat="45.37097" lon="5.8136">
        <ele>1970</ele>
        <time>2022-06-13T09:50:55Z</time>
      </trkpt>
      <trkpt lat="45.37098" lon="5.81368">
        <ele>1967</ele>
        <time>2022-06-13T09:51:05Z</time>
      </trkpt>
      <trkpt lat="45.37097" lon="5.81375">
        <ele>1964</ele>
        <time>2022-06-13T09:51:15Z</time>
      </trkpt>
      <trkpt lat="45.37097" lon="5.81382">
        <ele>1962</ele>
        <time>2022-06-13T09:51:21Z</time>
      </trkpt>
      <trkpt lat="45.371" lon="5.8139">
        <ele>1959</ele>
        <time>2022-06-13T09:51:31Z</time>
      </trkpt>
      <trkpt lat="45.37101" lon="5.81407">
        <ele>1952</ele>
        <time>2022-06-13T09:51:51Z</time>
      </trkpt>
      <trkpt lat="45.37109" lon="5.81436">
        <ele>1943</ele>
        <time>2022-06-13T09:52:22Z</time>
      </trkpt>
      <trkpt lat="45.37111" lon="5.81455">
        <ele>1937</ele>
        <time>2022-06-13T09:52:41Z</time>
      </trkpt>
      <trkpt lat="45.37116" lon="5.81474">
        <ele>1931</ele>
        <time>2022-06-13T09:53:01Z</time>
      </trkpt>
      <trkpt lat="45.37114" lon="5.81499">
        <ele>1922</ele>
        <time>2022-06-13T09:53:31Z</time>
      </trkpt>
      <trkpt lat="45.3711" lon="5.81502">
        <ele>1920</ele>
        <time>2022-06-13T09:53:41Z</time>
      </trkpt>
      <trkpt lat="45.3711" lon="5.81509">
        <ele>1918</ele>
        <time>2022-06-13T09:53:51Z</time>
      </trkpt>
      <trkpt lat="45.37107" lon="5.81516">
        <ele>1915</ele>
        <time>2022-06-13T09:54:01Z</time>
      </trkpt>
      <trkpt lat="45.37103" lon="5.81523">
        <ele>1912</ele>
        <time>2022-06-13T09:54:12Z</time>
      </trkpt>
      <trkpt lat="45.37102" lon="5.81531">
        <ele>1910</ele>
        <time>2022-06-13T09:54:22Z</time>
      </trkpt>
      <trkpt lat="45.37106" lon="5.81536">
        <ele>1908</ele>
        <time>2022-06-13T09:54:28Z</time>
      </trkpt>
      <trkpt lat="45.37117" lon="5.81545">
        <ele>1904</ele>
        <time>2022-06-13T09:54:47Z</time>
      </trkpt>
      <trkpt lat="45.37117" lon="5.81552">
        <ele>1902</ele>
        <time>2022-06-13T09:54:57Z</time>
      </trkpt>
      <trkpt lat="45.37114" lon="5.81559">
        <ele>1899</ele>
        <time>2022-06-13T09:55:07Z</time>
      </trkpt>
      <trkpt lat="45.37103" lon="5.81583">
        <ele>1890</ele>
        <time>2022-06-13T09:55:38Z</time>
      </trkpt>
      <trkpt lat="45.37093" lon="5.81597">
        <ele>1885</ele>
        <time>2022-06-13T09:55:56Z</time>
      </trkpt>
      <trkpt lat="45.37085" lon="5.81606">
        <ele>1883</ele>
        <time>2022-06-13T09:56:06Z</time>
      </trkpt>
      <trkpt lat="45.37071" lon="5.8162">
        <ele>1878</ele>
        <time>2022-06-13T09:56:26Z</time>
      </trkpt>
      <trkpt lat="45.37066" lon="5.81621">
        <ele>1877</ele>
        <time>2022-06-13T09:56:32Z</time>
      </trkpt>
      <trkpt lat="45.37062" lon="5.81624">
        <ele>1875</ele>
        <time>2022-06-13T09:56:50Z</time>
      </trkpt>
      <trkpt lat="45.37059" lon="5.8162">
        <ele>1874</ele>
        <time>2022-06-13T09:56:55Z</time>
      </trkpt>
      <trkpt lat="45.37049" lon="5.81616">
        <ele>1870</ele>
        <time>2022-06-13T09:57:15Z</time>
      </trkpt>
      <trkpt lat="45.37047" lon="5.81621">
        <ele>1868</ele>
        <time>2022-06-13T09:57:25Z</time>
      </trkpt>
      <trkpt lat="45.37041" lon="5.81622">
        <ele>1866</ele>
        <time>2022-06-13T09:57:35Z</time>
      </trkpt>
      <trkpt lat="45.37038" lon="5.81617">
        <ele>1863</ele>
        <time>2022-06-13T09:57:50Z</time>
      </trkpt>
      <trkpt lat="45.37035" lon="5.81611">
        <ele>1859</ele>
        <time>2022-06-13T09:58:15Z</time>
      </trkpt>
      <trkpt lat="45.37032" lon="5.81614">
        <ele>1857</ele>
        <time>2022-06-13T09:58:25Z</time>
      </trkpt>
      <trkpt lat="45.37028" lon="5.81616">
        <ele>1855</ele>
        <time>2022-06-13T09:58:35Z</time>
      </trkpt>
      <trkpt lat="45.37023" lon="5.8162">
        <ele>1852</ele>
        <time>2022-06-13T09:59:03Z</time>
      </trkpt>
      <trkpt lat="45.37016" lon="5.8161">
        <ele>1846</ele>
        <time>2022-06-13T09:59:38Z</time>
      </trkpt>
      <trkpt lat="45.3701" lon="5.81606">
        <ele>1842</ele>
        <time>2022-06-13T10:00:03Z</time>
      </trkpt>
      <trkpt lat="45.37007" lon="5.81611">
        <ele>1840</ele>
        <time>2022-06-13T10:00:14Z</time>
      </trkpt>
      <trkpt lat="45.37004" lon="5.81616">
        <ele>1837</ele>
        <time>2022-06-13T10:00:29Z</time>
      </trkpt>
      <trkpt lat="45.36999" lon="5.81613">
        <ele>1833</ele>
        <time>2022-06-13T10:00:45Z</time>
      </trkpt>
      <trkpt lat="45.36995" lon="5.81605">
        <ele>1831</ele>
        <time>2022-06-13T10:01:00Z</time>
      </trkpt>
      <trkpt lat="45.36991" lon="5.81607">
        <ele>1827</ele>
        <time>2022-06-13T10:01:20Z</time>
      </trkpt>
      <trkpt lat="45.36986" lon="5.8161">
        <ele>1825</ele>
        <time>2022-06-13T10:01:31Z</time>
      </trkpt>
      <trkpt lat="45.36983" lon="5.81606">
        <ele>1822</ele>
        <time>2022-06-13T10:01:51Z</time>
      </trkpt>
      <trkpt lat="45.36981" lon="5.816">
        <ele>1821</ele>
        <time>2022-06-13T10:01:55Z</time>
      </trkpt>
      <trkpt lat="45.36977" lon="5.81602">
        <ele>1819</ele>
        <time>2022-06-13T10:02:05Z</time>
      </trkpt>
      <trkpt lat="45.36976" lon="5.81611">
        <ele>1817</ele>
        <time>2022-06-13T10:02:15Z</time>
      </trkpt>
      <trkpt lat="45.36971" lon="5.81613">
        <ele>1813</ele>
        <time>2022-06-13T10:02:30Z</time>
      </trkpt>
      <trkpt lat="45.36968" lon="5.81622">
        <ele>1811</ele>
        <time>2022-06-13T10:02:40Z</time>
      </trkpt>
      <trkpt lat="45.36966" lon="5.81629">
        <ele>1807</ele>
        <time>2022-06-13T10:03:01Z</time>
      </trkpt>
      <trkpt lat="45.36962" lon="5.81629">
        <ele>1805</ele>
        <time>2022-06-13T10:03:16Z</time>
      </trkpt>
      <trkpt lat="45.36959" lon="5.81633">
        <ele>1801</ele>
        <time>2022-06-13T10:03:36Z</time>
      </trkpt>
      <trkpt lat="45.36954" lon="5.8164">
        <ele>1798</ele>
        <time>2022-06-13T10:03:51Z</time>
      </trkpt>
      <trkpt lat="45.36951" lon="5.81628">
        <ele>1795</ele>
        <time>2022-06-13T10:04:14Z</time>
      </trkpt>
      <trkpt lat="45.36945" lon="5.8162">
        <ele>1792</ele>
        <time>2022-06-13T10:04:30Z</time>
      </trkpt>
      <trkpt lat="45.3694" lon="5.81615">
        <ele>1790</ele>
        <time>2022-06-13T10:04:40Z</time>
      </trkpt>
      <trkpt lat="45.36936" lon="5.81612">
        <ele>1787</ele>
        <time>2022-06-13T10:04:50Z</time>
      </trkpt>
      <trkpt lat="45.36923" lon="5.81603">
        <ele>1782</ele>
        <time>2022-06-13T10:05:13Z</time>
      </trkpt>
      <trkpt lat="45.36913" lon="5.81603">
        <ele>1781</ele>
        <time>2022-06-13T10:05:20Z</time>
      </trkpt>
      <trkpt lat="45.36908" lon="5.81604">
        <ele>1781</ele>
        <time>2022-06-13T10:05:28Z</time>
      </trkpt>
      <trkpt lat="45.369" lon="5.81606">
        <ele>1780</ele>
        <time>2022-06-13T10:05:40Z</time>
      </trkpt>
      <trkpt lat="45.36896" lon="5.81605">
        <ele>1779</ele>
        <time>2022-06-13T10:05:46Z</time>
      </trkpt>
      <trkpt lat="45.36892" lon="5.81598">
        <ele>1776</ele>
        <time>2022-06-13T10:05:56Z</time>
      </trkpt>
      <trkpt lat="45.36886" lon="5.81589">
        <ele>1776</ele>
        <time>2022-06-13T10:06:05Z</time>
      </trkpt>
      <trkpt lat="45.36884" lon="5.81583">
        <ele>1776</ele>
        <time>2022-06-13T10:06:10Z</time>
      </trkpt>
      <trkpt lat="45.36876" lon="5.81575">
        <ele>1775</ele>
        <time>2022-06-13T10:06:19Z</time>
      </trkpt>
      <trkpt lat="45.3686" lon="5.81567">
        <ele>1771</ele>
        <time>2022-06-13T10:06:37Z</time>
      </trkpt>
      <trkpt lat="45.36857" lon="5.81562">
        <ele>1771</ele>
        <time>2022-06-13T10:06:41Z</time>
      </trkpt>
      <trkpt lat="45.36845" lon="5.81553">
        <ele>1769</ele>
        <time>2022-06-13T10:06:54Z</time>
      </trkpt>
      <trkpt lat="45.36841" lon="5.81549">
        <ele>1768</ele>
        <time>2022-06-13T10:06:59Z</time>
      </trkpt>
      <trkpt lat="45.36837" lon="5.81546">
        <ele>1768</ele>
        <time>2022-06-13T10:07:03Z</time>
      </trkpt>
      <trkpt lat="45.36829" lon="5.81538">
        <ele>1766</ele>
        <time>2022-06-13T10:07:12Z</time>
      </trkpt>
      <trkpt lat="45.36826" lon="5.81532">
        <ele>1766</ele>
        <time>2022-06-13T10:07:20Z</time>
      </trkpt>
      <trkpt lat="45.36823" lon="5.81526">
        <ele>1767</ele>
        <time>2022-06-13T10:07:30Z</time>
      </trkpt>
      <trkpt lat="45.36821" lon="5.8152">
        <ele>1768</ele>
        <time>2022-06-13T10:07:40Z</time>
      </trkpt>
      <trkpt lat="45.36817" lon="5.81517">
        <ele>1768</ele>
        <time>2022-06-13T10:07:44Z</time>
      </trkpt>
      <trkpt lat="45.36814" lon="5.81512">
        <ele>1769</ele>
        <time>2022-06-13T10:07:49Z</time>
      </trkpt>
      <trkpt lat="45.36808" lon="5.81492">
        <ele>1773</ele>
        <time>2022-06-13T10:08:21Z</time>
      </trkpt>
      <trkpt lat="45.36802" lon="5.81488">
        <ele>1775</ele>
        <time>2022-06-13T10:08:31Z</time>
      </trkpt>
      <trkpt lat="45.36797" lon="5.81489">
        <ele>1775</ele>
        <time>2022-06-13T10:08:43Z</time>
      </trkpt>
      <trkpt lat="45.36787" lon="5.81486">
        <ele>1772</ele>
        <time>2022-06-13T10:08:53Z</time>
      </trkpt>
      <trkpt lat="45.36778" lon="5.81481">
        <ele>1772</ele>
        <time>2022-06-13T10:09:05Z</time>
      </trkpt>
      <trkpt lat="45.36774" lon="5.81477">
        <ele>1773</ele>
        <time>2022-06-13T10:09:12Z</time>
      </trkpt>
      <trkpt lat="45.36763" lon="5.81475">
        <ele>1774</ele>
        <time>2022-06-13T10:09:26Z</time>
      </trkpt>
      <trkpt lat="45.36759" lon="5.81473">
        <ele>1773</ele>
        <time>2022-06-13T10:09:30Z</time>
      </trkpt>
      <trkpt lat="45.36752" lon="5.81466">
        <ele>1774</ele>
        <time>2022-06-13T10:09:44Z</time>
      </trkpt>
      <trkpt lat="45.36748" lon="5.81469">
        <ele>1774</ele>
        <time>2022-06-13T10:09:46Z</time>
      </trkpt>
      <trkpt lat="45.36743" lon="5.81467">
        <ele>1775</ele>
        <time>2022-06-13T10:09:54Z</time>
      </trkpt>
      <trkpt lat="45.36736" lon="5.81468">
        <ele>1775</ele>
        <time>2022-06-13T10:10:06Z</time>
      </trkpt>
      <trkpt lat="45.36731" lon="5.81466">
        <ele>1774</ele>
        <time>2022-06-13T10:10:10Z</time>
      </trkpt>
      <trkpt lat="45.36726" lon="5.81463">
        <ele>1774</ele>
        <time>2022-06-13T10:10:14Z</time>
      </trkpt>
      <trkpt lat="45.36723" lon="5.81459">
        <ele>1775</ele>
        <time>2022-06-13T10:10:18Z</time>
      </trkpt>
      <trkpt lat="45.36716" lon="5.81455">
        <ele>1776</ele>
        <time>2022-06-13T10:10:28Z</time>
      </trkpt>
      <trkpt lat="45.36706" lon="5.81453">
        <ele>1777</ele>
        <time>2022-06-13T10:10:39Z</time>
      </trkpt>
      <trkpt lat="45.36701" lon="5.81449">
        <ele>1777</ele>
        <time>2022-06-13T10:10:46Z</time>
      </trkpt>
      <trkpt lat="45.36696" lon="5.81447">
        <ele>1777</ele>
        <time>2022-06-13T10:10:51Z</time>
      </trkpt>
      <trkpt lat="45.36693" lon="5.81438">
        <ele>1779</ele>
        <time>2022-06-13T10:11:04Z</time>
      </trkpt>
      <trkpt lat="45.36675" lon="5.81429">
        <ele>1782</ele>
        <time>2022-06-13T10:11:27Z</time>
      </trkpt>
      <trkpt lat="45.36671" lon="5.8143">
        <ele>1782</ele>
        <time>2022-06-13T10:11:32Z</time>
      </trkpt>
      <trkpt lat="45.36665" lon="5.81424">
        <ele>1782</ele>
        <time>2022-06-13T10:11:38Z</time>
      </trkpt>
      <trkpt lat="45.36664" lon="5.81417">
        <ele>1784</ele>
        <time>2022-06-13T10:11:50Z</time>
      </trkpt>
      <trkpt lat="45.3666" lon="5.81412">
        <ele>1785</ele>
        <time>2022-06-13T10:12:00Z</time>
      </trkpt>
      <trkpt lat="45.36661" lon="5.81405">
        <ele>1787</ele>
        <time>2022-06-13T10:12:15Z</time>
      </trkpt>
      <trkpt lat="45.36656" lon="5.814">
        <ele>1790</ele>
        <time>2022-06-13T10:12:36Z</time>
      </trkpt>
      <trkpt lat="45.36653" lon="5.81393">
        <ele>1791</ele>
        <time>2022-06-13T10:12:46Z</time>
      </trkpt>
      <trkpt lat="45.36649" lon="5.81391">
        <ele>1793</ele>
        <time>2022-06-13T10:12:56Z</time>
      </trkpt>
      <trkpt lat="45.36646" lon="5.81386">
        <ele>1795</ele>
        <time>2022-06-13T10:13:16Z</time>
      </trkpt>
      <trkpt lat="45.36646" lon="5.81377">
        <ele>1797</ele>
        <time>2022-06-13T10:13:33Z</time>
      </trkpt>
      <trkpt lat="45.36643" lon="5.81368">
        <ele>1800</ele>
        <time>2022-06-13T10:13:54Z</time>
      </trkpt>
      <trkpt lat="45.36643" lon="5.8136">
        <ele>1801</ele>
        <time>2022-06-13T10:14:09Z</time>
      </trkpt>
      <trkpt lat="45.36637" lon="5.81356">
        <ele>1803</ele>
        <time>2022-06-13T10:14:25Z</time>
      </trkpt>
      <trkpt lat="45.36633" lon="5.8135">
        <ele>1803</ele>
        <time>2022-06-13T10:14:35Z</time>
      </trkpt>
      <trkpt lat="45.36631" lon="5.81344">
        <ele>1804</ele>
        <time>2022-06-13T10:14:45Z</time>
      </trkpt>
      <trkpt lat="45.36626" lon="5.81338">
        <ele>1804</ele>
        <time>2022-06-13T10:14:57Z</time>
      </trkpt>
      <trkpt lat="45.36622" lon="5.81334">
        <ele>1805</ele>
        <time>2022-06-13T10:15:06Z</time>
      </trkpt>
      <trkpt lat="45.36617" lon="5.81329">
        <ele>1805</ele>
        <time>2022-06-13T10:15:16Z</time>
      </trkpt>
      <trkpt lat="45.36611" lon="5.81327">
        <ele>1803</ele>
        <time>2022-06-13T10:15:45Z</time>
      </trkpt>
      <trkpt lat="45.36604" lon="5.81328">
        <ele>1801</ele>
        <time>2022-06-13T10:15:55Z</time>
      </trkpt>
      <trkpt lat="45.366" lon="5.81332">
        <ele>1800</ele>
        <time>2022-06-13T10:16:01Z</time>
      </trkpt>
      <trkpt lat="45.36595" lon="5.81333">
        <ele>1799</ele>
        <time>2022-06-13T10:16:05Z</time>
      </trkpt>
      <trkpt lat="45.36586" lon="5.81329">
        <ele>1801</ele>
        <time>2022-06-13T10:16:30Z</time>
      </trkpt>
      <trkpt lat="45.36577" lon="5.81328">
        <ele>1800</ele>
        <time>2022-06-13T10:16:51Z</time>
      </trkpt>
      <trkpt lat="45.36566" lon="5.81325">
        <ele>1798</ele>
        <time>2022-06-13T10:17:06Z</time>
      </trkpt>
      <trkpt lat="45.36564" lon="5.81318">
        <ele>1799</ele>
        <time>2022-06-13T10:17:18Z</time>
      </trkpt>
      <trkpt lat="45.36564" lon="5.81311">
        <ele>1800</ele>
        <time>2022-06-13T10:17:26Z</time>
      </trkpt>
      <trkpt lat="45.36564" lon="5.81305">
        <ele>1804</ele>
        <time>2022-06-13T10:17:54Z</time>
      </trkpt>
      <trkpt lat="45.3657" lon="5.81301">
        <ele>1807</ele>
        <time>2022-06-13T10:18:20Z</time>
      </trkpt>
      <trkpt lat="45.36569" lon="5.81294">
        <ele>1801</ele>
        <time>2022-06-13T10:18:55Z</time>
      </trkpt>
      <trkpt lat="45.36571" lon="5.81292">
        <ele>1801</ele>
        <time>2022-06-13T10:19:33Z</time>
      </trkpt>
      <trkpt lat="45.36571" lon="5.81283">
        <ele>1796</ele>
        <time>2022-06-13T10:20:25Z</time>
      </trkpt>
      <trkpt lat="45.36573" lon="5.81271">
        <ele>1792</ele>
        <time>2022-06-13T10:20:52Z</time>
      </trkpt>
      <trkpt lat="45.36575" lon="5.81267">
        <ele>1786</ele>
        <time>2022-06-13T10:21:32Z</time>
      </trkpt>
      <trkpt lat="45.36578" lon="5.81259">
        <ele>1780</ele>
        <time>2022-06-13T10:21:57Z</time>
      </trkpt>
      <trkpt lat="45.3658" lon="5.81264">
        <ele>1780</ele>
        <time>2022-06-13T10:22:01Z</time>
      </trkpt>
      <trkpt lat="45.36587" lon="5.81263">
        <ele>1778</ele>
        <time>2022-06-13T10:22:22Z</time>
      </trkpt>
      <trkpt lat="45.36601" lon="5.81261">
        <ele>1778</ele>
        <time>2022-06-13T10:22:49Z</time>
      </trkpt>
      <trkpt lat="45.36607" lon="5.81264">
        <ele>1778</ele>
        <time>2022-06-13T10:22:52Z</time>
      </trkpt>
      <trkpt lat="45.36611" lon="5.81262">
        <ele>1778</ele>
        <time>2022-06-13T10:23:21Z</time>
      </trkpt>
      <trkpt lat="45.36617" lon="5.81264">
        <ele>1779</ele>
        <time>2022-06-13T10:23:36Z</time>
      </trkpt>
      <trkpt lat="45.36621" lon="5.81261">
        <ele>1780</ele>
        <time>2022-06-13T10:23:42Z</time>
      </trkpt>
      <trkpt lat="45.36626" lon="5.81263">
        <ele>1779</ele>
        <time>2022-06-13T10:23:49Z</time>
      </trkpt>
      <trkpt lat="45.36631" lon="5.81264">
        <ele>1778</ele>
        <time>2022-06-13T10:23:57Z</time>
      </trkpt>
      <trkpt lat="45.36636" lon="5.81261">
        <ele>1776</ele>
        <time>2022-06-13T10:24:27Z</time>
      </trkpt>
      <trkpt lat="45.36641" lon="5.81262">
        <ele>1776</ele>
        <time>2022-06-13T10:24:37Z</time>
      </trkpt>
      <trkpt lat="45.36646" lon="5.81263">
        <ele>1776</ele>
        <time>2022-06-13T10:24:47Z</time>
      </trkpt>
      <trkpt lat="45.3665" lon="5.81257">
        <ele>1774</ele>
        <time>2022-06-13T10:24:57Z</time>
      </trkpt>
      <trkpt lat="45.36655" lon="5.81257">
        <ele>1773</ele>
        <time>2022-06-13T10:25:07Z</time>
      </trkpt>
      <trkpt lat="45.3666" lon="5.81255">
        <ele>1772</ele>
        <time>2022-06-13T10:25:17Z</time>
      </trkpt>
      <trkpt lat="45.36662" lon="5.81249">
        <ele>1769</ele>
        <time>2022-06-13T10:25:29Z</time>
      </trkpt>
      <trkpt lat="45.36661" lon="5.81242">
        <ele>1766</ele>
        <time>2022-06-13T10:25:44Z</time>
      </trkpt>
      <trkpt lat="45.36657" lon="5.81234">
        <ele>1762</ele>
        <time>2022-06-13T10:26:05Z</time>
      </trkpt>
      <trkpt lat="45.36653" lon="5.81233">
        <ele>1759</ele>
        <time>2022-06-13T10:26:16Z</time>
      </trkpt>
      <trkpt lat="45.36648" lon="5.81232">
        <ele>1756</ele>
        <time>2022-06-13T10:26:31Z</time>
      </trkpt>
      <trkpt lat="45.36644" lon="5.81229">
        <ele>1753</ele>
        <time>2022-06-13T10:26:51Z</time>
      </trkpt>
      <trkpt lat="45.36639" lon="5.81227">
        <ele>1752</ele>
        <time>2022-06-13T10:27:31Z</time>
      </trkpt>
      <trkpt lat="45.36628" lon="5.81225">
        <ele>1746</ele>
        <time>2022-06-13T10:27:56Z</time>
      </trkpt>
      <trkpt lat="45.36622" lon="5.81223">
        <ele>1742</ele>
        <time>2022-06-13T10:28:13Z</time>
      </trkpt>
      <trkpt lat="45.36618" lon="5.81215">
        <ele>1738</ele>
        <time>2022-06-13T10:28:29Z</time>
      </trkpt>
      <trkpt lat="45.36614" lon="5.81217">
        <ele>1736</ele>
        <time>2022-06-13T10:28:39Z</time>
      </trkpt>
      <trkpt lat="45.36615" lon="5.81208">
        <ele>1734</ele>
        <time>2022-06-13T10:28:49Z</time>
      </trkpt>
      <trkpt lat="45.36609" lon="5.81206">
        <ele>1732</ele>
        <time>2022-06-13T10:28:59Z</time>
      </trkpt>
      <trkpt lat="45.36597" lon="5.81209">
        <ele>1727</ele>
        <time>2022-06-13T10:29:19Z</time>
      </trkpt>
      <trkpt lat="45.36592" lon="5.81212">
        <ele>1725</ele>
        <time>2022-06-13T10:29:29Z</time>
      </trkpt>
      <trkpt lat="45.36573" lon="5.81215">
        <ele>1717</ele>
        <time>2022-06-13T10:30:04Z</time>
      </trkpt>
      <trkpt lat="45.36567" lon="5.81217">
        <ele>1715</ele>
        <time>2022-06-13T10:30:15Z</time>
      </trkpt>
      <trkpt lat="45.3656" lon="5.81219">
        <ele>1712</ele>
        <time>2022-06-13T10:30:27Z</time>
      </trkpt>
      <trkpt lat="45.36554" lon="5.81217">
        <ele>1710</ele>
        <time>2022-06-13T10:30:37Z</time>
      </trkpt>
      <trkpt lat="45.36548" lon="5.81215">
        <ele>1707</ele>
        <time>2022-06-13T10:30:47Z</time>
      </trkpt>
      <trkpt lat="45.3653" lon="5.81215">
        <ele>1701</ele>
        <time>2022-06-13T10:31:10Z</time>
      </trkpt>
      <trkpt lat="45.36515" lon="5.81218">
        <ele>1698</ele>
        <time>2022-06-13T10:31:23Z</time>
      </trkpt>
      <trkpt lat="45.36509" lon="5.81222">
        <ele>1698</ele>
        <time>2022-06-13T10:31:30Z</time>
      </trkpt>
      <trkpt lat="45.36496" lon="5.81218">
        <ele>1696</ele>
        <time>2022-06-13T10:31:43Z</time>
      </trkpt>
      <trkpt lat="45.36492" lon="5.81219">
        <ele>1695</ele>
        <time>2022-06-13T10:31:48Z</time>
      </trkpt>
      <trkpt lat="45.36471" lon="5.81211">
        <ele>1690</ele>
        <time>2022-06-13T10:32:17Z</time>
      </trkpt>
      <trkpt lat="45.36466" lon="5.81207">
        <ele>1687</ele>
        <time>2022-06-13T10:32:29Z</time>
      </trkpt>
      <trkpt lat="45.36454" lon="5.81202">
        <ele>1684</ele>
        <time>2022-06-13T10:32:46Z</time>
      </trkpt>
      <trkpt lat="45.36455" lon="5.8121">
        <ele>1683</ele>
        <time>2022-06-13T10:32:57Z</time>
      </trkpt>
      <trkpt lat="45.36441" lon="5.81194">
        <ele>1680</ele>
        <time>2022-06-13T10:33:22Z</time>
      </trkpt>
      <trkpt lat="45.36433" lon="5.81188">
        <ele>1678</ele>
        <time>2022-06-13T10:33:30Z</time>
      </trkpt>
      <trkpt lat="45.36425" lon="5.81174">
        <ele>1675</ele>
        <time>2022-06-13T10:33:47Z</time>
      </trkpt>
      <trkpt lat="45.36422" lon="5.81165">
        <ele>1672</ele>
        <time>2022-06-13T10:33:58Z</time>
      </trkpt>
      <trkpt lat="45.36418" lon="5.8116">
        <ele>1670</ele>
        <time>2022-06-13T10:34:07Z</time>
      </trkpt>
      <trkpt lat="45.36416" lon="5.81152">
        <ele>1667</ele>
        <time>2022-06-13T10:34:17Z</time>
      </trkpt>
      <trkpt lat="45.36411" lon="5.81142">
        <ele>1664</ele>
        <time>2022-06-13T10:34:28Z</time>
      </trkpt>
      <trkpt lat="45.36408" lon="5.81136">
        <ele>1663</ele>
        <time>2022-06-13T10:34:36Z</time>
      </trkpt>
      <trkpt lat="45.36408" lon="5.81129">
        <ele>1662</ele>
        <time>2022-06-13T10:34:40Z</time>
      </trkpt>
      <trkpt lat="45.36401" lon="5.81102">
        <ele>1654</ele>
        <time>2022-06-13T10:35:17Z</time>
      </trkpt>
      <trkpt lat="45.364" lon="5.81096">
        <ele>1652</ele>
        <time>2022-06-13T10:35:25Z</time>
      </trkpt>
      <trkpt lat="45.36395" lon="5.81089">
        <ele>1650</ele>
        <time>2022-06-13T10:35:38Z</time>
      </trkpt>
      <trkpt lat="45.36391" lon="5.81089">
        <ele>1649</ele>
        <time>2022-06-13T10:35:43Z</time>
      </trkpt>
      <trkpt lat="45.36387" lon="5.81087">
        <ele>1647</ele>
        <time>2022-06-13T10:35:50Z</time>
      </trkpt>
      <trkpt lat="45.36381" lon="5.81081">
        <ele>1644</ele>
        <time>2022-06-13T10:36:01Z</time>
      </trkpt>
      <trkpt lat="45.36382" lon="5.81074">
        <ele>1643</ele>
        <time>2022-06-13T10:36:06Z</time>
      </trkpt>
      <trkpt lat="45.3638" lon="5.81068">
        <ele>1641</ele>
        <time>2022-06-13T10:36:13Z</time>
      </trkpt>
      <trkpt lat="45.36376" lon="5.8106">
        <ele>1638</ele>
        <time>2022-06-13T10:36:23Z</time>
      </trkpt>
      <trkpt lat="45.36376" lon="5.81047">
        <ele>1636</ele>
        <time>2022-06-13T10:36:33Z</time>
      </trkpt>
      <trkpt lat="45.36373" lon="5.81043">
        <ele>1633</ele>
        <time>2022-06-13T10:36:41Z</time>
      </trkpt>
      <trkpt lat="45.3637" lon="5.81038">
        <ele>1631</ele>
        <time>2022-06-13T10:36:51Z</time>
      </trkpt>
      <trkpt lat="45.36362" lon="5.81019">
        <ele>1625</ele>
        <time>2022-06-13T10:37:13Z</time>
      </trkpt>
      <trkpt lat="45.36359" lon="5.81014">
        <ele>1624</ele>
        <time>2022-06-13T10:37:16Z</time>
      </trkpt>
      <trkpt lat="45.36361" lon="5.81008">
        <ele>1623</ele>
        <time>2022-06-13T10:37:20Z</time>
      </trkpt>
      <trkpt lat="45.36356" lon="5.80989">
        <ele>1620</ele>
        <time>2022-06-13T10:37:33Z</time>
      </trkpt>
      <trkpt lat="45.36352" lon="5.80985">
        <ele>1619</ele>
        <time>2022-06-13T10:37:37Z</time>
      </trkpt>
      <trkpt lat="45.36347" lon="5.80978">
        <ele>1618</ele>
        <time>2022-06-13T10:37:45Z</time>
      </trkpt>
      <trkpt lat="45.36347" lon="5.80971">
        <ele>1617</ele>
        <time>2022-06-13T10:38:55Z</time>
      </trkpt>
      <trkpt lat="45.36346" lon="5.80969">
        <ele>1616</ele>
        <time>2022-06-13T10:39:15Z</time>
      </trkpt>
      <trkpt lat="45.36348" lon="5.80961">
        <ele>1616</ele>
        <time>2022-06-13T10:39:26Z</time>
      </trkpt>
      <trkpt lat="45.36345" lon="5.80957">
        <ele>1615</ele>
        <time>2022-06-13T10:39:30Z</time>
      </trkpt>
      <trkpt lat="45.36346" lon="5.80962">
        <ele>1614</ele>
        <time>2022-06-13T10:39:56Z</time>
      </trkpt>
      <trkpt lat="45.36346" lon="5.80968">
        <ele>1614</ele>
        <time>2022-06-13T10:39:59Z</time>
      </trkpt>
      <trkpt lat="45.36345" lon="5.80977">
        <ele>1615</ele>
        <time>2022-06-13T10:40:04Z</time>
      </trkpt>
      <trkpt lat="45.3634" lon="5.80975">
        <ele>1615</ele>
        <time>2022-06-13T10:40:17Z</time>
      </trkpt>
      <trkpt lat="45.36335" lon="5.80975">
        <ele>1615</ele>
        <time>2022-06-13T10:40:21Z</time>
      </trkpt>
      <trkpt lat="45.36331" lon="5.8097">
        <ele>1613</ele>
        <time>2022-06-13T10:40:30Z</time>
      </trkpt>
      <trkpt lat="45.36329" lon="5.80962">
        <ele>1613</ele>
        <time>2022-06-13T10:40:41Z</time>
      </trkpt>
      <trkpt lat="45.36325" lon="5.80949">
        <ele>1610</ele>
        <time>2022-06-13T10:40:58Z</time>
      </trkpt>
      <trkpt lat="45.36322" lon="5.80945">
        <ele>1610</ele>
        <time>2022-06-13T10:41:00Z</time>
      </trkpt>
      <trkpt lat="45.36308" lon="5.80933">
        <ele>1607</ele>
        <time>2022-06-13T10:41:23Z</time>
      </trkpt>
      <trkpt lat="45.36291" lon="5.80927">
        <ele>1604</ele>
        <time>2022-06-13T10:41:40Z</time>
      </trkpt>
      <trkpt lat="45.36285" lon="5.80929">
        <ele>1602</ele>
        <time>2022-06-13T10:41:49Z</time>
      </trkpt>
      <trkpt lat="45.3628" lon="5.80929">
        <ele>1601</ele>
        <time>2022-06-13T10:41:56Z</time>
      </trkpt>
      <trkpt lat="45.36275" lon="5.80926">
        <ele>1601</ele>
        <time>2022-06-13T10:42:01Z</time>
      </trkpt>
      <trkpt lat="45.36268" lon="5.80927">
        <ele>1599</ele>
        <time>2022-06-13T10:42:13Z</time>
      </trkpt>
      <trkpt lat="45.36262" lon="5.80925">
        <ele>1598</ele>
        <time>2022-06-13T10:42:22Z</time>
      </trkpt>
      <trkpt lat="45.36257" lon="5.80925">
        <ele>1596</ele>
        <time>2022-06-13T10:42:29Z</time>
      </trkpt>
      <trkpt lat="45.36252" lon="5.80925">
        <ele>1595</ele>
        <time>2022-06-13T10:42:32Z</time>
      </trkpt>
      <trkpt lat="45.36247" lon="5.80926">
        <ele>1595</ele>
        <time>2022-06-13T10:42:36Z</time>
      </trkpt>
      <trkpt lat="45.36233" lon="5.80922">
        <ele>1592</ele>
        <time>2022-06-13T10:42:49Z</time>
      </trkpt>
      <trkpt lat="45.3623" lon="5.80917">
        <ele>1590</ele>
        <time>2022-06-13T10:42:54Z</time>
      </trkpt>
      <trkpt lat="45.36216" lon="5.80913">
        <ele>1586</ele>
        <time>2022-06-13T10:43:15Z</time>
      </trkpt>
      <trkpt lat="45.36211" lon="5.80909">
        <ele>1585</ele>
        <time>2022-06-13T10:43:19Z</time>
      </trkpt>
      <trkpt lat="45.36204" lon="5.80908">
        <ele>1583</ele>
        <time>2022-06-13T10:43:27Z</time>
      </trkpt>
      <trkpt lat="45.36192" lon="5.80896">
        <ele>1580</ele>
        <time>2022-06-13T10:43:41Z</time>
      </trkpt>
      <trkpt lat="45.36181" lon="5.8089">
        <ele>1578</ele>
        <time>2022-06-13T10:43:53Z</time>
      </trkpt>
      <trkpt lat="45.36177" lon="5.80886">
        <ele>1578</ele>
        <time>2022-06-13T10:43:56Z</time>
      </trkpt>
      <trkpt lat="45.36173" lon="5.80885">
        <ele>1577</ele>
        <time>2022-06-13T10:44:01Z</time>
      </trkpt>
      <trkpt lat="45.3617" lon="5.8088">
        <ele>1576</ele>
        <time>2022-06-13T10:44:06Z</time>
      </trkpt>
      <trkpt lat="45.36164" lon="5.80876">
        <ele>1576</ele>
        <time>2022-06-13T10:44:13Z</time>
      </trkpt>
      <trkpt lat="45.36151" lon="5.80865">
        <ele>1573</ele>
        <time>2022-06-13T10:44:29Z</time>
      </trkpt>
      <trkpt lat="45.36146" lon="5.80867">
        <ele>1573</ele>
        <time>2022-06-13T10:44:33Z</time>
      </trkpt>
      <trkpt lat="45.36142" lon="5.80864">
        <ele>1571</ele>
        <time>2022-06-13T10:44:38Z</time>
      </trkpt>
      <trkpt lat="45.36134" lon="5.80853">
        <ele>1570</ele>
        <time>2022-06-13T10:44:49Z</time>
      </trkpt>
      <trkpt lat="45.36127" lon="5.80859">
        <ele>1569</ele>
        <time>2022-06-13T10:44:56Z</time>
      </trkpt>
      <trkpt lat="45.3612" lon="5.80857">
        <ele>1567</ele>
        <time>2022-06-13T10:45:03Z</time>
      </trkpt>
      <trkpt lat="45.36115" lon="5.80858">
        <ele>1565</ele>
        <time>2022-06-13T10:45:10Z</time>
      </trkpt>
      <trkpt lat="45.3611" lon="5.8086">
        <ele>1563</ele>
        <time>2022-06-13T10:45:16Z</time>
      </trkpt>
      <trkpt lat="45.36107" lon="5.80863">
        <ele>1562</ele>
        <time>2022-06-13T10:45:20Z</time>
      </trkpt>
      <trkpt lat="45.36101" lon="5.80859">
        <ele>1560</ele>
        <time>2022-06-13T10:45:27Z</time>
      </trkpt>
      <trkpt lat="45.36097" lon="5.8086">
        <ele>1559</ele>
        <time>2022-06-13T10:45:31Z</time>
      </trkpt>
      <trkpt lat="45.36094" lon="5.80865">
        <ele>1558</ele>
        <time>2022-06-13T10:45:35Z</time>
      </trkpt>
      <trkpt lat="45.36082" lon="5.80869">
        <ele>1555</ele>
        <time>2022-06-13T10:45:46Z</time>
      </trkpt>
      <trkpt lat="45.36067" lon="5.80868">
        <ele>1551</ele>
        <time>2022-06-13T10:46:02Z</time>
      </trkpt>
      <trkpt lat="45.36063" lon="5.80872">
        <ele>1550</ele>
        <time>2022-06-13T10:46:06Z</time>
      </trkpt>
      <trkpt lat="45.36056" lon="5.80874">
        <ele>1549</ele>
        <time>2022-06-13T10:46:12Z</time>
      </trkpt>
      <trkpt lat="45.36051" lon="5.80871">
        <ele>1548</ele>
        <time>2022-06-13T10:46:24Z</time>
      </trkpt>
      <trkpt lat="45.36057" lon="5.80857">
        <ele>1545</ele>
        <time>2022-06-13T10:46:38Z</time>
      </trkpt>
      <trkpt lat="45.36062" lon="5.80851">
        <ele>1544</ele>
        <time>2022-06-13T10:46:43Z</time>
      </trkpt>
      <trkpt lat="45.36062" lon="5.80843">
        <ele>1543</ele>
        <time>2022-06-13T10:46:47Z</time>
      </trkpt>
      <trkpt lat="45.36066" lon="5.80836">
        <ele>1541</ele>
        <time>2022-06-13T10:46:52Z</time>
      </trkpt>
      <trkpt lat="45.3607" lon="5.80822">
        <ele>1539</ele>
        <time>2022-06-13T10:47:00Z</time>
      </trkpt>
      <trkpt lat="45.36078" lon="5.80808">
        <ele>1535</ele>
        <time>2022-06-13T10:47:17Z</time>
      </trkpt>
      <trkpt lat="45.36079" lon="5.80799">
        <ele>1534</ele>
        <time>2022-06-13T10:47:22Z</time>
      </trkpt>
      <trkpt lat="45.36082" lon="5.80795">
        <ele>1533</ele>
        <time>2022-06-13T10:47:26Z</time>
      </trkpt>
      <trkpt lat="45.36092" lon="5.80794">
        <ele>1531</ele>
        <time>2022-06-13T10:47:35Z</time>
      </trkpt>
      <trkpt lat="45.36094" lon="5.80784">
        <ele>1530</ele>
        <time>2022-06-13T10:47:41Z</time>
      </trkpt>
      <trkpt lat="45.36099" lon="5.8078">
        <ele>1528</ele>
        <time>2022-06-13T10:47:49Z</time>
      </trkpt>
      <trkpt lat="45.36105" lon="5.80757">
        <ele>1524</ele>
        <time>2022-06-13T10:48:04Z</time>
      </trkpt>
      <trkpt lat="45.36114" lon="5.80752">
        <ele>1522</ele>
        <time>2022-06-13T10:48:14Z</time>
      </trkpt>
      <trkpt lat="45.36118" lon="5.80751">
        <ele>1521</ele>
        <time>2022-06-13T10:48:17Z</time>
      </trkpt>
      <trkpt lat="45.36117" lon="5.80745">
        <ele>1521</ele>
        <time>2022-06-13T10:48:21Z</time>
      </trkpt>
      <trkpt lat="45.36123" lon="5.8074">
        <ele>1520</ele>
        <time>2022-06-13T10:48:28Z</time>
      </trkpt>
      <trkpt lat="45.36127" lon="5.80737">
        <ele>1519</ele>
        <time>2022-06-13T10:48:32Z</time>
      </trkpt>
      <trkpt lat="45.36136" lon="5.80716">
        <ele>1516</ele>
        <time>2022-06-13T10:48:49Z</time>
      </trkpt>
      <trkpt lat="45.36141" lon="5.80706">
        <ele>1515</ele>
        <time>2022-06-13T10:48:58Z</time>
      </trkpt>
      <trkpt lat="45.36137" lon="5.80701">
        <ele>1514</ele>
        <time>2022-06-13T10:49:03Z</time>
      </trkpt>
      <trkpt lat="45.36124" lon="5.80709">
        <ele>1510</ele>
        <time>2022-06-13T10:49:16Z</time>
      </trkpt>
      <trkpt lat="45.36119" lon="5.80716">
        <ele>1509</ele>
        <time>2022-06-13T10:49:23Z</time>
      </trkpt>
      <trkpt lat="45.36106" lon="5.80721">
        <ele>1507</ele>
        <time>2022-06-13T10:49:36Z</time>
      </trkpt>
      <trkpt lat="45.36101" lon="5.8072">
        <ele>1506</ele>
        <time>2022-06-13T10:49:39Z</time>
      </trkpt>
      <trkpt lat="45.36098" lon="5.80725">
        <ele>1505</ele>
        <time>2022-06-13T10:49:44Z</time>
      </trkpt>
      <trkpt lat="45.36093" lon="5.80724">
        <ele>1505</ele>
        <time>2022-06-13T10:49:49Z</time>
      </trkpt>
      <trkpt lat="45.36088" lon="5.80725">
        <ele>1504</ele>
        <time>2022-06-13T10:49:52Z</time>
      </trkpt>
      <trkpt lat="45.36085" lon="5.80729">
        <ele>1503</ele>
        <time>2022-06-13T10:49:56Z</time>
      </trkpt>
      <trkpt lat="45.3608" lon="5.80731">
        <ele>1502</ele>
        <time>2022-06-13T10:50:01Z</time>
      </trkpt>
      <trkpt lat="45.3607" lon="5.80731">
        <ele>1500</ele>
        <time>2022-06-13T10:50:13Z</time>
      </trkpt>
      <trkpt lat="45.36064" lon="5.80733">
        <ele>1500</ele>
        <time>2022-06-13T10:50:20Z</time>
      </trkpt>
      <trkpt lat="45.3606" lon="5.80737">
        <ele>1499</ele>
        <time>2022-06-13T10:50:25Z</time>
      </trkpt>
      <trkpt lat="45.36046" lon="5.8074">
        <ele>1496</ele>
        <time>2022-06-13T10:50:39Z</time>
      </trkpt>
      <trkpt lat="45.36039" lon="5.80745">
        <ele>1495</ele>
        <time>2022-06-13T10:50:46Z</time>
      </trkpt>
      <trkpt lat="45.3603" lon="5.80746">
        <ele>1493</ele>
        <time>2022-06-13T10:50:56Z</time>
      </trkpt>
      <trkpt lat="45.36021" lon="5.80745">
        <ele>1492</ele>
        <time>2022-06-13T10:51:04Z</time>
      </trkpt>
      <trkpt lat="45.3603" lon="5.80739">
        <ele>1488</ele>
        <time>2022-06-13T10:51:22Z</time>
      </trkpt>
      <trkpt lat="45.36035" lon="5.80731">
        <ele>1487</ele>
        <time>2022-06-13T10:51:30Z</time>
      </trkpt>
      <trkpt lat="45.3604" lon="5.80729">
        <ele>1487</ele>
        <time>2022-06-13T10:51:34Z</time>
      </trkpt>
      <trkpt lat="45.36046" lon="5.80717">
        <ele>1486</ele>
        <time>2022-06-13T10:51:44Z</time>
      </trkpt>
      <trkpt lat="45.3605" lon="5.80719">
        <ele>1485</ele>
        <time>2022-06-13T10:51:49Z</time>
      </trkpt>
      <trkpt lat="45.36053" lon="5.80713">
        <ele>1484</ele>
        <time>2022-06-13T10:51:53Z</time>
      </trkpt>
      <trkpt lat="45.36059" lon="5.80708">
        <ele>1482</ele>
        <time>2022-06-13T10:52:01Z</time>
      </trkpt>
      <trkpt lat="45.3607" lon="5.80699">
        <ele>1481</ele>
        <time>2022-06-13T10:52:14Z</time>
      </trkpt>
      <trkpt lat="45.36074" lon="5.80691">
        <ele>1480</ele>
        <time>2022-06-13T10:52:18Z</time>
      </trkpt>
      <trkpt lat="45.36074" lon="5.80678">
        <ele>1478</ele>
        <time>2022-06-13T10:52:26Z</time>
      </trkpt>
      <trkpt lat="45.36078" lon="5.80674">
        <ele>1478</ele>
        <time>2022-06-13T10:52:30Z</time>
      </trkpt>
      <trkpt lat="45.36079" lon="5.80666">
        <ele>1477</ele>
        <time>2022-06-13T10:52:37Z</time>
      </trkpt>
      <trkpt lat="45.36082" lon="5.80656">
        <ele>1476</ele>
        <time>2022-06-13T10:52:45Z</time>
      </trkpt>
      <trkpt lat="45.36088" lon="5.80651">
        <ele>1474</ele>
        <time>2022-06-13T10:52:51Z</time>
      </trkpt>
      <trkpt lat="45.36093" lon="5.80647">
        <ele>1473</ele>
        <time>2022-06-13T10:52:58Z</time>
      </trkpt>
      <trkpt lat="45.36093" lon="5.80638">
        <ele>1472</ele>
        <time>2022-06-13T10:53:05Z</time>
      </trkpt>
      <trkpt lat="45.36093" lon="5.80631">
        <ele>1471</ele>
        <time>2022-06-13T10:53:09Z</time>
      </trkpt>
      <trkpt lat="45.36095" lon="5.80624">
        <ele>1471</ele>
        <time>2022-06-13T10:53:12Z</time>
      </trkpt>
      <trkpt lat="45.36092" lon="5.80611">
        <ele>1470</ele>
        <time>2022-06-13T10:53:21Z</time>
      </trkpt>
      <trkpt lat="45.36097" lon="5.80603">
        <ele>1468</ele>
        <time>2022-06-13T10:53:30Z</time>
      </trkpt>
      <trkpt lat="45.36093" lon="5.80585">
        <ele>1467</ele>
        <time>2022-06-13T10:53:42Z</time>
      </trkpt>
      <trkpt lat="45.36078" lon="5.80574">
        <ele>1465</ele>
        <time>2022-06-13T10:53:57Z</time>
      </trkpt>
      <trkpt lat="45.36078" lon="5.80566">
        <ele>1464</ele>
        <time>2022-06-13T10:54:04Z</time>
      </trkpt>
      <trkpt lat="45.36073" lon="5.80566">
        <ele>1464</ele>
        <time>2022-06-13T10:54:14Z</time>
      </trkpt>
      <trkpt lat="45.36074" lon="5.80573">
        <ele>1463</ele>
        <time>2022-06-13T10:54:18Z</time>
      </trkpt>
      <trkpt lat="45.36076" lon="5.80584">
        <ele>1462</ele>
        <time>2022-06-13T10:54:24Z</time>
      </trkpt>
      <trkpt lat="45.36075" lon="5.80592">
        <ele>1460</ele>
        <time>2022-06-13T10:54:32Z</time>
      </trkpt>
      <trkpt lat="45.36075" lon="5.80598">
        <ele>1459</ele>
        <time>2022-06-13T10:54:35Z</time>
      </trkpt>
      <trkpt lat="45.36075" lon="5.80605">
        <ele>1459</ele>
        <time>2022-06-13T10:54:39Z</time>
      </trkpt>
      <trkpt lat="45.36073" lon="5.80601">
        <ele>1457</ele>
        <time>2022-06-13T10:54:57Z</time>
      </trkpt>
      <trkpt lat="45.36069" lon="5.80587">
        <ele>1455</ele>
        <time>2022-06-13T10:55:05Z</time>
      </trkpt>
      <trkpt lat="45.36064" lon="5.80583">
        <ele>1454</ele>
        <time>2022-06-13T10:55:10Z</time>
      </trkpt>
      <trkpt lat="45.3606" lon="5.80578">
        <ele>1453</ele>
        <time>2022-06-13T10:55:16Z</time>
      </trkpt>
      <trkpt lat="45.36059" lon="5.80589">
        <ele>1450</ele>
        <time>2022-06-13T10:55:28Z</time>
      </trkpt>
      <trkpt lat="45.36057" lon="5.80595">
        <ele>1449</ele>
        <time>2022-06-13T10:55:32Z</time>
      </trkpt>
      <trkpt lat="45.36059" lon="5.80603">
        <ele>1449</ele>
        <time>2022-06-13T10:55:36Z</time>
      </trkpt>
      <trkpt lat="45.36055" lon="5.80608">
        <ele>1449</ele>
        <time>2022-06-13T10:55:39Z</time>
      </trkpt>
      <trkpt lat="45.36052" lon="5.80614">
        <ele>1447</ele>
        <time>2022-06-13T10:55:44Z</time>
      </trkpt>
      <trkpt lat="45.3605" lon="5.80616">
        <ele>1446</ele>
        <time>2022-06-13T10:55:54Z</time>
      </trkpt>
      <trkpt lat="45.36046" lon="5.80616">
        <ele>1446</ele>
        <time>2022-06-13T10:55:59Z</time>
      </trkpt>
      <trkpt lat="45.36046" lon="5.80624">
        <ele>1445</ele>
        <time>2022-06-13T10:56:03Z</time>
      </trkpt>
      <trkpt lat="45.36043" lon="5.80628">
        <ele>1445</ele>
        <time>2022-06-13T10:56:06Z</time>
      </trkpt>
      <trkpt lat="45.36026" lon="5.80642">
        <ele>1441</ele>
        <time>2022-06-13T10:56:26Z</time>
      </trkpt>
      <trkpt lat="45.36026" lon="5.80637">
        <ele>1438</ele>
        <time>2022-06-13T10:56:45Z</time>
      </trkpt>
      <trkpt lat="45.36029" lon="5.80633">
        <ele>1438</ele>
        <time>2022-06-13T10:56:48Z</time>
      </trkpt>
      <trkpt lat="45.36031" lon="5.80627">
        <ele>1437</ele>
        <time>2022-06-13T10:56:52Z</time>
      </trkpt>
      <trkpt lat="45.36019" lon="5.80618">
        <ele>1432</ele>
        <time>2022-06-13T10:57:09Z</time>
      </trkpt>
      <trkpt lat="45.3601" lon="5.80625">
        <ele>1428</ele>
        <time>2022-06-13T10:57:17Z</time>
      </trkpt>
      <trkpt lat="45.36005" lon="5.80625">
        <ele>1428</ele>
        <time>2022-06-13T10:57:21Z</time>
      </trkpt>
      <trkpt lat="45.35989" lon="5.80629">
        <ele>1424</ele>
        <time>2022-06-13T10:57:49Z</time>
      </trkpt>
      <trkpt lat="45.35982" lon="5.80627">
        <ele>1423</ele>
        <time>2022-06-13T10:58:04Z</time>
      </trkpt>
      <trkpt lat="45.35971" lon="5.80629">
        <ele>1421</ele>
        <time>2022-06-13T10:58:11Z</time>
      </trkpt>
      <trkpt lat="45.35958" lon="5.80624">
        <ele>1417</ele>
        <time>2022-06-13T10:58:43Z</time>
      </trkpt>
      <trkpt lat="45.35953" lon="5.80622">
        <ele>1416</ele>
        <time>2022-06-13T10:58:48Z</time>
      </trkpt>
      <trkpt lat="45.35948" lon="5.80625">
        <ele>1417</ele>
        <time>2022-06-13T10:59:00Z</time>
      </trkpt>
      <trkpt lat="45.35946" lon="5.80632">
        <ele>1417</ele>
        <time>2022-06-13T10:59:34Z</time>
      </trkpt>
      <trkpt lat="45.35951" lon="5.80632">
        <ele>1417</ele>
        <time>2022-06-13T10:59:45Z</time>
      </trkpt>
      <trkpt lat="45.35949" lon="5.80626">
        <ele>1417</ele>
        <time>2022-06-13T11:00:45Z</time>
      </trkpt>
      <trkpt lat="45.35944" lon="5.80627">
        <ele>1416</ele>
        <time>2022-06-13T11:01:26Z</time>
      </trkpt>
      <trkpt lat="45.3594" lon="5.80623">
        <ele>1416</ele>
        <time>2022-06-13T11:01:30Z</time>
      </trkpt>
      <trkpt lat="45.3593" lon="5.80622">
        <ele>1414</ele>
        <time>2022-06-13T11:01:42Z</time>
      </trkpt>
      <trkpt lat="45.35931" lon="5.80616">
        <ele>1411</ele>
        <time>2022-06-13T11:02:00Z</time>
      </trkpt>
      <trkpt lat="45.35935" lon="5.80612">
        <ele>1410</ele>
        <time>2022-06-13T11:02:03Z</time>
      </trkpt>
      <trkpt lat="45.35939" lon="5.80609">
        <ele>1408</ele>
        <time>2022-06-13T11:02:12Z</time>
      </trkpt>
      <trkpt lat="45.35934" lon="5.80602">
        <ele>1404</ele>
        <time>2022-06-13T11:02:21Z</time>
      </trkpt>
      <trkpt lat="45.35934" lon="5.80607">
        <ele>1402</ele>
        <time>2022-06-13T11:03:22Z</time>
      </trkpt>
      <trkpt lat="45.35933" lon="5.80595">
        <ele>1403</ele>
        <time>2022-06-13T11:04:04Z</time>
      </trkpt>
      <trkpt lat="45.35928" lon="5.8059">
        <ele>1403</ele>
        <time>2022-06-13T11:04:33Z</time>
      </trkpt>
      <trkpt lat="45.35927" lon="5.80589">
        <ele>1398</ele>
        <time>2022-06-13T11:04:56Z</time>
      </trkpt>
      <trkpt lat="45.35935" lon="5.80588">
        <ele>1397</ele>
        <time>2022-06-13T11:05:05Z</time>
      </trkpt>
      <trkpt lat="45.35941" lon="5.80589">
        <ele>1396</ele>
        <time>2022-06-13T11:05:12Z</time>
      </trkpt>
      <trkpt lat="45.35947" lon="5.80584">
        <ele>1394</ele>
        <time>2022-06-13T11:05:22Z</time>
      </trkpt>
      <trkpt lat="45.35942" lon="5.80579">
        <ele>1393</ele>
        <time>2022-06-13T11:05:25Z</time>
      </trkpt>
      <trkpt lat="45.35951" lon="5.80578">
        <ele>1390</ele>
        <time>2022-06-13T11:05:38Z</time>
      </trkpt>
      <trkpt lat="45.35945" lon="5.80571">
        <ele>1388</ele>
        <time>2022-06-13T11:05:43Z</time>
      </trkpt>
      <trkpt lat="45.35934" lon="5.80567">
        <ele>1386</ele>
        <time>2022-06-13T11:05:49Z</time>
      </trkpt>
      <trkpt lat="45.35932" lon="5.80558">
        <ele>1384</ele>
        <time>2022-06-13T11:05:58Z</time>
      </trkpt>
      <trkpt lat="45.3594" lon="5.80556">
        <ele>1381</ele>
        <time>2022-06-13T11:06:15Z</time>
      </trkpt>
      <trkpt lat="45.35944" lon="5.80562">
        <ele>1379</ele>
        <time>2022-06-13T11:06:19Z</time>
      </trkpt>
      <trkpt lat="45.35947" lon="5.80555">
        <ele>1378</ele>
        <time>2022-06-13T11:06:24Z</time>
      </trkpt>
      <trkpt lat="45.35951" lon="5.80551">
        <ele>1376</ele>
        <time>2022-06-13T11:06:30Z</time>
      </trkpt>
      <trkpt lat="45.35965" lon="5.80544">
        <ele>1373</ele>
        <time>2022-06-13T11:06:44Z</time>
      </trkpt>
      <trkpt lat="45.35952" lon="5.80526">
        <ele>1367</ele>
        <time>2022-06-13T11:07:05Z</time>
      </trkpt>
      <trkpt lat="45.35948" lon="5.80525">
        <ele>1366</ele>
        <time>2022-06-13T11:07:08Z</time>
      </trkpt>
      <trkpt lat="45.35934" lon="5.80518">
        <ele>1361</ele>
        <time>2022-06-13T11:07:29Z</time>
      </trkpt>
      <trkpt lat="45.35941" lon="5.80513">
        <ele>1357</ele>
        <time>2022-06-13T11:07:38Z</time>
      </trkpt>
      <trkpt lat="45.35946" lon="5.80513">
        <ele>1357</ele>
        <time>2022-06-13T11:07:42Z</time>
      </trkpt>
      <trkpt lat="45.3595" lon="5.8051">
        <ele>1356</ele>
        <time>2022-06-13T11:07:46Z</time>
      </trkpt>
      <trkpt lat="45.35957" lon="5.8051">
        <ele>1354</ele>
        <time>2022-06-13T11:07:52Z</time>
      </trkpt>
      <trkpt lat="45.35961" lon="5.80507">
        <ele>1353</ele>
        <time>2022-06-13T11:07:56Z</time>
      </trkpt>
      <trkpt lat="45.35958" lon="5.80493">
        <ele>1351</ele>
        <time>2022-06-13T11:08:07Z</time>
      </trkpt>
      <trkpt lat="45.35954" lon="5.80494">
        <ele>1350</ele>
        <time>2022-06-13T11:08:11Z</time>
      </trkpt>
      <trkpt lat="45.35949" lon="5.80493">
        <ele>1349</ele>
        <time>2022-06-13T11:08:15Z</time>
      </trkpt>
      <trkpt lat="45.35939" lon="5.80485">
        <ele>1345</ele>
        <time>2022-06-13T11:08:31Z</time>
      </trkpt>
      <trkpt lat="45.35943" lon="5.80478">
        <ele>1341</ele>
        <time>2022-06-13T11:08:42Z</time>
      </trkpt>
      <trkpt lat="45.35943" lon="5.80473">
        <ele>1338</ele>
        <time>2022-06-13T11:08:55Z</time>
      </trkpt>
      <trkpt lat="45.35951" lon="5.80471">
        <ele>1335</ele>
        <time>2022-06-13T11:09:07Z</time>
      </trkpt>
      <trkpt lat="45.35956" lon="5.80467">
        <ele>1334</ele>
        <time>2022-06-13T11:09:10Z</time>
      </trkpt>
      <trkpt lat="45.35961" lon="5.80466">
        <ele>1333</ele>
        <time>2022-06-13T11:09:13Z</time>
      </trkpt>
      <trkpt lat="45.35966" lon="5.80463">
        <ele>1332</ele>
        <time>2022-06-13T11:09:18Z</time>
      </trkpt>
      <trkpt lat="45.35957" lon="5.80454">
        <ele>1330</ele>
        <time>2022-06-13T11:09:25Z</time>
      </trkpt>
      <trkpt lat="45.35963" lon="5.80452">
        <ele>1327</ele>
        <time>2022-06-13T11:09:39Z</time>
      </trkpt>
      <trkpt lat="45.35958" lon="5.80446">
        <ele>1326</ele>
        <time>2022-06-13T11:09:43Z</time>
      </trkpt>
      <trkpt lat="45.35954" lon="5.80438">
        <ele>1323</ele>
        <time>2022-06-13T11:09:51Z</time>
      </trkpt>
      <trkpt lat="45.35961" lon="5.8044">
        <ele>1321</ele>
        <time>2022-06-13T11:10:00Z</time>
      </trkpt>
      <trkpt lat="45.35962" lon="5.80434">
        <ele>1320</ele>
        <time>2022-06-13T11:10:04Z</time>
      </trkpt>
      <trkpt lat="45.35958" lon="5.80434">
        <ele>1318</ele>
        <time>2022-06-13T11:10:13Z</time>
      </trkpt>
      <trkpt lat="45.35957" lon="5.80426">
        <ele>1318</ele>
        <time>2022-06-13T11:10:45Z</time>
      </trkpt>
      <trkpt lat="45.35955" lon="5.80419">
        <ele>1301</ele>
        <time>2022-06-13T11:11:01Z</time>
      </trkpt>
      <trkpt lat="45.35955" lon="5.80419">
        <ele>1301</ele>
        <time>2022-06-13T11:11:11Z</time>
      </trkpt>
      <trkpt lat="45.35943" lon="5.80407">
        <ele>1302</ele>
        <time>2022-06-13T11:11:55Z</time>
      </trkpt>
      <trkpt lat="45.35944" lon="5.80368">
        <ele>1302</ele>
        <time>2022-06-13T11:12:03Z</time>
      </trkpt>
      <trkpt lat="45.35944" lon="5.80378">
        <ele>1301</ele>
        <time>2022-06-13T11:12:23Z</time>
      </trkpt>
      <trkpt lat="45.35968" lon="5.80355">
        <ele>1277</ele>
        <time>2022-06-13T11:14:13Z</time>
      </trkpt>
      <trkpt lat="45.35965" lon="5.80235">
        <ele>1256</ele>
        <time>2022-06-13T11:16:39Z</time>
      </trkpt>
      <trkpt lat="45.35981" lon="5.80277">
        <ele>1257</ele>
        <time>2022-06-13T11:16:42Z</time>
      </trkpt>
      <trkpt lat="45.35985" lon="5.80282">
        <ele>1257</ele>
        <time>2022-06-13T11:16:45Z</time>
      </trkpt>
    </trkseg>
  </trk>
  <rte>
    <name><![CDATA[4 avr. 2019 à 23:11:12]]></name>
    <cmt><![CDATA[4 avr. 2019 à 23:11:12]]></cmt>
    <desc><![CDATA[{DC1}Heure de fin	: 
Durée totale	: 0h00:00
Moyenne globale	: -
Pente moyenne	: 0.00 %
Aire incluse	: 7.4932 ha
Détails par segments
distance  | durée    | vit.moy. | vit.max. | déniv. + | déniv -
   km     | hh:mn:ss |   km/h   |   km/h   |    m     |    m
     0.81 | 00:00:00 |      0.0 |      0.0 |        0 |        0{DC2}]]></desc>
      <rtept lat="45.60077" lon="6.18221">
        <ele>1608.6</ele>
      </rtept>
      <rtept lat="45.59468" lon="6.1822">
        <ele>1760.9</ele>
      </rtept>
      <rtept lat="45.59468" lon="6.1822">
        <ele>1760.9</ele>
      </rtept>
    </rte>
  <rte>
    <name><![CDATA[10 févr. 2019 à 15:16:12]]></name>
    <cmt><![CDATA[10 févr. 2019 à 15:16:12]]></cmt>
    <desc><![CDATA[{DC1}Heure de fin	: 00:09:21
Durée totale	: -17690439h43:48
Moyenne globale	: -
Pente moyenne	: 7.00 %
Aire incluse	: 221.0936 ha
Détails par segments
distance  | durée    | vit.moy. | vit.max. | déniv. + | déniv -
   km     | hh:mn:ss |   km/h   |   km/h   |    m     |    m
     7.48 | 00:00:00 |      0.0 |      0.0 |        0 |        0{DC2}]]></desc>
      <rtept lat="45.55203" lon="5.93805">
        <ele>376</ele>
      </rtept>
      <rtept lat="45.55177" lon="5.93873">
        <ele>369</ele>
      </rtept>
      <rtept lat="45.55176" lon="5.93942">
        <ele>367</ele>
      </rtept>
      <rtept lat="45.55105" lon="5.93942">
        <ele>367</ele>
      </rtept>
      <rtept lat="45.54993" lon="5.93908">
        <ele>371</ele>
      </rtept>
      <rtept lat="45.54929" lon="5.94099">
        <ele>370</ele>
      </rtept>
      <rtept lat="45.54908" lon="5.94204">
        <ele>367</ele>
      </rtept>
      <rtept lat="45.54991" lon="5.94287">
        <ele>365</ele>
      </rtept>
      <rtept lat="45.5506" lon="5.94384">
        <ele>361</ele>
      </rtept>
      <rtept lat="45.55147" lon="5.94384">
        <ele>357</ele>
      </rtept>
      <rtept lat="45.55129" lon="5.94607">
        <ele>358</ele>
      </rtept>
      <rtept lat="45.55029" lon="5.94809">
        <ele>355</ele>
      </rtept>
      <rtept lat="45.54884" lon="5.94886">
        <ele>346</ele>
      </rtept>
      <rtept lat="45.5477" lon="5.94931">
        <ele>342</ele>
      </rtept>
      <rtept lat="45.5468" lon="5.95004">
        <ele>339</ele>
      </rtept>
      <rtept lat="45.54596" lon="5.95133">
        <ele>340</ele>
      </rtept>
      <rtept lat="45.54446" lon="5.95195">
        <ele>343</ele>
      </rtept>
      <rtept lat="45.543" lon="5.95262">
        <ele>344</ele>
      </rtept>
      <rtept lat="45.54156" lon="5.95212">
        <ele>337</ele>
      </rtept>
      <rtept lat="45.54041" lon="5.95204">
        <ele>338</ele>
      </rtept>
      <rtept lat="45.53917" lon="5.95141">
        <ele>343</ele>
      </rtept>
      <rtept lat="45.53844" lon="5.95135">
        <ele>347</ele>
      </rtept>
      <rtept lat="45.53765" lon="5.9503">
        <ele>349</ele>
      </rtept>
      <rtept lat="45.5381" lon="5.94993">
        <ele>352</ele>
      </rtept>
      <rtept lat="45.53781" lon="5.94901">
        <ele>358</ele>
      </rtept>
      <rtept lat="45.53711" lon="5.94845">
        <ele>365</ele>
      </rtept>
      <rtept lat="45.53702" lon="5.94764">
        <ele>369</ele>
      </rtept>
      <rtept lat="45.53817" lon="5.94807">
        <ele>376</ele>
      </rtept>
      <rtept lat="45.53865" lon="5.94633">
        <ele>389</ele>
      </rtept>
      <rtept lat="45.53778" lon="5.94491">
        <ele>408</ele>
      </rtept>
      <rtept lat="45.53757" lon="5.94371">
        <ele>425</ele>
      </rtept>
      <rtept lat="45.53775" lon="5.94279">
        <ele>434</ele>
      </rtept>
      <rtept lat="45.53726" lon="5.94227">
        <ele>442</ele>
      </rtept>
      <rtept lat="45.53572" lon="5.94146">
        <ele>468</ele>
      </rtept>
      <rtept lat="45.53664" lon="5.94039">
        <ele>483</ele>
      </rtept>
      <rtept lat="45.53532" lon="5.93983">
        <ele>505</ele>
      </rtept>
      <rtept lat="45.53416" lon="5.93985">
        <ele>516</ele>
      </rtept>
      <rtept lat="45.5355" lon="5.93869">
        <ele>532</ele>
      </rtept>
      <rtept lat="45.5359" lon="5.93845">
        <ele>537</ele>
      </rtept>
      <rtept lat="45.5355" lon="5.93802">
        <ele>544</ele>
      </rtept>
      <rtept lat="45.53724" lon="5.93554">
        <ele>587</ele>
      </rtept>
      <rtept lat="45.53691" lon="5.93339">
        <ele>592</ele>
      </rtept>
      <rtept lat="45.5376" lon="5.93178">
        <ele>575</ele>
      </rtept>
      <rtept lat="45.53843" lon="5.93069">
        <ele>555</ele>
      </rtept>
      <rtept lat="45.53939" lon="5.93157">
        <ele>541</ele>
      </rtept>
      <rtept lat="45.54068" lon="5.93234">
        <ele>522</ele>
      </rtept>
      <rtept lat="45.54219" lon="5.93247">
        <ele>514</ele>
      </rtept>
      <rtept lat="45.54355" lon="5.93232">
        <ele>512</ele>
      </rtept>
      <rtept lat="45.54489" lon="5.9326">
        <ele>508</ele>
      </rtept>
      <rtept lat="45.54636" lon="5.93249">
        <ele>510</ele>
      </rtept>
      <rtept lat="45.54758" lon="5.93249">
        <ele>510</ele>
      </rtept>
      <rtept lat="45.54818" lon="5.93298">
        <ele>507</ele>
      </rtept>
      <rtept lat="45.54796" lon="5.93418">
        <ele>496</ele>
      </rtept>
      <rtept lat="45.5491" lon="5.93433">
        <ele>483</ele>
      </rtept>
      <rtept lat="45.55126" lon="5.9341">
        <ele>463</ele>
      </rtept>
      <rtept lat="45.55256" lon="5.93453">
        <ele>444</ele>
      </rtept>
      <rtept lat="45.55329" lon="5.93558">
        <ele>430</ele>
      </rtept>
      <rtept lat="45.55222" lon="5.93642">
        <ele>415</ele>
      </rtept>
      <rtept lat="45.55195" lon="5.93811">
        <ele>375</ele>
      </rtept>
    </rte>
  <rte>
    <name><![CDATA[10 févr. 2019 à 15:15:48]]></name>
    <cmt><![CDATA[10 févr. 2019 à 15:15:48]]></cmt>
    <desc><![CDATA[{DC1}Heure de fin	: 00:09:21
Durée totale	: -17690439h44:12
Moyenne globale	: -
Pente moyenne	: nan %
Aire incluse	: 0.0000 ha
Détails par segments
distance  | durée    | vit.moy. | vit.max. | déniv. + | déniv -
   km     | hh:mn:ss |   km/h   |   km/h   |    m     |    m
     0.00 | 00:00:00 |      0.0 |      0.0 |        0 |        0{DC2}]]></desc>
      <rtept lat="45.5175" lon="5.93483">
        <ele>732.3</ele>
      </rtept>
    </rte>
  <rte>
    <name><![CDATA[10 févr. 2019 à 15:06:08]]></name>
    <cmt><![CDATA[10 févr. 2019 à 15:06:08]]></cmt>
    <desc><![CDATA[{DC1}Heure de fin	: 
Durée totale	: 0h00:00
Moyenne globale	: -
Pente moyenne	: 8.03 %
Aire incluse	: 204.0794 ha
Détails par segments
distance  | durée    | vit.moy. | vit.max. | déniv. + | déniv -
   km     | hh:mn:ss |   km/h   |   km/h   |    m     |    m
    12.88 | 00:00:00 |      0.0 |      0.0 |        0 |        0{DC2}]]></desc>
      <rtept lat="45.5509" lon="5.9394">
        <ele>368</ele>
      </rtept>
      <rtept lat="45.55217" lon="5.93791">
        <ele>377</ele>
      </rtept>
    </rte>
  <rte>
    <name><![CDATA[10 févr. 2019 à 14:22:06]]></name>
    <cmt><![CDATA[10 févr. 2019 à 14:22:06]]></cmt>
    <desc><![CDATA[{DC1}Heure de fin	: 00:09:21
Durée totale	: -17690438h37:54
Moyenne globale	: -
Pente moyenne	: 5.62 %
Aire incluse	: 5.7967 ha
Détails par segments
distance  | durée    | vit.moy. | vit.max. | déniv. + | déniv -
   km     | hh:mn:ss |   km/h   |   km/h   |    m     |    m
     3.30 | 00:00:00 |      0.0 |      0.0 |        0 |        0{DC2}]]></desc>
      <rtept lat="45.55169" lon="5.93089">
        <ele>415</ele>
      </rtept>
      <rtept lat="45.5518" lon="5.93905">
        <ele>366</ele>
      </rtept>
    </rte>
  <rte>
    <name><![CDATA[10 févr. 2019 à 09:50:45]]></name>
    <cmt><![CDATA[10 févr. 2019 à 09:50:45]]></cmt>
    <desc><![CDATA[{DC1}Heure de fin	: 00:09:21
Durée totale	: -17690433h09:14
Moyenne globale	: -
Pente moyenne	: 0.00 %
Aire incluse	: 50.7119 ha
Détails par segments
distance  | durée    | vit.moy. | vit.max. | déniv. + | déniv -
   km     | hh:mn:ss |   km/h   |   km/h   |    m     |    m
     4.33 | 00:00:00 |      0.0 |      0.0 |        0 |        0{DC2}]]></desc>
      <rtept lat="45.5503" lon="5.93918">
        <ele>373.6</ele>
      </rtept>
      <rtept lat="45.55191" lon="5.93893">
        <ele>366.7</ele>
      </rtept>
    </rte>
  <rte>
    <name><![CDATA[10 févr. 2019 à 09:07:08]]></name>
    <cmt><![CDATA[10 févr. 2019 à 09:07:08]]></cmt>
    <desc><![CDATA[{DC1}Heure de fin	: 00:09:21
Durée totale	: -17690433h52:52
Moyenne globale	: -
Pente moyenne	: nan %
Aire incluse	: 0.0000 ha
Détails par segments
distance  | durée    | vit.moy. | vit.max. | déniv. + | déniv -
   km     | hh:mn:ss |   km/h   |   km/h   |    m     |    m
     0.00 | 00:00:00 |      0.0 |      0.0 |        0 |        0{DC2}]]></desc>
      <rtept lat="45.55102" lon="5.93919">
        <ele>370.1</ele>
      </rtept>
    </rte>
  <rte>
    <name><![CDATA[10 févr. 2019 à 09:02:25]]></name>
    <cmt><![CDATA[10 févr. 2019 à 09:02:25]]></cmt>
    <desc><![CDATA[{DC1}Heure de fin	: 00:09:21
Durée totale	: -17690433h57:35
Moyenne globale	: -
Pente moyenne	: nan %
Aire incluse	: 0.0000 ha
Détails par segments
distance  | durée    | vit.moy. | vit.max. | déniv. + | déniv -
   km     | hh:mn:ss |   km/h   |   km/h   |    m     |    m
     0.00 | 00:00:00 |      0.0 |      0.0 |        0 |        0{DC2}]]></desc>
      <rtept lat="45.55207" lon="5.93813">
        <ele>375.2</ele>
      </rtept>
    </rte>
  <rte>
    <name><![CDATA[10 févr. 2019 à 09:00:27]]></name>
    <cmt><![CDATA[10 févr. 2019 à 09:00:27]]></cmt>
    <desc><![CDATA[{DC1}Heure de fin	: 00:09:21
Durée totale	: -17690433h59:32
Moyenne globale	: -
Pente moyenne	: nan %
Aire incluse	: 0.0000 ha
Détails par segments
distance  | durée    | vit.moy. | vit.max. | déniv. + | déniv -
   km     | hh:mn:ss |   km/h   |   km/h   |    m     |    m
     0.00 | 00:00:00 |      0.0 |      0.0 |        0 |        0{DC2}]]></desc>
      <rtept lat="45.55244" lon="5.93858">
        <ele>366.6</ele>
      </rtept>
    </rte>
</gpx>